Time,TemperatureF,DewpointF,PressureIn,WindDirection,WindDirectionDegrees,WindSpeedMPH,WindSpeedGustMPH,Humidity,HourlyPrecipIn,Conditions,Clouds,dailyrainin,SoftwareType,DateUTC
2013-12-05 00:00:00,67.2,66.3,29.94,WSW,248,1.3,2.0,97,0.00,,---,0.00,VWS V14.01,2013-12-05 06:00:00,
2013-12-05 00:01:00,67.2,66.3,29.94,South,180,0.0,1.6,97,0.00,,---,0.00,VWS V14.01,2013-12-05 06:01:00,
2013-12-05 00:02:00,67.4,66.5,29.94,SSE,158,0.0,0.0,97,0.00,,---,0.00,VWS V14.01,2013-12-05 06:02:00,
2013-12-05 00:03:00,67.4,66.5,29.94,ESE,112,1.3,2.2,97,0.00,,---,0.00,VWS V14.01,2013-12-05 06:03:00,
2013-12-05 00:04:00,67.6,66.7,29.94,SE,135,2.2,2.2,97,0.00,,---,0.00,VWS V14.01,2013-12-05 06:04:00,
2013-12-05 00:05:00,67.6,66.7,29.94,SE,135,2.2,2.2,97,0.00,,---,0.00,VWS V14.01,2013-12-05 06:05:00,
2013-12-05 00:06:00,67.4,66.5,29.94,SSE,158,2.0,2.5,97,0.00,,---,0.00,VWS V14.01,2013-12-05 06:06:00,
2013-12-05 00:07:00,67.4,66.5,29.94,ESE,112,0.0,2.0,97,0.00,,---,0.00,VWS V14.01,2013-12-05 06:07:00,
2013-12-05 00:08:00,67.4,66.5,29.94,ESE,112,0.0,0.0,97,0.00,,---,0.00,VWS V14.01,2013-12-05 06:08:00,
2013-12-05 00:09:00,67.4,66.2,29.94,SSW,202,0.0,0.0,96,0.00,,---,0.00,VWS V14.01,2013-12-05 06:09:00,
2013-12-05 00:10:00,67.4,66.2,29.94,SSE,158,2.0,2.9,96,0.00,,---,0.00,VWS V14.01,2013-12-05 06:10:00,
2013-12-05 00:11:00,67.4,66.2,29.94,SSE,158,0.0,2.0,96,0.00,,---,0.00,VWS V14.01,2013-12-05 06:11:00,
2013-12-05 00:12:00,67.6,66.7,29.94,SSE,158,0.0,0.0,97,0.00,,---,0.00,VWS V14.01,2013-12-05 06:12:00,
2013-12-05 00:13:00,67.6,66.7,29.94,SSE,158,2.5,2.7,97,0.00,,---,0.00,VWS V14.01,2013-12-05 06:13:00,
2013-12-05 00:14:00,67.6,66.7,29.94,SSE,158,0.0,2.7,97,0.00,,---,0.00,VWS V14.01,2013-12-05 06:14:00,
2013-12-05 00:15:00,67.6,66.7,29.94,SSE,158,1.1,1.3,97,0.00,,---,0.00,VWS V14.01,2013-12-05 06:15:00,
2013-12-05 00:16:00,67.7,66.9,29.94,SSE,158,0.0,2.2,97,0.00,,---,0.00,VWS V14.01,2013-12-05 06:16:00,
2013-12-05 00:17:00,67.7,66.9,29.94,SSE,158,0.0,0.9,97,0.00,,---,0.00,VWS V14.01,2013-12-05 06:17:00,
2013-12-05 00:18:00,67.7,66.9,29.94,ESE,112,0.0,0.0,97,0.00,,---,0.00,VWS V14.01,2013-12-05 06:18:00,
2013-12-05 00:20:00,67.7,66.9,29.94,SSE,158,0.0,0.0,97,0.00,,---,0.00,VWS V14.01,2013-12-05 06:20:00,
2013-12-05 00:21:00,67.9,67.0,29.94,SSE,158,0.0,1.1,97,0.00,,---,0.00,VWS V14.01,2013-12-05 06:21:00,
2013-12-05 00:22:00,67.9,67.0,29.94,SW,225,0.0,0.0,97,0.00,,---,0.00,VWS V14.01,2013-12-05 06:22:00,
2013-12-05 00:23:00,67.9,67.0,29.94,SSW,202,0.0,0.0,97,0.00,,---,0.00,VWS V14.01,2013-12-05 06:23:00,
2013-12-05 00:24:00,67.9,67.0,29.94,SSE,158,0.0,0.0,97,0.00,,---,0.00,VWS V14.01,2013-12-05 06:24:00,
2013-12-05 00:25:00,68.1,67.2,29.94,SSE,158,0.0,0.0,97,0.00,,---,0.00,VWS V14.01,2013-12-05 06:25:00,
2013-12-05 00:26:00,68.1,67.2,29.94,SSW,202,0.0,0.0,97,0.00,,---,0.00,VWS V14.01,2013-12-05 06:26:00,
2013-12-05 00:27:00,68.1,67.2,29.94,SSE,158,0.0,0.0,97,0.00,,---,0.00,VWS V14.01,2013-12-05 06:27:00,
2013-12-05 00:28:00,67.9,67.0,29.94,SSE,158,0.0,0.0,97,0.00,,---,0.00,VWS V14.01,2013-12-05 06:28:00,
2013-12-05 00:29:00,67.9,67.0,29.94,SSW,202,0.0,0.0,97,0.00,,---,0.00,VWS V14.01,2013-12-05 06:29:00,
2013-12-05 00:30:00,67.9,67.0,29.94,SSW,202,0.0,0.0,97,0.00,,---,0.00,VWS V14.01,2013-12-05 06:30:00,
2013-12-05 00:31:00,67.9,67.0,29.94,SSW,202,0.0,0.0,97,0.00,,---,0.00,VWS V14.01,2013-12-05 06:31:00,
2013-12-05 00:32:00,67.9,67.0,29.94,South,180,0.0,0.0,97,0.00,,---,0.00,VWS V14.01,2013-12-05 06:32:00,
2013-12-05 00:33:00,67.9,67.0,29.94,ESE,112,0.0,0.9,97,0.00,,---,0.00,VWS V14.01,2013-12-05 06:33:00,
2013-12-05 00:34:00,68.1,67.2,29.94,SSE,158,0.0,0.9,97,0.00,,---,0.00,VWS V14.01,2013-12-05 06:34:00,
2013-12-05 00:35:00,68.1,67.2,29.94,SSE,158,0.0,0.0,97,0.00,,---,0.00,VWS V14.01,2013-12-05 06:35:00,
2013-12-05 00:36:00,68.1,67.2,29.94,SSE,158,0.0,0.0,97,0.00,,---,0.00,VWS V14.01,2013-12-05 06:36:00,
2013-12-05 00:37:00,68.1,67.2,29.94,SE,135,0.0,0.0,97,0.00,,---,0.00,VWS V14.01,2013-12-05 06:37:00,
2013-12-05 00:38:00,68.1,67.2,29.94,SSE,158,0.0,0.0,97,0.00,,---,0.00,VWS V14.01,2013-12-05 06:38:00,
2013-12-05 00:39:00,68.1,67.2,29.94,ESE,112,0.0,0.0,97,0.00,,---,0.00,VWS V14.01,2013-12-05 06:39:00,
2013-12-05 00:40:00,67.9,67.0,29.94,SE,135,0.0,0.0,97,0.00,,---,0.00,VWS V14.01,2013-12-05 06:40:00,
2013-12-05 00:41:00,67.9,67.0,29.94,SE,135,0.0,0.0,97,0.00,,---,0.00,VWS V14.01,2013-12-05 06:41:00,
2013-12-05 00:42:00,67.9,66.7,29.94,SE,135,0.0,0.0,96,0.00,,---,0.00,VWS V14.01,2013-12-05 06:42:00,
2013-12-05 00:43:00,67.9,66.7,29.94,SE,135,0.0,0.0,96,0.00,,---,0.00,VWS V14.01,2013-12-05 06:43:00,
2013-12-05 00:44:00,67.9,66.7,29.94,SE,135,0.0,0.0,96,0.00,,---,0.00,VWS V14.01,2013-12-05 06:44:00,
2013-12-05 00:45:00,67.9,67.0,29.94,SE,135,0.0,0.0,97,0.00,,---,0.00,VWS V14.01,2013-12-05 06:45:00,
2013-12-05 00:46:00,67.9,66.7,29.94,ESE,112,1.3,1.3,96,0.00,,---,0.00,VWS V14.01,2013-12-05 06:46:00,
2013-12-05 00:47:00,67.9,66.7,29.94,SSE,158,0.0,1.3,96,0.00,,---,0.00,VWS V14.01,2013-12-05 06:47:00,
2013-12-05 00:48:00,67.9,66.7,29.94,WSW,248,0.0,0.0,96,0.00,,---,0.00,VWS V14.01,2013-12-05 06:48:00,
2013-12-05 00:49:00,67.9,66.7,29.94,SE,135,1.1,1.3,96,0.00,,---,0.00,VWS V14.01,2013-12-05 06:49:00,
2013-12-05 00:50:00,67.9,66.7,29.94,SSW,202,0.0,1.1,96,0.00,,---,0.00,VWS V14.01,2013-12-05 06:50:00,
2013-12-05 00:51:00,68.1,66.9,29.94,SSW,202,0.0,0.0,96,0.00,,---,0.00,VWS V14.01,2013-12-05 06:51:00,
2013-12-05 00:52:00,68.1,67.2,29.94,SSE,158,0.0,0.0,97,0.00,,---,0.00,VWS V14.01,2013-12-05 06:52:00,
2013-12-05 00:53:00,68.1,67.2,29.94,SSE,158,0.0,0.0,97,0.00,,---,0.00,VWS V14.01,2013-12-05 06:53:00,
2013-12-05 00:54:00,68.1,67.2,29.94,SSE,158,0.0,0.0,97,0.00,,---,0.00,VWS V14.01,2013-12-05 06:54:00,
2013-12-05 00:55:00,68.1,67.2,29.94,SSW,202,0.0,0.0,97,0.00,,---,0.00,VWS V14.01,2013-12-05 06:55:00,
2013-12-05 00:56:00,68.1,67.2,29.94,WSW,248,0.0,0.0,97,0.00,,---,0.00,VWS V14.01,2013-12-05 06:56:00,
2013-12-05 00:57:00,68.1,67.2,29.94,South,180,1.3,1.3,97,0.00,,---,0.00,VWS V14.01,2013-12-05 06:57:00,
2013-12-05 00:58:00,68.3,67.4,29.94,SSE,158,0.0,0.0,97,0.00,,---,0.00,VWS V14.01,2013-12-05 06:58:00,
2013-12-05 00:59:00,68.1,67.2,29.94,SSW,202,0.0,0.0,97,0.00,,---,0.00,VWS V14.01,2013-12-05 06:59:00,
2013-12-05 01:00:00,68.1,67.2,29.94,SSE,158,0.0,0.0,97,0.00,,---,0.00,VWS V14.01,2013-12-05 07:00:00,
2013-12-05 01:01:00,68.1,67.2,29.94,SSE,158,0.0,0.0,97,0.00,,---,0.00,VWS V14.01,2013-12-05 07:01:00,
2013-12-05 01:02:00,68.1,67.2,29.94,SSE,158,0.0,0.0,97,0.00,,---,0.00,VWS V14.01,2013-12-05 07:02:00,
2013-12-05 01:03:00,68.1,67.2,29.94,SSW,202,0.0,0.0,97,0.00,,---,0.00,VWS V14.01,2013-12-05 07:03:00,
2013-12-05 01:04:00,68.1,67.2,29.94,SSW,202,0.0,0.0,97,0.00,,---,0.00,VWS V14.01,2013-12-05 07:04:00,
2013-12-05 01:05:00,68.1,67.2,29.94,SSW,202,0.0,0.0,97,0.00,,---,0.00,VWS V14.01,2013-12-05 07:05:00,
2013-12-05 01:06:00,68.1,67.2,29.94,SSW,202,0.0,0.0,97,0.00,,---,0.00,VWS V14.01,2013-12-05 07:06:00,
2013-12-05 01:07:00,67.9,66.7,29.94,SSE,158,0.0,0.0,96,0.00,,---,0.00,VWS V14.01,2013-12-05 07:07:00,
2013-12-05 01:08:00,67.9,66.7,29.94,SSE,158,0.0,0.0,96,0.00,,---,0.00,VWS V14.01,2013-12-05 07:08:00,
2013-12-05 01:09:00,67.9,66.7,29.94,SSW,202,0.0,0.0,96,0.00,,---,0.00,VWS V14.01,2013-12-05 07:09:00,
2013-12-05 01:10:00,67.7,66.6,29.94,SSW,202,0.0,0.0,96,0.00,,---,0.00,VWS V14.01,2013-12-05 07:10:00,
2013-12-05 01:11:00,67.7,66.6,29.94,SSW,202,0.0,0.0,96,0.00,,---,0.00,VWS V14.01,2013-12-05 07:11:00,
2013-12-05 01:12:00,67.7,66.6,29.94,South,180,0.0,0.0,96,0.00,,---,0.00,VWS V14.01,2013-12-05 07:12:00,
2013-12-05 01:13:00,67.7,66.6,29.94,SSE,158,0.0,0.0,96,0.00,,---,0.00,VWS V14.01,2013-12-05 07:13:00,
2013-12-05 01:14:00,67.7,66.6,29.94,SSE,158,0.0,0.0,96,0.00,,---,0.00,VWS V14.01,2013-12-05 07:14:00,
2013-12-05 01:15:00,67.7,66.6,29.94,SSW,202,0.0,0.0,96,0.00,,---,0.00,VWS V14.01,2013-12-05 07:15:00,
2013-12-05 01:16:00,67.7,66.6,29.94,SSW,202,0.0,0.0,96,0.00,,---,0.00,VWS V14.01,2013-12-05 07:16:00,
2013-12-05 01:17:00,67.7,66.6,29.94,SSW,202,0.0,0.0,96,0.00,,---,0.00,VWS V14.01,2013-12-05 07:17:00,
2013-12-05 01:18:00,67.9,66.7,29.94,SSW,202,0.0,0.0,96,0.00,,---,0.00,VWS V14.01,2013-12-05 07:18:00,
2013-12-05 01:19:00,67.9,66.7,29.94,SSW,202,0.0,0.0,96,0.00,,---,0.00,VWS V14.01,2013-12-05 07:19:00,
2013-12-05 01:20:00,67.9,67.0,29.94,South,180,0.0,0.0,97,0.00,,---,0.00,VWS V14.01,2013-12-05 07:20:00,
2013-12-05 01:21:00,67.9,67.0,29.94,South,180,0.0,0.0,97,0.00,,---,0.00,VWS V14.01,2013-12-05 07:21:00,
2013-12-05 01:22:00,67.9,67.0,29.94,South,180,0.0,0.0,97,0.00,,---,0.00,VWS V14.01,2013-12-05 07:22:00,
2013-12-05 01:23:00,67.9,67.0,29.94,SSE,158,0.0,0.0,97,0.00,,---,0.00,VWS V14.01,2013-12-05 07:23:00,
2013-12-05 01:24:00,67.9,67.0,29.94,SSE,158,0.0,0.0,97,0.00,,---,0.00,VWS V14.01,2013-12-05 07:24:00,
2013-12-05 01:25:00,67.7,66.6,29.94,ENE,68,0.0,0.0,96,0.00,,---,0.00,VWS V14.01,2013-12-05 07:25:00,
2013-12-05 01:26:00,67.7,66.6,29.94,ESE,112,0.0,0.0,96,0.00,,---,0.00,VWS V14.01,2013-12-05 07:26:00,
2013-12-05 01:27:00,67.9,66.7,29.94,ESE,112,0.0,0.0,96,0.00,,---,0.00,VWS V14.01,2013-12-05 07:27:00,
2013-12-05 01:28:00,67.7,66.6,29.94,ESE,112,0.0,0.0,96,0.00,,---,0.00,VWS V14.01,2013-12-05 07:28:00,
2013-12-05 01:29:00,67.7,66.6,29.94,ESE,112,0.0,0.0,96,0.00,,---,0.00,VWS V14.01,2013-12-05 07:29:00,
2013-12-05 01:30:00,67.7,66.6,29.94,ESE,112,0.0,0.0,96,0.00,,---,0.00,VWS V14.01,2013-12-05 07:30:00,
2013-12-05 01:31:00,67.7,66.6,29.94,ESE,112,0.0,0.0,96,0.00,,---,0.00,VWS V14.01,2013-12-05 07:31:00,
2013-12-05 01:32:00,67.6,66.4,29.94,ESE,112,0.0,0.0,96,0.00,,---,0.00,VWS V14.01,2013-12-05 07:32:00,
2013-12-05 01:33:00,67.4,66.2,29.94,SSE,158,0.0,0.0,96,0.00,,---,0.00,VWS V14.01,2013-12-05 07:33:00,
2013-12-05 01:34:00,67.4,66.2,29.94,SSE,158,0.0,0.0,96,0.00,,---,0.00,VWS V14.01,2013-12-05 07:34:00,
2013-12-05 01:35:00,67.4,66.2,29.94,SSE,158,0.0,0.0,96,0.00,,---,0.00,VWS V14.01,2013-12-05 07:35:00,
2013-12-05 01:36:00,67.4,66.2,29.94,SW,225,0.0,0.0,96,0.00,,---,0.00,VWS V14.01,2013-12-05 07:36:00,
2013-12-05 01:37:00,67.6,66.4,29.94,SSE,158,0.0,1.3,96,0.00,,---,0.00,VWS V14.01,2013-12-05 07:37:00,
2013-12-05 01:38:00,67.6,66.4,29.94,SSW,202,0.0,0.0,96,0.00,,---,0.00,VWS V14.01,2013-12-05 07:38:00,
2013-12-05 01:39:00,67.6,66.4,29.94,SSW,202,0.0,0.0,96,0.00,,---,0.00,VWS V14.01,2013-12-05 07:39:00,
2013-12-05 01:40:00,67.6,66.4,29.94,South,180,0.0,0.0,96,0.00,,---,0.00,VWS V14.01,2013-12-05 07:40:00,
2013-12-05 01:41:00,67.6,66.4,29.94,SSW,202,0.0,0.0,96,0.00,,---,0.00,VWS V14.01,2013-12-05 07:41:00,
2013-12-05 01:42:00,67.6,66.4,29.94,SSE,158,0.0,0.0,96,0.00,,---,0.00,VWS V14.01,2013-12-05 07:42:00,
2013-12-05 01:43:00,67.6,66.4,29.94,SSE,158,0.0,0.0,96,0.00,,---,0.00,VWS V14.01,2013-12-05 07:43:00,
2013-12-05 01:44:00,67.6,66.4,29.94,SSE,158,0.0,0.0,96,0.00,,---,0.00,VWS V14.01,2013-12-05 07:44:00,
2013-12-05 01:45:00,67.6,66.7,29.94,SSE,158,0.0,0.0,97,0.00,,---,0.00,VWS V14.01,2013-12-05 07:45:00,
2013-12-05 01:47:00,67.6,66.7,29.94,SE,135,0.0,0.0,97,0.00,,---,0.00,VWS V14.01,2013-12-05 07:47:00,
2013-12-05 01:48:00,67.6,66.7,29.94,SE,135,0.0,0.0,97,0.00,,---,0.00,VWS V14.01,2013-12-05 07:48:00,
2013-12-05 01:49:00,67.6,66.7,29.94,SE,135,0.0,0.0,97,0.00,,---,0.00,VWS V14.01,2013-12-05 07:49:00,
2013-12-05 01:50:00,67.6,66.7,29.94,SE,135,0.0,0.0,97,0.00,,---,0.00,VWS V14.01,2013-12-05 07:50:00,
2013-12-05 01:51:00,67.6,66.4,29.94,SSE,158,0.0,0.0,96,0.00,,---,0.00,VWS V14.01,2013-12-05 07:51:00,
2013-12-05 01:52:00,67.6,66.4,29.94,ESE,112,0.0,0.0,96,0.00,,---,0.00,VWS V14.01,2013-12-05 07:52:00,
2013-12-05 01:53:00,67.6,66.7,29.94,ESE,112,0.0,0.0,97,0.00,,---,0.00,VWS V14.01,2013-12-05 07:53:00,
2013-12-05 01:54:00,67.6,66.7,29.94,ESE,112,0.0,0.0,97,0.00,,---,0.00,VWS V14.01,2013-12-05 07:54:00,
2013-12-05 01:55:00,67.6,66.7,29.94,ESE,112,0.0,0.0,97,0.00,,---,0.00,VWS V14.01,2013-12-05 07:55:00,
2013-12-05 01:56:00,67.6,66.7,29.94,ESE,112,0.0,0.0,97,0.00,,---,0.00,VWS V14.01,2013-12-05 07:56:00,
2013-12-05 01:57:00,67.6,66.7,29.94,ESE,112,0.0,0.0,97,0.00,,---,0.00,VWS V14.01,2013-12-05 07:57:00,
2013-12-05 01:58:00,67.6,66.7,29.94,ESE,112,0.0,0.0,97,0.00,,---,0.00,VWS V14.01,2013-12-05 07:58:00,
2013-12-05 01:59:00,67.6,66.7,29.94,ESE,112,0.0,0.0,97,0.00,,---,0.00,VWS V14.01,2013-12-05 07:59:00,
2013-12-05 02:00:00,67.6,66.4,29.94,SE,135,0.0,0.0,96,0.00,,---,0.00,VWS V14.01,2013-12-05 08:00:00,
2013-12-05 02:01:00,67.4,66.2,29.94,ESE,112,0.0,0.0,96,0.00,,---,0.00,VWS V14.01,2013-12-05 08:01:00,
2013-12-05 02:02:00,67.4,66.2,29.94,ESE,112,0.0,0.0,96,0.00,,---,0.00,VWS V14.01,2013-12-05 08:02:00,
2013-12-05 02:03:00,67.2,66.0,29.94,SSE,158,0.0,0.0,96,0.00,,---,0.00,VWS V14.01,2013-12-05 08:03:00,
2013-12-05 02:04:00,67.2,66.0,29.94,SSE,158,0.0,0.0,96,0.00,,---,0.00,VWS V14.01,2013-12-05 08:04:00,
2013-12-05 02:05:00,67.2,66.0,29.94,SSE,158,0.0,0.0,96,0.00,,---,0.00,VWS V14.01,2013-12-05 08:05:00,
2013-12-05 02:06:00,67.2,66.0,29.94,SSE,158,0.0,0.0,96,0.00,,---,0.00,VWS V14.01,2013-12-05 08:06:00,
2013-12-05 02:07:00,67.2,66.0,29.94,SSE,158,0.0,0.0,96,0.00,,---,0.00,VWS V14.01,2013-12-05 08:07:00,
2013-12-05 02:08:00,67.0,65.8,29.94,SSE,158,0.0,0.0,96,0.00,,---,0.00,VWS V14.01,2013-12-05 08:08:00,
2013-12-05 02:09:00,67.0,65.8,29.94,SSE,158,0.0,0.0,96,0.00,,---,0.00,VWS V14.01,2013-12-05 08:09:00,
2013-12-05 02:10:00,67.0,65.8,29.94,SSE,158,0.0,0.0,96,0.00,,---,0.00,VWS V14.01,2013-12-05 08:10:00,
2013-12-05 02:11:00,67.0,65.8,29.94,SSE,158,0.0,0.0,96,0.00,,---,0.00,VWS V14.01,2013-12-05 08:11:00,
2013-12-05 02:12:00,67.0,65.8,29.94,SSE,158,0.0,0.0,96,0.00,,---,0.00,VWS V14.01,2013-12-05 08:12:00,
2013-12-05 02:13:00,67.0,65.8,29.94,SSE,158,0.0,0.0,96,0.00,,---,0.00,VWS V14.01,2013-12-05 08:13:00,
2013-12-05 02:14:00,67.0,65.8,29.94,SSE,158,0.0,0.0,96,0.00,,---,0.00,VWS V14.01,2013-12-05 08:14:00,
2013-12-05 02:15:00,67.0,65.8,29.94,SSE,158,0.0,0.0,96,0.00,,---,0.00,VWS V14.01,2013-12-05 08:15:00,
2013-12-05 02:16:00,67.0,65.8,29.94,SSE,158,0.0,0.0,96,0.00,,---,0.00,VWS V14.01,2013-12-05 08:16:00,
2013-12-05 02:17:00,67.0,65.8,29.94,SSE,158,0.0,0.0,96,0.00,,---,0.00,VWS V14.01,2013-12-05 08:17:00,
2013-12-05 02:18:00,67.2,66.0,29.94,SSE,158,0.0,0.0,96,0.00,,---,0.00,VWS V14.01,2013-12-05 08:18:00,
2013-12-05 02:19:00,67.2,66.0,29.94,SSE,158,0.0,0.0,96,0.00,,---,0.00,VWS V14.01,2013-12-05 08:19:00,
2013-12-05 02:20:00,67.2,66.0,29.94,SSE,158,0.0,0.0,96,0.00,,---,0.00,VWS V14.01,2013-12-05 08:20:00,
2013-12-05 02:21:00,67.2,66.0,29.94,SSE,158,0.0,0.0,96,0.00,,---,0.00,VWS V14.01,2013-12-05 08:21:00,
2013-12-05 02:22:00,67.2,66.0,29.94,SE,135,0.9,1.1,96,0.00,,---,0.00,VWS V14.01,2013-12-05 08:22:00,
2013-12-05 02:23:00,67.2,66.0,29.94,SE,135,0.0,0.9,96,0.00,,---,0.00,VWS V14.01,2013-12-05 08:23:00,
2013-12-05 02:24:00,67.0,66.1,29.94,SE,135,0.0,0.0,97,0.00,,---,0.00,VWS V14.01,2013-12-05 08:24:00,
2013-12-05 02:25:00,67.0,66.1,29.94,SE,135,0.0,0.0,97,0.00,,---,0.00,VWS V14.01,2013-12-05 08:25:00,
2013-12-05 02:26:00,67.0,66.1,29.94,SE,135,0.0,0.0,97,0.00,,---,0.00,VWS V14.01,2013-12-05 08:26:00,
2013-12-05 02:27:00,66.8,65.7,29.94,SE,135,0.0,0.0,96,0.00,,---,0.00,VWS V14.01,2013-12-05 08:27:00,
2013-12-05 02:28:00,66.8,65.7,29.94,SE,135,0.0,0.0,96,0.00,,---,0.00,VWS V14.01,2013-12-05 08:28:00,
2013-12-05 02:29:00,66.8,65.7,29.94,SE,135,0.0,0.0,96,0.00,,---,0.00,VWS V14.01,2013-12-05 08:29:00,
2013-12-05 02:30:00,66.8,65.7,29.94,SE,135,0.0,0.0,96,0.00,,---,0.00,VWS V14.01,2013-12-05 08:30:00,
2013-12-05 02:31:00,66.8,65.7,29.94,SE,135,0.0,0.0,96,0.00,,---,0.00,VWS V14.01,2013-12-05 08:31:00,
2013-12-05 02:32:00,66.8,65.7,29.94,SE,135,0.0,0.0,96,0.00,,---,0.00,VWS V14.01,2013-12-05 08:32:00,
2013-12-05 02:33:00,66.7,65.5,29.94,SE,135,0.0,0.0,96,0.00,,---,0.00,VWS V14.01,2013-12-05 08:33:00,
2013-12-05 02:34:00,66.7,65.5,29.94,SE,135,0.0,0.0,96,0.00,,---,0.00,VWS V14.01,2013-12-05 08:34:00,
2013-12-05 02:35:00,66.7,65.5,29.94,SE,135,0.0,0.0,96,0.00,,---,0.00,VWS V14.01,2013-12-05 08:35:00,
2013-12-05 02:36:00,66.7,65.5,29.94,SE,135,0.0,0.0,96,0.00,,---,0.00,VWS V14.01,2013-12-05 08:36:00,
2013-12-05 02:37:00,66.7,65.5,29.94,SE,135,0.0,0.0,96,0.00,,---,0.00,VWS V14.01,2013-12-05 08:37:00,
2013-12-05 02:38:00,66.8,65.7,29.94,SE,135,0.0,0.0,96,0.00,,---,0.00,VWS V14.01,2013-12-05 08:38:00,
2013-12-05 02:39:00,66.7,65.5,29.94,SE,135,0.0,0.0,96,0.00,,---,0.00,VWS V14.01,2013-12-05 08:39:00,
2013-12-05 02:40:00,66.7,65.5,29.94,SE,135,0.0,0.0,96,0.00,,---,0.00,VWS V14.01,2013-12-05 08:40:00,
2013-12-05 02:41:00,66.8,66.0,29.94,SE,135,0.0,0.0,97,0.00,,---,0.00,VWS V14.01,2013-12-05 08:41:00,
2013-12-05 02:42:00,66.8,66.0,29.94,SE,135,0.0,0.0,97,0.00,,---,0.00,VWS V14.01,2013-12-05 08:42:00,
2013-12-05 02:43:00,66.8,66.0,29.94,SE,135,0.0,0.0,97,0.00,,---,0.00,VWS V14.01,2013-12-05 08:43:00,
2013-12-05 02:44:00,66.8,66.0,29.94,SE,135,0.0,0.0,97,0.00,,---,0.00,VWS V14.01,2013-12-05 08:44:00,
2013-12-05 02:45:00,66.8,66.0,29.94,SE,135,0.0,0.0,97,0.00,,---,0.00,VWS V14.01,2013-12-05 08:45:00,
2013-12-05 02:46:00,66.8,66.0,29.94,SE,135,0.0,0.0,97,0.00,,---,0.00,VWS V14.01,2013-12-05 08:46:00,
2013-12-05 02:47:00,66.8,66.0,29.94,SE,135,0.0,0.0,97,0.00,,---,0.00,VWS V14.01,2013-12-05 08:47:00,
2013-12-05 02:48:00,66.8,66.0,29.94,SE,135,0.0,0.0,97,0.00,,---,0.00,VWS V14.01,2013-12-05 08:48:00,
2013-12-05 02:49:00,66.8,66.0,29.94,SE,135,0.0,0.0,97,0.00,,---,0.00,VWS V14.01,2013-12-05 08:49:00,
2013-12-05 02:50:00,66.8,66.0,29.94,SE,135,0.0,0.0,97,0.00,,---,0.00,VWS V14.01,2013-12-05 08:50:00,
2013-12-05 02:51:00,66.8,66.0,29.94,SSW,202,0.0,0.0,97,0.00,,---,0.00,VWS V14.01,2013-12-05 08:51:00,
2013-12-05 02:52:00,66.8,66.0,29.94,SSW,202,0.0,0.0,97,0.00,,---,0.00,VWS V14.01,2013-12-05 08:52:00,
2013-12-05 02:53:00,67.0,66.1,29.94,ESE,112,0.0,0.0,97,0.00,,---,0.00,VWS V14.01,2013-12-05 08:53:00,
2013-12-05 02:54:00,67.0,66.1,29.94,SSE,158,0.0,0.0,97,0.00,,---,0.00,VWS V14.01,2013-12-05 08:54:00,
2013-12-05 02:55:00,67.0,66.1,29.94,SSE,158,0.0,0.0,97,0.00,,---,0.00,VWS V14.01,2013-12-05 08:55:00,
2013-12-05 02:56:00,66.8,66.0,29.94,SE,135,0.0,0.0,97,0.00,,---,0.00,VWS V14.01,2013-12-05 08:56:00,
2013-12-05 02:57:00,66.8,66.0,29.94,SSE,158,2.0,2.0,97,0.00,,---,0.00,VWS V14.01,2013-12-05 08:57:00,
2013-12-05 02:58:00,66.8,66.0,29.94,SE,135,0.0,2.0,97,0.00,,---,0.00,VWS V14.01,2013-12-05 08:58:00,
2013-12-05 02:59:00,66.8,66.0,29.94,SE,135,0.0,0.0,97,0.00,,---,0.00,VWS V14.01,2013-12-05 08:59:00,
2013-12-05 03:00:00,66.8,66.0,29.94,ESE,112,0.0,0.0,97,0.00,,---,0.00,VWS V14.01,2013-12-05 09:00:00,
2013-12-05 03:01:00,67.0,66.1,29.94,SSE,158,0.0,0.0,97,0.00,,---,0.00,VWS V14.01,2013-12-05 09:01:00,
2013-12-05 03:02:00,67.0,66.1,29.94,SE,135,0.0,0.0,97,0.00,,---,0.00,VWS V14.01,2013-12-05 09:02:00,
2013-12-05 03:03:00,67.0,66.1,29.94,SE,135,0.0,0.0,97,0.00,,---,0.00,VWS V14.01,2013-12-05 09:03:00,
2013-12-05 03:04:00,67.0,66.1,29.94,SE,135,0.0,0.0,97,0.00,,---,0.00,VWS V14.01,2013-12-05 09:04:00,
2013-12-05 03:05:00,67.0,66.1,29.94,SE,135,0.0,0.0,97,0.00,,---,0.00,VWS V14.01,2013-12-05 09:05:00,
2013-12-05 03:06:00,67.0,66.1,29.94,SE,135,0.0,0.0,97,0.00,,---,0.00,VWS V14.01,2013-12-05 09:06:00,
2013-12-05 03:07:00,66.8,66.0,29.94,SE,135,0.0,0.0,97,0.00,,---,0.00,VWS V14.01,2013-12-05 09:07:00,
2013-12-05 03:08:00,66.8,66.0,29.94,SE,135,0.0,0.0,97,0.00,,---,0.00,VWS V14.01,2013-12-05 09:08:00,
2013-12-05 03:09:00,66.8,66.0,29.94,SE,135,0.0,0.0,97,0.00,,---,0.00,VWS V14.01,2013-12-05 09:09:00,
2013-12-05 03:10:00,66.8,66.0,29.94,SE,135,0.0,0.0,97,0.00,,---,0.00,VWS V14.01,2013-12-05 09:10:00,
2013-12-05 03:11:00,66.8,66.0,29.94,SE,135,0.0,0.0,97,0.00,,---,0.00,VWS V14.01,2013-12-05 09:11:00,
2013-12-05 03:12:00,66.8,66.0,29.94,SE,135,0.0,0.0,97,0.00,,---,0.00,VWS V14.01,2013-12-05 09:12:00,
2013-12-05 03:13:00,66.8,66.0,29.94,SE,135,0.0,0.0,97,0.00,,---,0.00,VWS V14.01,2013-12-05 09:13:00,
2013-12-05 03:14:00,66.8,66.0,29.94,SE,135,0.0,0.0,97,0.00,,---,0.00,VWS V14.01,2013-12-05 09:14:00,
2013-12-05 03:15:00,66.8,66.0,29.94,SE,135,0.0,0.0,97,0.00,,---,0.00,VWS V14.01,2013-12-05 09:15:00,
2013-12-05 03:16:00,66.8,66.0,29.94,SE,135,0.0,0.0,97,0.00,,---,0.00,VWS V14.01,2013-12-05 09:16:00,
2013-12-05 03:17:00,66.8,66.0,29.94,SE,135,0.0,0.0,97,0.00,,---,0.00,VWS V14.01,2013-12-05 09:17:00,
2013-12-05 03:18:00,66.8,66.0,29.94,SE,135,0.0,0.0,97,0.00,,---,0.00,VWS V14.01,2013-12-05 09:18:00,
2013-12-05 03:19:00,66.8,66.0,29.94,SE,135,0.0,0.0,97,0.00,,---,0.00,VWS V14.01,2013-12-05 09:19:00,
2013-12-05 03:20:00,66.8,66.0,29.94,SE,135,0.0,0.0,97,0.00,,---,0.00,VWS V14.01,2013-12-05 09:20:00,
2013-12-05 03:21:00,66.8,66.0,29.94,SE,135,0.0,0.0,97,0.00,,---,0.00,VWS V14.01,2013-12-05 09:21:00,
2013-12-05 03:22:00,66.8,66.0,29.94,SE,135,0.0,0.0,97,0.00,,---,0.00,VWS V14.01,2013-12-05 09:22:00,
2013-12-05 03:23:00,66.8,66.0,29.94,SE,135,0.0,0.0,97,0.00,,---,0.00,VWS V14.01,2013-12-05 09:23:00,
2013-12-05 03:24:00,66.8,66.0,29.94,SE,135,0.0,0.0,97,0.00,,---,0.00,VWS V14.01,2013-12-05 09:24:00,
2013-12-05 03:25:00,67.0,66.1,29.91,SSE,158,0.0,0.0,97,0.00,,---,0.00,VWS V14.01,2013-12-05 09:25:00,
2013-12-05 03:26:00,67.0,66.1,29.91,SSE,158,0.0,0.0,97,0.00,,---,0.00,VWS V14.01,2013-12-05 09:26:00,
2013-12-05 03:27:00,67.0,66.1,29.91,SE,135,0.0,0.0,97,0.00,,---,0.00,VWS V14.01,2013-12-05 09:27:00,
2013-12-05 03:28:00,67.0,66.1,29.91,SE,135,0.0,0.0,97,0.00,,---,0.00,VWS V14.01,2013-12-05 09:28:00,
2013-12-05 03:29:00,67.0,66.1,29.91,SE,135,0.0,0.0,97,0.00,,---,0.00,VWS V14.01,2013-12-05 09:29:00,
2013-12-05 03:30:00,67.0,66.1,29.91,SSE,158,2.7,3.8,97,0.00,,---,0.00,VWS V14.01,2013-12-05 09:30:00,
2013-12-05 03:31:00,67.0,66.1,29.91,SE,135,0.0,2.7,97,0.00,,---,0.00,VWS V14.01,2013-12-05 09:31:00,
2013-12-05 03:32:00,67.0,66.1,29.91,SE,135,0.0,0.0,97,0.00,,---,0.00,VWS V14.01,2013-12-05 09:32:00,
2013-12-05 03:33:00,67.0,66.1,29.91,SSE,158,2.5,2.5,97,0.00,,---,0.00,VWS V14.01,2013-12-05 09:33:00,
2013-12-05 03:34:00,67.0,66.1,29.91,SSE,158,0.0,2.5,97,0.00,,---,0.00,VWS V14.01,2013-12-05 09:34:00,
2013-12-05 03:35:00,67.0,66.1,29.91,SSE,158,0.0,0.0,97,0.00,,---,0.00,VWS V14.01,2013-12-05 09:35:00,
2013-12-05 03:36:00,67.0,66.1,29.91,SSE,158,0.0,0.0,97,0.00,,---,0.00,VWS V14.01,2013-12-05 09:36:00,
2013-12-05 03:37:00,66.8,66.0,29.91,SSE,158,0.0,0.0,97,0.00,,---,0.00,VWS V14.01,2013-12-05 09:37:00,
2013-12-05 03:38:00,66.8,66.0,29.91,SSE,158,0.0,0.0,97,0.00,,---,0.00,VWS V14.01,2013-12-05 09:38:00,
2013-12-05 03:39:00,66.8,66.0,29.91,SSE,158,0.0,0.0,97,0.00,,---,0.00,VWS V14.01,2013-12-05 09:39:00,
2013-12-05 03:40:00,66.8,66.0,29.91,SSE,158,0.0,0.0,97,0.00,,---,0.00,VWS V14.01,2013-12-05 09:40:00,
2013-12-05 03:41:00,66.8,66.0,29.94,SSE,158,0.0,0.0,97,0.00,,---,0.00,VWS V14.01,2013-12-05 09:41:00,
2013-12-05 03:42:00,66.8,66.0,29.94,SSE,158,0.0,0.0,97,0.00,,---,0.00,VWS V14.01,2013-12-05 09:42:00,
2013-12-05 03:43:00,66.8,66.0,29.94,SSE,158,0.0,0.0,97,0.00,,---,0.00,VWS V14.01,2013-12-05 09:43:00,
2013-12-05 03:44:00,66.8,66.0,29.94,SSE,158,0.0,0.0,97,0.00,,---,0.00,VWS V14.01,2013-12-05 09:44:00,
2013-12-05 03:45:00,66.8,66.0,29.94,SSE,158,0.0,0.0,97,0.00,,---,0.00,VWS V14.01,2013-12-05 09:45:00,
2013-12-05 03:46:00,66.8,66.0,29.94,SSE,158,0.0,0.0,97,0.00,,---,0.00,VWS V14.01,2013-12-05 09:46:00,
2013-12-05 03:47:00,66.8,66.0,29.94,ESE,112,0.0,0.0,97,0.00,,---,0.00,VWS V14.01,2013-12-05 09:47:00,
2013-12-05 03:48:00,66.8,66.0,29.94,SE,135,0.0,0.0,97,0.00,,---,0.00,VWS V14.01,2013-12-05 09:48:00,
2013-12-05 03:49:00,66.8,66.0,29.94,SE,135,0.0,0.0,97,0.00,,---,0.00,VWS V14.01,2013-12-05 09:49:00,
2013-12-05 03:50:00,67.0,66.1,29.94,SE,135,0.0,0.0,97,0.00,,---,0.00,VWS V14.01,2013-12-05 09:50:00,
2013-12-05 03:51:00,67.0,66.1,29.94,SE,135,0.0,0.0,97,0.00,,---,0.00,VWS V14.01,2013-12-05 09:51:00,
2013-12-05 03:52:00,67.0,66.4,29.94,SE,135,0.0,0.0,98,0.00,,---,0.00,VWS V14.01,2013-12-05 09:52:00,
2013-12-05 03:53:00,67.0,66.4,29.94,SE,135,0.0,0.0,98,0.00,,---,0.00,VWS V14.01,2013-12-05 09:53:00,
2013-12-05 03:54:00,67.0,66.4,29.94,SSE,158,0.0,0.0,98,0.00,,---,0.00,VWS V14.01,2013-12-05 09:54:00,
2013-12-05 03:56:00,67.0,66.4,29.94,SSE,158,0.0,0.0,98,0.00,,---,0.00,VWS V14.01,2013-12-05 09:56:00,
2013-12-05 03:57:00,67.0,66.4,29.94,SSE,158,0.0,0.0,98,0.00,,---,0.00,VWS V14.01,2013-12-05 09:57:00,
2013-12-05 03:58:00,67.0,66.4,29.94,SSE,158,0.0,0.0,98,0.00,,---,0.00,VWS V14.01,2013-12-05 09:58:00,
2013-12-05 03:59:00,67.0,66.4,29.94,SSE,158,0.0,0.0,98,0.00,,---,0.00,VWS V14.01,2013-12-05 09:59:00,
2013-12-05 04:00:00,67.0,66.4,29.94,ESE,112,0.0,0.0,98,0.00,,---,0.00,VWS V14.01,2013-12-05 10:00:00,
2013-12-05 04:01:00,67.0,66.4,29.94,ESE,112,0.0,0.0,98,0.00,,---,0.00,VWS V14.01,2013-12-05 10:01:00,
2013-12-05 04:02:00,67.0,66.4,29.94,ESE,112,0.0,0.0,98,0.00,,---,0.00,VWS V14.01,2013-12-05 10:02:00,
2013-12-05 04:03:00,67.2,66.3,29.94,ESE,112,0.0,0.0,97,0.00,,---,0.00,VWS V14.01,2013-12-05 10:03:00,
2013-12-05 04:04:00,67.4,66.8,29.94,ESE,112,0.0,0.0,98,0.00,,---,0.00,VWS V14.01,2013-12-05 10:04:00,
2013-12-05 04:05:00,67.4,66.8,29.94,ESE,112,0.0,0.0,98,0.00,,---,0.00,VWS V14.01,2013-12-05 10:05:00,
2013-12-05 04:06:00,67.4,66.8,29.94,ESE,112,0.0,0.0,98,0.00,,---,0.00,VWS V14.01,2013-12-05 10:06:00,
2013-12-05 04:07:00,67.4,66.8,29.94,ESE,112,0.0,0.0,98,0.00,,---,0.00,VWS V14.01,2013-12-05 10:07:00,
2013-12-05 04:08:00,67.4,66.8,29.94,SSE,158,0.0,0.0,98,0.00,,---,0.00,VWS V14.01,2013-12-05 10:08:00,
2013-12-05 04:09:00,67.2,66.6,29.94,SSE,158,0.0,0.0,98,0.00,,---,0.00,VWS V14.01,2013-12-05 10:09:00,
2013-12-05 04:10:00,67.2,66.3,29.94,SSE,158,0.0,0.0,97,0.00,,---,0.00,VWS V14.01,2013-12-05 10:10:00,
2013-12-05 04:11:00,67.2,66.3,29.94,SE,135,0.0,0.0,97,0.00,,---,0.00,VWS V14.01,2013-12-05 10:11:00,
2013-12-05 04:12:00,67.0,66.4,29.94,SSE,158,0.0,0.0,98,0.00,,---,0.00,VWS V14.01,2013-12-05 10:12:00,
2013-12-05 04:13:00,67.0,66.4,29.94,SSE,158,0.0,0.0,98,0.00,,---,0.00,VWS V14.01,2013-12-05 10:13:00,
2013-12-05 04:14:00,67.0,66.4,29.94,SSE,158,0.0,0.0,98,0.00,,---,0.00,VWS V14.01,2013-12-05 10:14:00,
2013-12-05 04:15:00,67.0,66.4,29.94,SSE,158,0.0,0.0,98,0.00,,---,0.00,VWS V14.01,2013-12-05 10:15:00,
2013-12-05 04:16:00,67.0,66.4,29.94,SSE,158,0.0,0.0,98,0.00,,---,0.00,VWS V14.01,2013-12-05 10:16:00,
2013-12-05 04:17:00,67.0,66.4,29.94,SSE,158,0.0,0.0,98,0.00,,---,0.00,VWS V14.01,2013-12-05 10:17:00,
2013-12-05 04:18:00,67.0,66.4,29.94,SSE,158,0.0,0.0,98,0.00,,---,0.00,VWS V14.01,2013-12-05 10:18:00,
2013-12-05 04:19:00,67.2,66.3,29.94,ESE,112,0.0,0.0,97,0.00,,---,0.00,VWS V14.01,2013-12-05 10:19:00,
2013-12-05 04:20:00,67.2,66.3,29.94,ESE,112,0.0,0.0,97,0.00,,---,0.00,VWS V14.01,2013-12-05 10:20:00,
2013-12-05 04:21:00,67.2,66.3,29.94,ESE,112,0.0,0.0,97,0.00,,---,0.00,VWS V14.01,2013-12-05 10:21:00,
2013-12-05 04:22:00,67.2,66.3,29.94,ESE,112,0.0,0.0,97,0.00,,---,0.00,VWS V14.01,2013-12-05 10:22:00,
2013-12-05 04:23:00,67.2,66.3,29.94,ESE,112,0.0,0.0,97,0.00,,---,0.00,VWS V14.01,2013-12-05 10:23:00,
2013-12-05 04:24:00,67.2,66.3,29.94,ESE,112,0.0,0.0,97,0.00,,---,0.00,VWS V14.01,2013-12-05 10:24:00,
2013-12-05 04:25:00,67.4,66.5,29.94,ESE,112,0.0,0.0,97,0.00,,---,0.00,VWS V14.01,2013-12-05 10:25:00,
2013-12-05 04:26:00,67.2,66.6,29.94,ESE,112,0.0,0.0,98,0.00,,---,0.00,VWS V14.01,2013-12-05 10:26:00,
2013-12-05 04:27:00,67.2,66.3,29.94,ESE,112,0.0,0.0,97,0.00,,---,0.00,VWS V14.01,2013-12-05 10:27:00,
2013-12-05 04:28:00,67.2,66.3,29.94,ESE,112,0.0,0.0,97,0.00,,---,0.00,VWS V14.01,2013-12-05 10:28:00,
2013-12-05 04:29:00,67.2,66.3,29.94,NNW,338,0.0,0.0,97,0.00,,---,0.00,VWS V14.01,2013-12-05 10:29:00,
2013-12-05 04:30:00,67.2,66.3,29.94,NNW,338,0.0,0.0,97,0.00,,---,0.00,VWS V14.01,2013-12-05 10:30:00,
2013-12-05 04:31:00,67.2,66.3,29.94,NNW,338,0.0,0.0,97,0.00,,---,0.00,VWS V14.01,2013-12-05 10:31:00,
2013-12-05 04:32:00,67.2,66.3,29.94,NNW,338,0.0,0.0,97,0.00,,---,0.00,VWS V14.01,2013-12-05 10:32:00,
2013-12-05 04:33:00,67.2,66.3,29.94,NNW,338,0.0,0.0,97,0.00,,---,0.00,VWS V14.01,2013-12-05 10:33:00,
2013-12-05 04:34:00,67.2,66.3,29.94,NNW,338,0.0,0.0,97,0.00,,---,0.00,VWS V14.01,2013-12-05 10:34:00,
2013-12-05 04:35:00,67.0,66.4,29.94,NNW,338,0.0,0.0,98,0.00,,---,0.00,VWS V14.01,2013-12-05 10:35:00,
2013-12-05 04:36:00,67.0,66.4,29.94,NNW,338,0.0,0.0,98,0.00,,---,0.00,VWS V14.01,2013-12-05 10:36:00,
2013-12-05 04:37:00,67.2,66.3,29.94,NNW,338,0.0,0.0,97,0.00,,---,0.00,VWS V14.01,2013-12-05 10:37:00,
2013-12-05 04:38:00,67.2,66.3,29.94,NNW,338,0.0,0.0,97,0.00,,---,0.00,VWS V14.01,2013-12-05 10:38:00,
2013-12-05 04:39:00,67.2,66.3,29.94,NNW,338,0.0,0.0,97,0.00,,---,0.00,VWS V14.01,2013-12-05 10:39:00,
2013-12-05 04:40:00,67.2,66.3,29.94,NNW,338,0.0,0.0,97,0.00,,---,0.00,VWS V14.01,2013-12-05 10:40:00,
2013-12-05 04:41:00,67.2,66.3,29.94,NNW,338,0.0,0.0,97,0.00,,---,0.00,VWS V14.01,2013-12-05 10:41:00,
2013-12-05 04:42:00,67.2,66.6,29.94,NNW,338,0.0,0.0,98,0.00,,---,0.00,VWS V14.01,2013-12-05 10:42:00,
2013-12-05 04:43:00,67.2,66.6,29.94,NNW,338,0.0,0.0,98,0.00,,---,0.00,VWS V14.01,2013-12-05 10:43:00,
2013-12-05 04:44:00,67.2,66.6,29.94,ESE,112,0.0,0.0,98,0.00,,---,0.00,VWS V14.01,2013-12-05 10:44:00,
2013-12-05 04:45:00,67.2,66.6,29.94,ESE,112,0.0,0.0,98,0.00,,---,0.00,VWS V14.01,2013-12-05 10:45:00,
2013-12-05 04:46:00,67.4,66.8,29.94,ESE,112,0.0,0.0,98,0.00,,---,0.00,VWS V14.01,2013-12-05 10:46:00,
2013-12-05 04:47:00,67.2,66.6,29.94,ESE,112,0.0,0.0,98,0.00,,---,0.00,VWS V14.01,2013-12-05 10:47:00,
2013-12-05 04:48:00,67.2,66.6,29.94,ESE,112,0.0,0.0,98,0.00,,---,0.00,VWS V14.01,2013-12-05 10:48:00,
2013-12-05 04:49:00,67.2,66.6,29.94,ESE,112,0.0,0.0,98,0.00,,---,0.00,VWS V14.01,2013-12-05 10:49:00,
2013-12-05 04:50:00,67.2,66.6,29.94,ESE,112,0.0,0.0,98,0.00,,---,0.00,VWS V14.01,2013-12-05 10:50:00,
2013-12-05 04:51:00,67.2,66.6,29.94,ESE,112,0.0,0.0,98,0.00,,---,0.00,VWS V14.01,2013-12-05 10:51:00,
2013-12-05 04:52:00,67.2,66.6,29.94,ESE,112,0.0,0.0,98,0.00,,---,0.00,VWS V14.01,2013-12-05 10:52:00,
2013-12-05 04:53:00,67.2,66.6,29.94,ENE,68,0.0,0.0,98,0.00,,---,0.00,VWS V14.01,2013-12-05 10:53:00,
2013-12-05 04:54:00,67.2,66.3,29.94,ENE,68,0.0,0.0,97,0.00,,---,0.00,VWS V14.01,2013-12-05 10:54:00,
2013-12-05 04:55:00,67.2,66.3,29.94,ENE,68,0.0,0.0,97,0.00,,---,0.00,VWS V14.01,2013-12-05 10:55:00,
2013-12-05 04:56:00,67.2,66.3,29.94,ENE,68,0.0,0.0,97,0.00,,---,0.00,VWS V14.01,2013-12-05 10:56:00,
2013-12-05 04:57:00,67.0,66.4,29.94,ENE,68,0.0,0.0,98,0.00,,---,0.00,VWS V14.01,2013-12-05 10:57:00,
2013-12-05 04:58:00,67.0,66.4,29.94,East,90,0.0,0.0,98,0.00,,---,0.00,VWS V14.01,2013-12-05 10:58:00,
2013-12-05 04:59:00,67.0,66.4,29.94,East,90,0.0,0.0,98,0.00,,---,0.00,VWS V14.01,2013-12-05 10:59:00,
2013-12-05 05:00:00,67.0,66.4,29.94,East,90,0.0,0.0,98,0.00,,---,0.00,VWS V14.01,2013-12-05 11:00:00,
2013-12-05 05:02:00,67.0,66.4,29.94,East,90,0.0,0.0,98,0.00,,---,0.00,VWS V14.01,2013-12-05 11:02:00,
2013-12-05 05:03:00,67.0,66.4,29.94,East,90,0.0,0.0,98,0.00,,---,0.00,VWS V14.01,2013-12-05 11:03:00,
2013-12-05 05:04:00,67.0,66.4,29.94,East,90,0.0,0.0,98,0.00,,---,0.00,VWS V14.01,2013-12-05 11:04:00,
2013-12-05 05:05:00,67.0,66.4,29.94,East,90,0.0,0.0,98,0.00,,---,0.00,VWS V14.01,2013-12-05 11:05:00,
2013-12-05 05:06:00,67.0,66.4,29.94,East,90,0.0,0.0,98,0.00,,---,0.00,VWS V14.01,2013-12-05 11:06:00,
2013-12-05 05:07:00,67.0,66.4,29.94,East,90,0.0,0.0,98,0.00,,---,0.00,VWS V14.01,2013-12-05 11:07:00,
2013-12-05 05:08:00,67.0,66.4,29.94,ENE,68,0.0,0.0,98,0.00,,---,0.00,VWS V14.01,2013-12-05 11:08:00,
2013-12-05 05:09:00,67.0,66.4,29.94,ENE,68,0.0,0.0,98,0.00,,---,0.00,VWS V14.01,2013-12-05 11:09:00,
2013-12-05 05:10:00,67.0,66.4,29.94,ENE,68,0.0,0.0,98,0.00,,---,0.00,VWS V14.01,2013-12-05 11:10:00,
2013-12-05 05:11:00,67.0,66.4,29.94,ENE,68,0.0,0.0,98,0.00,,---,0.00,VWS V14.01,2013-12-05 11:11:00,
2013-12-05 05:12:00,66.8,66.3,29.94,ENE,68,0.0,0.0,98,0.00,,---,0.00,VWS V14.01,2013-12-05 11:12:00,
2013-12-05 05:13:00,67.0,66.4,29.94,ENE,68,0.0,0.0,98,0.00,,---,0.00,VWS V14.01,2013-12-05 11:13:00,
2013-12-05 05:14:00,67.0,66.4,29.94,ENE,68,0.0,0.0,98,0.00,,---,0.00,VWS V14.01,2013-12-05 11:14:00,
2013-12-05 05:15:00,67.0,66.4,29.94,ENE,68,0.0,0.0,98,0.00,,---,0.00,VWS V14.01,2013-12-05 11:15:00,
2013-12-05 05:16:00,67.0,66.4,29.94,ENE,68,0.0,0.0,98,0.00,,---,0.00,VWS V14.01,2013-12-05 11:16:00,
2013-12-05 05:17:00,67.0,66.4,29.94,ENE,68,0.0,0.0,98,0.00,,---,0.00,VWS V14.01,2013-12-05 11:17:00,
2013-12-05 05:18:00,67.0,66.4,29.94,ENE,68,0.0,0.0,98,0.00,,---,0.00,VWS V14.01,2013-12-05 11:18:00,
2013-12-05 05:19:00,67.0,66.4,29.94,ENE,68,0.0,0.0,98,0.00,,---,0.00,VWS V14.01,2013-12-05 11:19:00,
2013-12-05 05:20:00,67.0,66.4,29.94,ENE,68,0.0,0.0,98,0.00,,---,0.00,VWS V14.01,2013-12-05 11:20:00,
2013-12-05 05:21:00,67.0,66.4,29.94,ENE,68,0.0,0.0,98,0.00,,---,0.00,VWS V14.01,2013-12-05 11:21:00,
2013-12-05 05:22:00,67.0,66.4,29.94,ENE,68,0.0,0.0,98,0.00,,---,0.00,VWS V14.01,2013-12-05 11:22:00,
2013-12-05 05:23:00,67.0,66.4,29.94,ENE,68,0.0,0.0,98,0.00,,---,0.00,VWS V14.01,2013-12-05 11:23:00,
2013-12-05 05:24:00,67.0,66.4,29.94,ENE,68,0.0,0.0,98,0.00,,---,0.00,VWS V14.01,2013-12-05 11:24:00,
2013-12-05 05:25:00,67.0,66.4,29.94,ENE,68,0.0,0.0,98,0.00,,---,0.00,VWS V14.01,2013-12-05 11:25:00,
2013-12-05 05:26:00,67.0,66.4,29.97,ENE,68,0.0,0.0,98,0.00,,---,0.00,VWS V14.01,2013-12-05 11:26:00,
2013-12-05 05:27:00,67.0,66.4,29.97,ENE,68,0.0,0.0,98,0.00,,---,0.00,VWS V14.01,2013-12-05 11:27:00,
2013-12-05 05:28:00,66.8,66.3,29.97,ENE,68,0.0,0.0,98,0.00,,---,0.00,VWS V14.01,2013-12-05 11:28:00,
2013-12-05 05:29:00,66.8,66.3,29.97,ENE,68,0.0,0.0,98,0.00,,---,0.00,VWS V14.01,2013-12-05 11:29:00,
2013-12-05 05:30:00,66.8,66.3,29.97,ENE,68,0.0,0.0,98,0.00,,---,0.00,VWS V14.01,2013-12-05 11:30:00,
2013-12-05 05:31:00,66.8,66.3,29.97,ENE,68,0.0,0.0,98,0.00,,---,0.00,VWS V14.01,2013-12-05 11:31:00,
2013-12-05 05:32:00,66.8,66.3,29.97,ENE,68,0.0,0.0,98,0.00,,---,0.00,VWS V14.01,2013-12-05 11:32:00,
2013-12-05 05:33:00,66.8,66.3,29.97,ENE,68,0.0,0.0,98,0.00,,---,0.00,VWS V14.01,2013-12-05 11:33:00,
2013-12-05 05:34:00,66.7,66.1,29.97,ENE,68,0.0,0.0,98,0.00,,---,0.00,VWS V14.01,2013-12-05 11:34:00,
2013-12-05 05:35:00,66.7,66.1,29.97,ENE,68,0.0,0.0,98,0.00,,---,0.00,VWS V14.01,2013-12-05 11:35:00,
2013-12-05 05:36:00,66.7,66.1,29.97,ENE,68,2.5,2.5,98,0.00,,---,0.00,VWS V14.01,2013-12-05 11:36:00,
2013-12-05 05:37:00,66.7,66.1,29.97,ENE,68,2.0,2.5,98,0.00,,---,0.00,VWS V14.01,2013-12-05 11:37:00,
2013-12-05 05:38:00,66.7,66.1,29.97,East,90,0.9,2.5,98,0.00,,---,0.00,VWS V14.01,2013-12-05 11:38:00,
2013-12-05 05:39:00,66.7,66.1,29.97,East,90,0.0,0.9,98,0.00,,---,0.00,VWS V14.01,2013-12-05 11:39:00,
2013-12-05 05:40:00,66.7,66.1,29.97,East,90,0.0,0.0,98,0.00,,---,0.00,VWS V14.01,2013-12-05 11:40:00,
2013-12-05 05:41:00,66.7,66.1,29.97,SW,225,0.0,0.0,98,0.00,,---,0.00,VWS V14.01,2013-12-05 11:41:00,
2013-12-05 05:42:00,66.7,66.1,29.97,West,270,0.0,1.6,98,0.00,,---,0.00,VWS V14.01,2013-12-05 11:42:00,
2013-12-05 05:43:00,66.7,66.1,29.97,WSW,248,0.0,0.0,98,0.00,,---,0.00,VWS V14.01,2013-12-05 11:43:00,
2013-12-05 05:44:00,66.7,66.1,29.97,SSW,202,0.0,0.0,98,0.00,,---,0.00,VWS V14.01,2013-12-05 11:44:00,
2013-12-05 05:45:00,66.7,66.1,29.97,SSW,202,0.0,0.0,98,0.00,,---,0.00,VWS V14.01,2013-12-05 11:45:00,
2013-12-05 05:46:00,66.7,66.1,29.97,SSE,158,0.0,0.0,98,0.00,,---,0.00,VWS V14.01,2013-12-05 11:46:00,
2013-12-05 05:47:00,66.7,66.1,29.97,SSE,158,0.0,0.0,98,0.00,,---,0.00,VWS V14.01,2013-12-05 11:47:00,
2013-12-05 05:48:00,66.7,66.1,29.97,SSE,158,0.0,0.0,98,0.00,,---,0.00,VWS V14.01,2013-12-05 11:48:00,
2013-12-05 05:49:00,66.7,66.1,29.97,SSE,158,0.0,0.0,98,0.00,,---,0.00,VWS V14.01,2013-12-05 11:49:00,
2013-12-05 05:50:00,66.7,66.1,29.97,SSE,158,0.0,0.0,98,0.00,,---,0.00,VWS V14.01,2013-12-05 11:50:00,
2013-12-05 05:51:00,66.7,66.1,29.97,SSE,158,0.0,0.0,98,0.00,,---,0.00,VWS V14.01,2013-12-05 11:51:00,
2013-12-05 05:52:00,66.7,66.1,29.97,SSE,158,0.0,0.0,98,0.00,,---,0.00,VWS V14.01,2013-12-05 11:52:00,
2013-12-05 05:53:00,66.7,66.1,29.97,SSE,158,0.0,0.0,98,0.00,,---,0.00,VWS V14.01,2013-12-05 11:53:00,
2013-12-05 05:54:00,66.7,66.1,29.97,SSE,158,0.0,0.0,98,0.00,,---,0.00,VWS V14.01,2013-12-05 11:54:00,
2013-12-05 05:55:00,66.7,66.1,29.97,SSE,158,0.0,0.0,98,0.00,,---,0.00,VWS V14.01,2013-12-05 11:55:00,
2013-12-05 05:56:00,66.7,66.1,29.97,SSE,158,0.0,0.0,98,0.00,,---,0.00,VWS V14.01,2013-12-05 11:56:00,
2013-12-05 05:57:00,66.8,66.3,29.97,SSE,158,0.0,0.0,98,0.00,,---,0.00,VWS V14.01,2013-12-05 11:57:00,
2013-12-05 05:58:00,66.7,66.1,29.97,SSE,158,0.0,0.0,98,0.00,,---,0.00,VWS V14.01,2013-12-05 11:58:00,
2013-12-05 05:59:00,66.7,66.1,29.97,SSE,158,0.0,0.0,98,0.00,,---,0.00,VWS V14.01,2013-12-05 11:59:00,
2013-12-05 06:00:00,66.7,66.1,29.97,SSE,158,0.0,0.0,98,0.00,,---,0.00,VWS V14.01,2013-12-05 12:00:00,
2013-12-05 06:01:00,66.7,66.1,29.97,SSE,158,0.0,0.0,98,0.00,,---,0.00,VWS V14.01,2013-12-05 12:01:00,
2013-12-05 06:02:00,66.7,66.1,29.97,SSE,158,0.0,0.0,98,0.00,,---,0.00,VWS V14.01,2013-12-05 12:02:00,
2013-12-05 06:03:00,66.7,66.1,29.97,SSE,158,0.0,0.0,98,0.00,,---,0.00,VWS V14.01,2013-12-05 12:03:00,
2013-12-05 06:04:00,66.7,66.1,29.97,SSE,158,0.0,0.0,98,0.00,,---,0.00,VWS V14.01,2013-12-05 12:04:00,
2013-12-05 06:05:00,66.7,66.1,29.97,SSE,158,0.0,0.0,98,0.00,,---,0.00,VWS V14.01,2013-12-05 12:05:00,
2013-12-05 06:06:00,66.7,66.1,29.97,SSW,202,0.0,0.0,98,0.00,,---,0.00,VWS V14.01,2013-12-05 12:06:00,
2013-12-05 06:07:00,66.7,66.1,29.97,SSW,202,0.0,0.0,98,0.00,,---,0.00,VWS V14.01,2013-12-05 12:07:00,
2013-12-05 06:09:00,66.7,66.1,29.97,SSE,158,0.0,0.0,98,0.00,,---,0.00,VWS V14.01,2013-12-05 12:09:00,
2013-12-05 06:10:00,66.8,66.3,29.97,SSE,158,0.0,0.0,98,0.00,,---,0.00,VWS V14.01,2013-12-05 12:10:00,
2013-12-05 06:11:00,66.8,66.3,29.97,SSE,158,0.0,0.0,98,0.00,,---,0.00,VWS V14.01,2013-12-05 12:11:00,
2013-12-05 06:12:00,66.8,66.3,29.97,SSE,158,0.0,0.0,98,0.00,,---,0.00,VWS V14.01,2013-12-05 12:12:00,
2013-12-05 06:13:00,66.8,66.3,29.97,SSE,158,0.0,0.0,98,0.00,,---,0.00,VWS V14.01,2013-12-05 12:13:00,
2013-12-05 06:14:00,67.0,66.4,29.97,SSE,158,0.0,0.0,98,0.00,,---,0.00,VWS V14.01,2013-12-05 12:14:00,
2013-12-05 06:15:00,67.0,66.4,29.97,SSE,158,0.0,0.0,98,0.00,,---,0.00,VWS V14.01,2013-12-05 12:15:00,
2013-12-05 06:16:00,66.8,66.3,29.97,SSE,158,0.0,0.0,98,0.00,,---,0.00,VWS V14.01,2013-12-05 12:16:00,
2013-12-05 06:17:00,66.8,66.3,29.97,SSE,158,0.0,0.0,98,0.00,,---,0.00,VWS V14.01,2013-12-05 12:17:00,
2013-12-05 06:18:00,66.8,66.3,29.97,SSE,158,0.0,0.0,98,0.00,,---,0.00,VWS V14.01,2013-12-05 12:18:00,
2013-12-05 06:19:00,66.8,66.3,29.97,SSE,158,0.0,0.0,98,0.00,,---,0.00,VWS V14.01,2013-12-05 12:19:00,
2013-12-05 06:20:00,67.0,66.4,29.97,SSE,158,0.0,0.0,98,0.00,,---,0.00,VWS V14.01,2013-12-05 12:20:00,
2013-12-05 06:21:00,67.0,66.4,29.97,SSE,158,0.0,0.0,98,0.00,,---,0.00,VWS V14.01,2013-12-05 12:21:00,
2013-12-05 06:22:00,67.0,66.4,29.97,SSE,158,0.0,0.0,98,0.00,,---,0.00,VWS V14.01,2013-12-05 12:22:00,
2013-12-05 06:23:00,67.0,66.4,29.97,SSE,158,0.0,0.0,98,0.00,,---,0.00,VWS V14.01,2013-12-05 12:23:00,
2013-12-05 06:24:00,67.0,66.4,29.97,SSE,158,0.0,0.0,98,0.00,,---,0.00,VWS V14.01,2013-12-05 12:24:00,
2013-12-05 06:25:00,67.0,66.4,29.97,SSE,158,0.0,0.0,98,0.00,,---,0.00,VWS V14.01,2013-12-05 12:25:00,
2013-12-05 06:26:00,67.0,66.4,29.97,SSE,158,0.0,0.0,98,0.00,,---,0.00,VWS V14.01,2013-12-05 12:26:00,
2013-12-05 06:27:00,67.0,66.4,29.97,SSE,158,0.0,0.0,98,0.00,,---,0.00,VWS V14.01,2013-12-05 12:27:00,
2013-12-05 06:28:00,67.0,66.4,29.97,SSW,202,0.0,0.0,98,0.00,,---,0.00,VWS V14.01,2013-12-05 12:28:00,
2013-12-05 06:29:00,67.0,66.4,29.97,SSW,202,0.0,0.0,98,0.00,,---,0.00,VWS V14.01,2013-12-05 12:29:00,
2013-12-05 06:30:00,67.0,66.4,29.97,SSW,202,0.0,0.0,98,0.00,,---,0.00,VWS V14.01,2013-12-05 12:30:00,
2013-12-05 06:31:00,67.0,66.4,29.97,SSE,158,0.0,0.0,98,0.00,,---,0.00,VWS V14.01,2013-12-05 12:31:00,
2013-12-05 06:32:00,67.0,66.4,29.97,SSE,158,0.0,0.0,98,0.00,,---,0.00,VWS V14.01,2013-12-05 12:32:00,
2013-12-05 06:33:00,67.0,66.4,29.97,SSE,158,0.0,0.0,98,0.00,,---,0.00,VWS V14.01,2013-12-05 12:33:00,
2013-12-05 06:34:00,67.0,66.4,29.97,SSE,158,0.0,0.0,98,0.00,,---,0.00,VWS V14.01,2013-12-05 12:34:00,
2013-12-05 06:35:00,67.0,66.4,29.97,SSE,158,0.0,0.0,98,0.00,,---,0.00,VWS V14.01,2013-12-05 12:35:00,
2013-12-05 06:36:00,67.0,66.4,29.97,SSE,158,0.0,0.0,98,0.00,,---,0.00,VWS V14.01,2013-12-05 12:36:00,
2013-12-05 06:37:00,67.0,66.4,29.97,SSE,158,0.0,0.0,98,0.00,,---,0.00,VWS V14.01,2013-12-05 12:37:00,
2013-12-05 06:38:00,67.0,66.4,29.97,SSE,158,0.0,0.0,98,0.00,,---,0.00,VWS V14.01,2013-12-05 12:38:00,
2013-12-05 06:39:00,67.0,66.4,29.97,SSW,202,0.0,0.0,98,0.00,,---,0.00,VWS V14.01,2013-12-05 12:39:00,
2013-12-05 06:40:00,66.8,66.3,29.97,South,180,0.0,0.0,98,0.00,,---,0.00,VWS V14.01,2013-12-05 12:40:00,
2013-12-05 06:41:00,66.8,66.3,29.97,South,180,0.0,0.0,98,0.00,,---,0.00,VWS V14.01,2013-12-05 12:41:00,
2013-12-05 06:42:00,66.8,66.3,29.97,SE,135,0.0,0.0,98,0.00,,---,0.00,VWS V14.01,2013-12-05 12:42:00,
2013-12-05 06:43:00,66.8,66.3,29.97,SSE,158,0.0,0.0,98,0.00,,---,0.00,VWS V14.01,2013-12-05 12:43:00,
2013-12-05 06:44:00,66.8,66.3,29.97,SSE,158,0.0,0.0,98,0.00,,---,0.00,VWS V14.01,2013-12-05 12:44:00,
2013-12-05 06:45:00,66.8,66.3,29.97,SSE,158,1.6,1.6,98,0.00,,---,0.00,VWS V14.01,2013-12-05 12:45:00,
2013-12-05 06:46:00,66.7,66.1,29.97,SSE,158,1.3,2.0,98,0.00,,---,0.00,VWS V14.01,2013-12-05 12:46:00,
2013-12-05 06:47:00,66.7,66.1,29.97,SSE,158,0.0,1.3,98,0.00,,---,0.00,VWS V14.01,2013-12-05 12:47:00,
2013-12-05 06:48:00,66.7,66.1,29.97,SSE,158,0.0,0.0,98,0.00,,---,0.00,VWS V14.01,2013-12-05 12:48:00,
2013-12-05 06:49:00,66.7,66.1,29.97,SSE,158,0.0,0.0,98,0.00,,---,0.00,VWS V14.01,2013-12-05 12:49:00,
2013-12-05 06:50:00,66.7,66.1,29.97,SSE,158,0.0,0.0,98,0.00,,---,0.00,VWS V14.01,2013-12-05 12:50:00,
2013-12-05 06:51:00,66.7,66.1,29.97,SSW,202,0.0,0.0,98,0.00,,---,0.00,VWS V14.01,2013-12-05 12:51:00,
2013-12-05 06:52:00,66.7,66.1,29.97,SSE,158,0.0,0.0,98,0.00,,---,0.00,VWS V14.01,2013-12-05 12:52:00,
2013-12-05 06:53:00,66.7,66.1,29.97,SSE,158,0.0,0.0,98,0.00,,---,0.00,VWS V14.01,2013-12-05 12:53:00,
2013-12-05 06:54:00,66.7,66.1,29.97,SSE,158,0.0,0.0,98,0.00,,---,0.00,VWS V14.01,2013-12-05 12:54:00,
2013-12-05 06:55:00,66.7,66.1,29.97,SSW,202,0.0,0.0,98,0.00,,---,0.00,VWS V14.01,2013-12-05 12:55:00,
2013-12-05 06:56:00,66.7,66.1,29.97,SSE,158,0.0,0.0,98,0.00,,---,0.00,VWS V14.01,2013-12-05 12:56:00,
2013-12-05 06:57:00,66.7,66.1,29.97,SSE,158,0.0,0.0,98,0.00,,---,0.00,VWS V14.01,2013-12-05 12:57:00,
2013-12-05 06:58:00,66.7,66.1,29.97,SSE,158,0.0,0.0,98,0.00,,---,0.00,VWS V14.01,2013-12-05 12:58:00,
2013-12-05 06:59:00,66.5,65.9,29.97,SSE,158,0.0,0.0,98,0.00,,---,0.00,VWS V14.01,2013-12-05 12:59:00,
2013-12-05 07:00:00,66.5,65.9,29.97,South,180,0.0,0.0,98,0.00,,---,0.00,VWS V14.01,2013-12-05 13:00:00,
2013-12-05 07:01:00,66.5,65.9,29.97,South,180,0.0,0.0,98,0.00,,---,0.00,VWS V14.01,2013-12-05 13:01:00,
2013-12-05 07:02:00,66.5,65.9,29.97,South,180,0.0,0.0,98,0.00,,---,0.00,VWS V14.01,2013-12-05 13:02:00,
2013-12-05 07:03:00,66.5,65.9,29.97,SSE,158,0.0,0.0,98,0.00,,---,0.00,VWS V14.01,2013-12-05 13:03:00,
2013-12-05 07:04:00,66.5,65.9,29.97,SSE,158,0.0,0.0,98,0.00,,---,0.00,VWS V14.01,2013-12-05 13:04:00,
2013-12-05 07:05:00,66.5,65.9,29.97,SSE,158,0.0,0.0,98,0.00,,---,0.00,VWS V14.01,2013-12-05 13:05:00,
2013-12-05 07:06:00,66.7,66.1,29.97,SSE,158,0.0,0.0,98,0.00,,---,0.00,VWS V14.01,2013-12-05 13:06:00,
2013-12-05 07:07:00,66.7,66.1,29.97,SSE,158,0.0,0.0,98,0.00,,---,0.00,VWS V14.01,2013-12-05 13:07:00,
2013-12-05 07:08:00,66.7,66.1,29.97,SSE,158,0.0,0.0,98,0.00,,---,0.00,VWS V14.01,2013-12-05 13:08:00,
2013-12-05 07:09:00,66.7,66.1,29.97,SSE,158,0.0,0.0,98,0.00,,---,0.00,VWS V14.01,2013-12-05 13:09:00,
2013-12-05 07:10:00,66.7,66.1,30.00,SSE,158,0.0,0.0,98,0.00,,---,0.00,VWS V14.01,2013-12-05 13:10:00,
2013-12-05 07:11:00,66.8,66.3,30.00,SSE,158,0.0,0.0,98,0.00,,---,0.00,VWS V14.01,2013-12-05 13:11:00,
2013-12-05 07:12:00,66.8,66.3,30.00,SSE,158,0.0,0.0,98,0.00,,---,0.00,VWS V14.01,2013-12-05 13:12:00,
2013-12-05 07:13:00,66.8,66.3,30.00,SSE,158,0.0,0.0,98,0.00,,---,0.00,VWS V14.01,2013-12-05 13:13:00,
2013-12-05 07:14:00,66.8,66.3,30.00,SSE,158,0.0,0.0,98,0.00,,---,0.00,VWS V14.01,2013-12-05 13:14:00,
2013-12-05 07:15:00,66.8,66.3,30.00,SSE,158,0.0,0.0,98,0.00,,---,0.00,VWS V14.01,2013-12-05 13:15:00,
2013-12-05 07:16:00,66.8,66.3,30.00,SSE,158,0.0,0.0,98,0.00,,---,0.00,VWS V14.01,2013-12-05 13:16:00,
2013-12-05 07:17:00,67.0,66.4,30.00,SSE,158,3.1,3.1,98,0.00,,---,0.00,VWS V14.01,2013-12-05 13:17:00,
2013-12-05 07:18:00,67.0,66.4,30.00,SSE,158,0.0,3.4,98,0.00,,---,0.00,VWS V14.01,2013-12-05 13:18:00,
2013-12-05 07:19:00,67.0,66.4,30.00,SSE,158,0.0,0.0,98,0.00,,---,0.00,VWS V14.01,2013-12-05 13:19:00,
2013-12-05 07:20:00,67.0,66.4,30.00,SSE,158,1.3,1.3,98,0.00,,---,0.00,VWS V14.01,2013-12-05 13:20:00,
2013-12-05 07:21:00,67.0,66.4,30.00,SSE,158,0.0,1.3,98,0.00,,---,0.00,VWS V14.01,2013-12-05 13:21:00,
2013-12-05 07:22:00,67.0,66.4,30.00,SSE,158,0.0,1.1,98,0.00,,---,0.00,VWS V14.01,2013-12-05 13:22:00,
2013-12-05 07:23:00,67.0,66.4,30.00,SSE,158,2.0,2.5,98,0.00,,---,0.00,VWS V14.01,2013-12-05 13:23:00,
2013-12-05 07:24:00,67.2,66.6,30.00,SSE,158,2.9,3.6,98,0.00,,---,0.00,VWS V14.01,2013-12-05 13:24:00,
2013-12-05 07:25:00,67.2,66.6,30.00,SSE,158,1.1,3.6,98,0.00,,---,0.00,VWS V14.01,2013-12-05 13:25:00,
2013-12-05 07:26:00,67.2,66.6,30.00,SE,135,1.6,2.5,98,0.00,,---,0.00,VWS V14.01,2013-12-05 13:26:00,
2013-12-05 07:27:00,67.2,66.6,30.00,SSE,158,2.5,2.5,98,0.00,,---,0.00,VWS V14.01,2013-12-05 13:27:00,
2013-12-05 07:28:00,67.4,66.8,30.00,SSE,158,2.9,3.4,98,0.00,,---,0.00,VWS V14.01,2013-12-05 13:28:00,
2013-12-05 07:29:00,67.4,66.8,30.00,SE,135,2.5,3.1,98,0.00,,---,0.00,VWS V14.01,2013-12-05 13:29:00,
2013-12-05 07:30:00,67.6,67.0,30.00,SSE,158,2.7,3.1,98,0.00,,---,0.00,VWS V14.01,2013-12-05 13:30:00,
2013-12-05 07:31:00,67.6,67.0,30.00,SSE,158,1.3,3.1,98,0.00,,---,0.00,VWS V14.01,2013-12-05 13:31:00,
2013-12-05 07:32:00,67.6,67.0,30.00,SSE,158,0.0,1.3,98,0.00,,---,0.00,VWS V14.01,2013-12-05 13:32:00,
2013-12-05 07:33:00,67.6,67.0,30.00,SSE,158,0.0,0.0,98,0.00,,---,0.00,VWS V14.01,2013-12-05 13:33:00,
2013-12-05 07:34:00,67.6,67.0,30.00,SSE,158,0.0,0.0,98,0.00,,---,0.00,VWS V14.01,2013-12-05 13:34:00,
2013-12-05 07:35:00,67.7,67.2,30.00,SSE,158,0.0,0.0,98,0.00,,---,0.00,VWS V14.01,2013-12-05 13:35:00,
2013-12-05 07:36:00,67.7,67.2,30.00,SSE,158,2.2,2.2,98,0.00,,---,0.00,VWS V14.01,2013-12-05 13:36:00,
2013-12-05 07:37:00,67.7,67.2,30.00,SSE,158,1.6,2.5,98,0.00,,---,0.00,VWS V14.01,2013-12-05 13:37:00,
2013-12-05 07:38:00,67.7,67.2,30.00,SSE,158,0.0,2.9,98,0.00,,---,0.00,VWS V14.01,2013-12-05 13:38:00,
2013-12-05 07:39:00,67.9,67.3,30.00,SSE,158,2.5,2.5,98,0.00,,---,0.00,VWS V14.01,2013-12-05 13:39:00,
2013-12-05 07:40:00,67.9,67.3,30.00,SSE,158,2.5,4.0,98,0.00,,---,0.00,VWS V14.01,2013-12-05 13:40:00,
2013-12-05 07:41:00,68.1,67.5,30.00,SSE,158,2.5,2.7,98,0.00,,---,0.00,VWS V14.01,2013-12-05 13:41:00,
2013-12-05 07:42:00,68.1,67.5,30.00,SSE,158,3.1,3.1,98,0.00,,---,0.00,VWS V14.01,2013-12-05 13:42:00,
2013-12-05 07:43:00,68.3,67.7,30.00,ESE,112,2.2,3.1,98,0.00,,---,0.00,VWS V14.01,2013-12-05 13:43:00,
2013-12-05 07:44:00,68.3,67.7,30.00,ESE,112,1.6,1.6,98,0.00,,---,0.00,VWS V14.01,2013-12-05 13:44:00,
2013-12-05 07:45:00,68.5,67.9,30.00,SE,135,2.0,2.0,98,0.00,,---,0.00,VWS V14.01,2013-12-05 13:45:00,
2013-12-05 07:46:00,68.5,67.9,30.00,SSE,158,2.2,2.2,98,0.00,,---,0.00,VWS V14.01,2013-12-05 13:46:00,
2013-12-05 07:47:00,68.6,68.1,30.00,SSE,158,0.9,2.5,98,0.00,,---,0.00,VWS V14.01,2013-12-05 13:47:00,
2013-12-05 07:48:00,68.6,68.1,30.00,SSE,158,2.9,2.9,98,0.00,,---,0.00,VWS V14.01,2013-12-05 13:48:00,
2013-12-05 07:49:00,68.8,68.2,30.00,SSE,158,2.2,2.2,98,0.00,,---,0.00,VWS V14.01,2013-12-05 13:49:00,
2013-12-05 07:50:00,68.8,68.2,30.00,SSE,158,1.6,2.5,98,0.00,,---,0.00,VWS V14.01,2013-12-05 13:50:00,
2013-12-05 07:51:00,68.8,68.2,30.00,SSE,158,2.7,2.7,98,0.00,,---,0.00,VWS V14.01,2013-12-05 13:51:00,
2013-12-05 07:52:00,68.8,68.2,30.00,SSE,158,2.5,3.8,98,0.00,,---,0.00,VWS V14.01,2013-12-05 13:52:00,
2013-12-05 07:53:00,68.8,68.2,30.00,SSE,158,2.7,2.7,98,0.00,,---,0.00,VWS V14.01,2013-12-05 13:53:00,
2013-12-05 07:54:00,69.0,68.4,30.00,SSE,158,2.0,2.7,98,0.00,,---,0.00,VWS V14.01,2013-12-05 13:54:00,
2013-12-05 07:55:00,69.0,68.4,30.00,SSE,158,0.0,2.7,98,0.00,,---,0.00,VWS V14.01,2013-12-05 13:55:00,
2013-12-05 07:56:00,69.0,68.4,30.00,SSE,158,0.0,0.0,98,0.00,,---,0.00,VWS V14.01,2013-12-05 13:56:00,
2013-12-05 07:57:00,69.2,68.6,30.00,SSE,158,2.2,2.2,98,0.00,,---,0.00,VWS V14.01,2013-12-05 13:57:00,
2013-12-05 07:58:00,69.2,68.6,30.00,SSE,158,1.6,2.9,98,0.00,,---,0.00,VWS V14.01,2013-12-05 13:58:00,
2013-12-05 07:59:00,69.4,68.8,30.00,SSE,158,0.0,0.0,98,0.00,,---,0.00,VWS V14.01,2013-12-05 13:59:00,
2013-12-05 08:00:00,69.4,68.8,30.00,ESE,112,0.0,0.0,98,0.00,,---,0.00,VWS V14.01,2013-12-05 14:00:00,
2013-12-05 08:01:00,69.4,68.8,30.00,ESE,112,0.0,0.0,98,0.00,,---,0.00,VWS V14.01,2013-12-05 14:01:00,
2013-12-05 08:02:00,69.5,68.9,30.00,SSE,158,0.0,2.5,98,0.00,,---,0.00,VWS V14.01,2013-12-05 14:02:00,
2013-12-05 08:03:00,69.5,68.9,30.00,SSE,158,1.3,2.2,98,0.00,,---,0.00,VWS V14.01,2013-12-05 14:03:00,
2013-12-05 08:04:00,69.7,69.1,30.00,SSE,158,0.0,0.0,98,0.00,,---,0.00,VWS V14.01,2013-12-05 14:04:00,
2013-12-05 08:05:00,69.7,69.1,30.00,SSE,158,0.0,0.0,98,0.00,,---,0.00,VWS V14.01,2013-12-05 14:05:00,
2013-12-05 08:06:00,69.7,69.1,30.00,SSE,158,0.0,0.0,98,0.00,,---,0.00,VWS V14.01,2013-12-05 14:06:00,
2013-12-05 08:07:00,69.9,69.3,30.00,SSE,158,0.0,0.0,98,0.00,,---,0.00,VWS V14.01,2013-12-05 14:07:00,
2013-12-05 08:08:00,69.9,69.3,30.00,SSE,158,0.0,0.0,98,0.00,,---,0.00,VWS V14.01,2013-12-05 14:08:00,
2013-12-05 08:09:00,69.9,69.3,30.00,SSE,158,0.0,0.0,98,0.00,,---,0.00,VWS V14.01,2013-12-05 14:09:00,
2013-12-05 08:10:00,70.1,69.5,30.00,SSE,158,0.0,0.0,98,0.00,,---,0.00,VWS V14.01,2013-12-05 14:10:00,
2013-12-05 08:11:00,70.1,69.5,30.00,SSE,158,0.0,0.0,98,0.00,,---,0.00,VWS V14.01,2013-12-05 14:11:00,
2013-12-05 08:12:00,70.1,69.5,30.00,SSE,158,0.0,0.0,98,0.00,,---,0.00,VWS V14.01,2013-12-05 14:12:00,
2013-12-05 08:13:00,70.3,69.7,30.00,WSW,248,0.0,0.0,98,0.00,,---,0.00,VWS V14.01,2013-12-05 14:13:00,
2013-12-05 08:14:00,70.3,69.7,30.00,WSW,248,0.0,0.0,98,0.00,,---,0.00,VWS V14.01,2013-12-05 14:14:00,
2013-12-05 08:15:00,70.4,69.8,30.00,WSW,248,0.0,0.0,98,0.00,,---,0.00,VWS V14.01,2013-12-05 14:15:00,
2013-12-05 08:16:00,70.4,69.8,30.00,WSW,248,0.0,0.0,98,0.00,,---,0.00,VWS V14.01,2013-12-05 14:16:00,
2013-12-05 08:17:00,70.4,69.8,30.00,WSW,248,0.0,0.0,98,0.00,,---,0.00,VWS V14.01,2013-12-05 14:17:00,
2013-12-05 08:18:00,70.6,70.0,30.00,South,180,0.0,0.0,98,0.00,,---,0.00,VWS V14.01,2013-12-05 14:18:00,
2013-12-05 08:19:00,70.6,70.0,30.00,SSW,202,0.0,0.0,98,0.00,,---,0.00,VWS V14.01,2013-12-05 14:19:00,
2013-12-05 08:20:00,70.6,70.0,30.00,South,180,0.0,0.0,98,0.00,,---,0.00,VWS V14.01,2013-12-05 14:20:00,
2013-12-05 08:21:00,70.8,70.2,30.00,SSE,158,0.0,0.9,98,0.00,,---,0.00,VWS V14.01,2013-12-05 14:21:00,
2013-12-05 08:22:00,70.8,70.2,30.00,SSE,158,0.0,0.0,98,0.00,,---,0.00,VWS V14.01,2013-12-05 14:22:00,
2013-12-05 08:23:00,70.8,70.2,30.00,SW,225,0.0,0.0,98,0.00,,---,0.00,VWS V14.01,2013-12-05 14:23:00,
2013-12-05 08:25:00,71.0,70.4,30.00,SSE,158,0.0,0.0,98,0.00,,---,0.00,VWS V14.01,2013-12-05 14:25:00,
2013-12-05 08:26:00,71.0,70.4,30.00,SSE,158,2.0,2.9,98,0.00,,---,0.00,VWS V14.01,2013-12-05 14:26:00,
2013-12-05 08:27:00,71.0,70.4,30.00,SE,135,0.0,2.0,98,0.00,,---,0.00,VWS V14.01,2013-12-05 14:27:00,
2013-12-05 08:28:00,71.2,70.6,30.00,ESE,112,0.0,0.0,98,0.00,,---,0.00,VWS V14.01,2013-12-05 14:28:00,
2013-12-05 08:29:00,71.3,70.8,30.00,ESE,112,0.0,0.0,98,0.00,,---,0.00,VWS V14.01,2013-12-05 14:29:00,
2013-12-05 08:30:00,71.3,70.8,30.00,ESE,112,0.0,0.0,98,0.00,,---,0.00,VWS V14.01,2013-12-05 14:30:00,
2013-12-05 08:31:00,71.3,70.8,30.00,SSE,158,0.0,0.0,98,0.00,,---,0.00,VWS V14.01,2013-12-05 14:31:00,
2013-12-05 08:32:00,71.3,70.8,30.00,SSE,158,0.0,1.6,98,0.00,,---,0.00,VWS V14.01,2013-12-05 14:32:00,
2013-12-05 08:33:00,71.5,70.9,30.00,SE,135,0.0,0.0,98,0.00,,---,0.00,VWS V14.01,2013-12-05 14:33:00,
2013-12-05 08:34:00,71.5,70.9,30.00,SSE,158,1.6,2.7,98,0.00,,---,0.00,VWS V14.01,2013-12-05 14:34:00,
2013-12-05 08:35:00,71.7,71.1,30.00,SE,135,1.6,1.6,98,0.00,,---,0.00,VWS V14.01,2013-12-05 14:35:00,
2013-12-05 08:36:00,71.9,71.3,30.00,SSE,158,2.2,2.2,98,0.00,,---,0.00,VWS V14.01,2013-12-05 14:36:00,
2013-12-05 08:37:00,71.9,71.3,30.00,SSE,158,0.0,2.2,98,0.00,,---,0.00,VWS V14.01,2013-12-05 14:37:00,
2013-12-05 08:38:00,71.9,71.3,30.00,SSE,158,1.6,1.6,98,0.00,,---,0.00,VWS V14.01,2013-12-05 14:38:00,
2013-12-05 08:39:00,72.1,71.5,30.00,SSE,158,2.5,2.5,98,0.00,,---,0.00,VWS V14.01,2013-12-05 14:39:00,
2013-12-05 08:40:00,72.1,71.5,30.00,SSE,158,3.6,3.6,98,0.00,,---,0.00,VWS V14.01,2013-12-05 14:40:00,
2013-12-05 08:41:00,72.2,71.7,30.00,ESE,112,3.1,3.1,98,0.00,,---,0.00,VWS V14.01,2013-12-05 14:41:00,
2013-12-05 08:42:00,72.2,71.7,30.00,SE,135,2.0,3.1,98,0.00,,---,0.00,VWS V14.01,2013-12-05 14:42:00,
2013-12-05 08:43:00,72.4,71.8,30.00,SSE,158,0.0,2.0,98,0.00,,---,0.00,VWS V14.01,2013-12-05 14:43:00,
2013-12-05 08:44:00,72.6,71.7,30.00,SE,135,0.0,0.0,97,0.00,,---,0.00,VWS V14.01,2013-12-05 14:44:00,
2013-12-05 08:45:00,72.6,71.7,30.00,SE,135,1.1,1.1,97,0.00,,---,0.00,VWS V14.01,2013-12-05 14:45:00,
2013-12-05 08:46:00,72.8,71.9,30.00,SSE,158,0.9,2.5,97,0.00,,---,0.00,VWS V14.01,2013-12-05 14:46:00,
2013-12-05 08:47:00,72.8,71.9,30.00,SSE,158,0.0,1.3,97,0.00,,---,0.00,VWS V14.01,2013-12-05 14:47:00,
2013-12-05 08:48:00,72.8,71.9,30.00,SSE,158,0.0,0.0,97,0.00,,---,0.00,VWS V14.01,2013-12-05 14:48:00,
2013-12-05 08:49:00,73.0,71.8,30.00,WSW,248,0.0,3.1,96,0.00,,---,0.00,VWS V14.01,2013-12-05 14:49:00,
2013-12-05 08:50:00,73.0,71.8,30.00,SSE,158,3.1,3.1,96,0.00,,---,0.00,VWS V14.01,2013-12-05 14:50:00,
2013-12-05 08:51:00,73.0,71.8,30.00,South,180,2.2,2.2,96,0.00,,---,0.00,VWS V14.01,2013-12-05 14:51:00,
2013-12-05 08:52:00,73.1,71.6,30.00,SSW,202,0.0,2.2,95,0.00,,---,0.00,VWS V14.01,2013-12-05 14:52:00,
2013-12-05 08:53:00,73.1,71.6,30.00,SSW,202,0.0,0.0,95,0.00,,---,0.00,VWS V14.01,2013-12-05 14:53:00,
2013-12-05 08:54:00,73.1,71.6,30.00,SSE,158,2.0,3.6,95,0.00,,---,0.00,VWS V14.01,2013-12-05 14:54:00,
2013-12-05 08:55:00,73.1,71.3,30.00,SSE,158,2.7,2.7,94,0.00,,---,0.00,VWS V14.01,2013-12-05 14:55:00,
2013-12-05 08:56:00,73.3,71.5,30.00,SSE,158,2.9,4.3,94,0.00,,---,0.00,VWS V14.01,2013-12-05 14:56:00,
2013-12-05 08:57:00,73.3,71.5,30.00,SSE,158,1.1,3.4,94,0.00,,---,0.00,VWS V14.01,2013-12-05 14:57:00,
2013-12-05 08:58:00,73.3,71.5,30.00,WSW,248,0.0,1.6,94,0.00,,---,0.00,VWS V14.01,2013-12-05 14:58:00,
2013-12-05 08:59:00,73.5,71.4,30.00,WSW,248,0.0,0.0,93,0.00,,---,0.00,VWS V14.01,2013-12-05 14:59:00,
2013-12-05 09:00:00,73.5,71.4,30.00,WSW,248,0.0,0.0,93,0.00,,---,0.00,VWS V14.01,2013-12-05 15:00:00,
2013-12-05 09:01:00,73.5,71.0,30.00,SSE,158,2.0,2.2,92,0.00,,---,0.00,VWS V14.01,2013-12-05 15:01:00,
2013-12-05 09:02:00,73.5,71.0,30.00,SSE,158,2.0,2.0,92,0.00,,---,0.00,VWS V14.01,2013-12-05 15:02:00,
2013-12-05 09:04:00,73.7,70.9,30.00,ESE,112,3.4,4.7,91,0.00,,---,0.00,VWS V14.01,2013-12-05 15:04:00,
2013-12-05 09:05:00,73.7,70.9,30.00,SSE,158,5.6,5.6,91,0.00,,---,0.00,VWS V14.01,2013-12-05 15:05:00,
2013-12-05 09:06:00,73.7,70.2,30.00,ESE,112,3.4,6.3,89,0.00,,---,0.00,VWS V14.01,2013-12-05 15:06:00,
2013-12-05 09:07:00,73.9,70.4,30.00,WSW,248,2.7,6.3,89,0.00,,---,0.00,VWS V14.01,2013-12-05 15:07:00,
2013-12-05 09:08:00,73.9,70.4,30.00,SE,135,3.1,3.1,89,0.00,,---,0.00,VWS V14.01,2013-12-05 15:08:00,
2013-12-05 09:09:00,73.9,70.4,30.00,SSE,158,3.4,4.9,89,0.00,,---,0.00,VWS V14.01,2013-12-05 15:09:00,
2013-12-05 09:10:00,74.0,70.6,30.00,SE,135,2.0,4.0,89,0.00,,---,0.00,VWS V14.01,2013-12-05 15:10:00,
2013-12-05 09:11:00,74.0,70.6,30.00,SSE,158,2.5,3.8,89,0.00,,---,0.00,VWS V14.01,2013-12-05 15:11:00,
2013-12-05 09:12:00,74.2,70.8,30.00,SE,135,3.4,3.6,89,0.00,,---,0.00,VWS V14.01,2013-12-05 15:12:00,
2013-12-05 09:13:00,74.2,70.1,30.00,SSW,202,2.9,3.4,87,0.00,,---,0.00,VWS V14.01,2013-12-05 15:13:00,
2013-12-05 09:14:00,74.2,70.1,30.00,SSW,202,2.0,3.1,87,0.00,,---,0.00,VWS V14.01,2013-12-05 15:14:00,
2013-12-05 09:15:00,74.2,70.1,30.00,SSE,158,5.6,5.6,87,0.00,,---,0.00,VWS V14.01,2013-12-05 15:15:00,
2013-12-05 09:16:00,74.0,68.9,30.00,ESE,112,5.4,5.4,84,0.00,,---,0.00,VWS V14.01,2013-12-05 15:16:00,
2013-12-05 09:17:00,74.0,68.9,30.00,SSE,158,4.9,5.4,84,0.00,,---,0.00,VWS V14.01,2013-12-05 15:17:00,
2013-12-05 09:18:00,74.2,69.4,30.00,SE,135,3.1,4.9,85,0.00,,---,0.00,VWS V14.01,2013-12-05 15:18:00,
2013-12-05 09:19:00,74.0,68.9,30.00,ESE,112,4.0,4.3,84,0.00,,---,0.00,VWS V14.01,2013-12-05 15:19:00,
2013-12-05 09:20:00,74.0,68.9,30.00,ESE,112,4.0,4.3,84,0.00,,---,0.00,VWS V14.01,2013-12-05 15:20:00,
2013-12-05 09:21:00,74.2,69.1,30.00,SSE,158,4.9,6.9,84,0.00,,---,0.00,VWS V14.01,2013-12-05 15:21:00,
2013-12-05 09:22:00,74.4,69.2,30.00,SSE,158,3.6,4.9,84,0.00,,---,0.00,VWS V14.01,2013-12-05 15:22:00,
2013-12-05 09:23:00,74.6,69.4,30.00,SSE,158,4.0,4.0,84,0.00,,---,0.00,VWS V14.01,2013-12-05 15:23:00,
2013-12-05 09:24:00,74.6,69.4,30.00,SSE,158,0.0,4.0,84,0.00,,---,0.00,VWS V14.01,2013-12-05 15:24:00,
2013-12-05 09:25:00,74.8,69.6,30.00,SSE,158,2.0,3.1,84,0.00,,---,0.00,VWS V14.01,2013-12-05 15:25:00,
2013-12-05 09:26:00,74.8,69.6,30.03,ESE,112,2.0,4.3,84,0.00,,---,0.00,VWS V14.01,2013-12-05 15:26:00,
2013-12-05 09:27:00,74.9,69.4,30.03,ESE,112,3.1,4.0,83,0.00,,---,0.00,VWS V14.01,2013-12-05 15:27:00,
2013-12-05 09:28:00,74.9,69.8,30.03,ESE,112,3.8,4.3,84,0.00,,---,0.00,VWS V14.01,2013-12-05 15:28:00,
2013-12-05 09:29:00,75.1,69.6,30.03,SSE,158,1.1,4.9,83,0.00,,---,0.00,VWS V14.01,2013-12-05 15:29:00,
2013-12-05 09:30:00,75.1,69.6,30.03,SE,135,4.9,4.9,83,0.00,,---,0.00,VWS V14.01,2013-12-05 15:30:00,
2013-12-05 09:31:00,75.3,69.4,30.03,SSE,158,3.1,4.9,82,0.00,,---,0.00,VWS V14.01,2013-12-05 15:31:00,
2013-12-05 09:32:00,75.3,69.1,30.03,SE,135,3.8,4.3,81,0.00,,---,0.00,VWS V14.01,2013-12-05 15:32:00,
2013-12-05 09:33:00,75.3,69.1,30.03,South,180,1.1,3.8,81,0.00,,---,0.00,VWS V14.01,2013-12-05 15:33:00,
2013-12-05 09:34:00,75.3,68.3,30.03,SSE,158,2.7,3.6,79,0.00,,---,0.00,VWS V14.01,2013-12-05 15:34:00,
2013-12-05 09:35:00,75.3,68.3,30.03,West,270,1.3,2.7,79,0.00,,---,0.00,VWS V14.01,2013-12-05 15:35:00,
2013-12-05 09:36:00,75.3,68.3,30.03,SSE,158,0.0,4.9,79,0.00,,---,0.00,VWS V14.01,2013-12-05 15:36:00,
2013-12-05 09:37:00,75.3,68.7,30.03,SSE,158,3.4,3.4,80,0.00,,---,0.00,VWS V14.01,2013-12-05 15:37:00,
2013-12-05 09:38:00,75.3,68.7,30.03,SSE,158,1.3,4.3,80,0.00,,---,0.00,VWS V14.01,2013-12-05 15:38:00,
2013-12-05 09:39:00,75.5,68.9,30.03,SSE,158,2.7,2.7,80,0.00,,---,0.00,VWS V14.01,2013-12-05 15:39:00,
2013-12-05 09:40:00,75.5,68.9,30.03,SSE,158,2.2,2.7,80,0.00,,---,0.00,VWS V14.01,2013-12-05 15:40:00,
2013-12-05 09:41:00,75.5,68.9,30.03,SSE,158,3.4,3.8,80,0.00,,---,0.00,VWS V14.01,2013-12-05 15:41:00,
2013-12-05 09:42:00,75.5,68.9,30.03,SSW,202,3.6,3.6,80,0.00,,---,0.00,VWS V14.01,2013-12-05 15:42:00,
2013-12-05 09:43:00,75.7,68.7,30.03,SE,135,1.6,4.9,79,0.00,,---,0.00,VWS V14.01,2013-12-05 15:43:00,
2013-12-05 09:44:00,75.7,68.3,30.03,SSE,158,6.3,6.3,78,0.00,,---,0.00,VWS V14.01,2013-12-05 15:44:00,
2013-12-05 09:45:00,75.7,68.3,30.03,SSE,158,5.4,6.3,78,0.00,,---,0.00,VWS V14.01,2013-12-05 15:45:00,
2013-12-05 09:46:00,75.7,68.3,30.03,ESE,112,1.1,4.7,78,0.00,,---,0.00,VWS V14.01,2013-12-05 15:46:00,
2013-12-05 09:47:00,75.7,68.3,30.03,SSE,158,1.1,1.1,78,0.00,,---,0.00,VWS V14.01,2013-12-05 15:47:00,
2013-12-05 09:48:00,75.5,68.2,30.03,SSE,158,5.8,5.8,78,0.00,,---,0.00,VWS V14.01,2013-12-05 15:48:00,
2013-12-05 09:49:00,75.5,68.2,30.03,SSE,158,4.0,5.8,78,0.00,,---,0.00,VWS V14.01,2013-12-05 15:49:00,
2013-12-05 09:50:00,75.5,68.2,30.03,ESE,112,6.5,6.5,78,0.00,,---,0.00,VWS V14.01,2013-12-05 15:50:00,
2013-12-05 09:51:00,75.3,67.2,30.03,SSW,202,5.6,6.3,76,0.00,,---,0.00,VWS V14.01,2013-12-05 15:51:00,
2013-12-05 09:52:00,75.3,67.6,30.03,WSW,248,1.3,5.6,77,0.00,,---,0.00,VWS V14.01,2013-12-05 15:52:00,
2013-12-05 09:53:00,75.3,67.6,30.03,SSE,158,2.9,2.9,77,0.00,,---,0.00,VWS V14.01,2013-12-05 15:53:00,
2013-12-05 09:54:00,75.3,67.6,30.03,ESE,112,1.3,4.3,77,0.00,,---,0.00,VWS V14.01,2013-12-05 15:54:00,
2013-12-05 09:55:00,75.3,67.6,30.03,ESE,112,1.3,4.3,77,0.00,,---,0.00,VWS V14.01,2013-12-05 15:55:00,
2013-12-05 09:56:00,75.5,67.8,30.00,SSE,158,3.4,6.5,77,0.00,,---,0.00,VWS V14.01,2013-12-05 15:56:00,
2013-12-05 09:57:00,75.5,67.4,30.00,SSE,158,5.4,5.8,76,0.00,,---,0.00,VWS V14.01,2013-12-05 15:57:00,
2013-12-05 09:58:00,76.0,67.9,30.00,SSW,202,4.9,7.4,76,0.00,,---,0.00,VWS V14.01,2013-12-05 15:58:00,
2013-12-05 09:59:00,76.2,68.1,30.00,SW,225,5.4,6.7,76,0.00,,---,0.00,VWS V14.01,2013-12-05 15:59:00,
2013-12-05 10:00:00,76.2,68.1,30.00,SSW,202,2.2,5.4,76,0.00,,---,0.00,VWS V14.01,2013-12-05 16:00:00,
2013-12-05 10:01:00,76.7,68.2,30.00,SE,135,2.7,5.6,75,0.00,,---,0.00,VWS V14.01,2013-12-05 16:01:00,
2013-12-05 10:03:00,76.7,68.2,30.00,SSE,158,4.0,4.0,75,0.00,,---,0.00,VWS V14.01,2013-12-05 16:03:00,
2013-12-05 10:04:00,77.3,68.8,30.00,ESE,112,6.0,6.0,75,0.00,,---,0.00,VWS V14.01,2013-12-05 16:04:00,
2013-12-05 10:05:00,77.3,68.8,30.00,ESE,112,3.1,5.4,75,0.00,,---,0.00,VWS V14.01,2013-12-05 16:05:00,
2013-12-05 10:06:00,77.3,66.7,30.00,ESE,112,6.0,6.0,70,0.00,,---,0.00,VWS V14.01,2013-12-05 16:06:00,
2013-12-05 10:07:00,77.3,66.7,30.00,SE,135,5.6,8.7,70,0.00,,---,0.00,VWS V14.01,2013-12-05 16:07:00,
2013-12-05 10:08:00,77.5,67.3,30.00,SSE,158,4.0,5.6,71,0.00,,---,0.00,VWS V14.01,2013-12-05 16:08:00,
2013-12-05 10:09:00,77.5,66.9,30.00,SSE,158,1.6,4.9,70,0.00,,---,0.00,VWS V14.01,2013-12-05 16:09:00,
2013-12-05 10:10:00,77.5,66.9,30.00,SE,135,2.5,2.9,70,0.00,,---,0.00,VWS V14.01,2013-12-05 16:10:00,
2013-12-05 10:11:00,77.5,66.9,30.00,SSE,158,2.5,7.6,70,0.00,,---,0.00,VWS V14.01,2013-12-05 16:11:00,
2013-12-05 10:12:00,77.6,67.1,30.00,SE,135,4.0,8.5,70,0.00,,---,0.00,VWS V14.01,2013-12-05 16:12:00,
2013-12-05 10:13:00,77.6,67.1,30.00,South,180,4.0,6.5,70,0.00,,---,0.00,VWS V14.01,2013-12-05 16:13:00,
2013-12-05 10:14:00,77.8,67.3,30.00,SSW,202,2.5,4.0,70,0.00,,---,0.00,VWS V14.01,2013-12-05 16:14:00,
2013-12-05 10:15:00,77.8,67.3,30.00,ESE,112,3.8,5.8,70,0.00,,---,0.00,VWS V14.01,2013-12-05 16:15:00,
2013-12-05 10:16:00,77.8,66.8,30.00,SSE,158,4.9,4.9,69,0.00,,---,0.00,VWS V14.01,2013-12-05 16:16:00,
2013-12-05 10:17:00,78.0,67.0,30.00,SE,135,6.0,6.0,69,0.00,,---,0.00,VWS V14.01,2013-12-05 16:17:00,
2013-12-05 10:18:00,78.0,66.6,30.00,SSE,158,3.4,6.0,68,0.00,,---,0.00,VWS V14.01,2013-12-05 16:18:00,
2013-12-05 10:19:00,78.2,67.2,30.00,SSE,158,5.6,5.6,69,0.00,,---,0.00,VWS V14.01,2013-12-05 16:19:00,
2013-12-05 10:20:00,78.4,67.8,30.00,SSE,158,5.4,5.6,70,0.00,,---,0.00,VWS V14.01,2013-12-05 16:20:00,
2013-12-05 10:21:00,78.4,67.4,30.00,SE,135,2.0,6.0,69,0.00,,---,0.00,VWS V14.01,2013-12-05 16:21:00,
2013-12-05 10:22:00,78.5,67.5,30.00,SSW,202,2.7,5.8,69,0.00,,---,0.00,VWS V14.01,2013-12-05 16:22:00,
2013-12-05 10:23:00,78.7,67.7,30.00,SSE,158,2.5,3.8,69,0.00,,---,0.00,VWS V14.01,2013-12-05 16:23:00,
2013-12-05 10:24:00,78.7,67.7,30.00,WSW,248,5.4,5.4,69,0.00,,---,0.00,VWS V14.01,2013-12-05 16:24:00,
2013-12-05 10:25:00,78.5,66.7,30.00,SW,225,2.5,5.4,67,0.00,,---,0.00,VWS V14.01,2013-12-05 16:25:00,
2013-12-05 10:26:00,78.4,66.5,30.00,SSE,158,4.0,4.3,67,0.00,,---,0.00,VWS V14.01,2013-12-05 16:26:00,
2013-12-05 10:27:00,78.2,65.9,30.00,South,180,1.3,5.8,66,0.00,,---,0.00,VWS V14.01,2013-12-05 16:27:00,
2013-12-05 10:28:00,78.2,65.9,30.00,SE,135,3.8,4.9,66,0.00,,---,0.00,VWS V14.01,2013-12-05 16:28:00,
2013-12-05 10:29:00,78.0,66.2,30.00,SSE,158,8.5,8.5,67,0.00,,---,0.00,VWS V14.01,2013-12-05 16:29:00,
2013-12-05 10:30:00,78.0,65.7,30.00,SSW,202,4.3,8.5,66,0.00,,---,0.00,VWS V14.01,2013-12-05 16:30:00,
2013-12-05 10:31:00,77.8,66.0,30.00,WSW,248,3.1,3.1,67,0.00,,---,0.00,VWS V14.01,2013-12-05 16:31:00,
2013-12-05 10:32:00,77.8,66.0,30.00,SSE,158,4.0,5.6,67,0.00,,---,0.00,VWS V14.01,2013-12-05 16:32:00,
2013-12-05 10:33:00,77.6,65.8,30.00,SSE,158,7.4,7.4,67,0.00,,---,0.00,VWS V14.01,2013-12-05 16:33:00,
2013-12-05 10:34:00,77.6,65.8,30.00,SSE,158,5.6,7.4,67,0.00,,---,0.00,VWS V14.01,2013-12-05 16:34:00,
2013-12-05 10:35:00,77.6,66.2,30.00,SSE,158,3.8,5.6,68,0.00,,---,0.00,VWS V14.01,2013-12-05 16:35:00,
2013-12-05 10:36:00,77.6,66.2,30.00,SSE,158,3.1,5.4,68,0.00,,---,0.00,VWS V14.01,2013-12-05 16:36:00,
2013-12-05 10:37:00,77.8,66.4,30.00,SSE,158,3.1,6.0,68,0.00,,---,0.00,VWS V14.01,2013-12-05 16:37:00,
2013-12-05 10:38:00,77.8,66.0,30.00,SSW,202,4.0,6.3,67,0.00,,---,0.00,VWS V14.01,2013-12-05 16:38:00,
2013-12-05 10:39:00,77.8,66.0,30.00,SSW,202,3.1,4.0,67,0.00,,---,0.00,VWS V14.01,2013-12-05 16:39:00,
2013-12-05 10:40:00,77.6,66.2,30.00,SSE,158,6.9,6.9,68,0.00,,---,0.00,VWS V14.01,2013-12-05 16:40:00,
2013-12-05 10:41:00,77.6,65.8,30.00,ENE,68,2.7,6.9,67,0.00,,---,0.00,VWS V14.01,2013-12-05 16:41:00,
2013-12-05 10:42:00,77.6,66.2,30.00,ENE,68,1.3,4.9,68,0.00,,---,0.00,VWS V14.01,2013-12-05 16:42:00,
2013-12-05 10:43:00,77.6,66.2,30.00,SSW,202,1.3,1.6,68,0.00,,---,0.00,VWS V14.01,2013-12-05 16:43:00,
2013-12-05 10:44:00,77.8,66.4,30.00,SSW,202,1.1,2.7,68,0.00,,---,0.00,VWS V14.01,2013-12-05 16:44:00,
2013-12-05 10:45:00,77.8,66.4,30.00,SSE,158,0.9,1.1,68,0.00,,---,0.00,VWS V14.01,2013-12-05 16:45:00,
2013-12-05 10:46:00,77.6,65.4,30.00,WSW,248,5.8,6.3,66,0.00,,---,0.00,VWS V14.01,2013-12-05 16:46:00,
2013-12-05 10:47:00,77.6,65.4,30.00,WSW,248,0.9,5.8,66,0.00,,---,0.00,VWS V14.01,2013-12-05 16:47:00,
2013-12-05 10:48:00,77.6,65.4,30.00,SSE,158,0.9,3.4,66,0.00,,---,0.00,VWS V14.01,2013-12-05 16:48:00,
2013-12-05 10:49:00,77.6,65.8,30.00,SSE,158,3.4,3.4,67,0.00,,---,0.00,VWS V14.01,2013-12-05 16:49:00,
2013-12-05 10:50:00,77.6,65.8,30.00,WSW,248,1.6,4.5,67,0.00,,---,0.00,VWS V14.01,2013-12-05 16:50:00,
2013-12-05 10:51:00,77.6,66.2,30.00,ESE,112,3.6,3.6,68,0.00,,---,0.00,VWS V14.01,2013-12-05 16:51:00,
2013-12-05 10:52:00,77.6,65.8,30.00,SE,135,1.6,6.3,67,0.00,,---,0.00,VWS V14.01,2013-12-05 16:52:00,
2013-12-05 10:53:00,77.6,65.8,30.00,SSE,158,1.1,3.4,67,0.00,,---,0.00,VWS V14.01,2013-12-05 16:53:00,
2013-12-05 10:54:00,77.6,65.8,30.00,SSW,202,5.6,5.6,67,0.00,,---,0.00,VWS V14.01,2013-12-05 16:54:00,
2013-12-05 10:55:00,77.6,65.8,30.00,SSW,202,2.0,5.6,67,0.00,,---,0.00,VWS V14.01,2013-12-05 16:55:00,
2013-12-05 10:56:00,77.6,65.4,30.00,SSE,158,5.8,5.8,66,0.00,,---,0.00,VWS V14.01,2013-12-05 16:56:00,
2013-12-05 10:57:00,77.6,65.4,30.00,SSE,158,1.3,5.8,66,0.00,,---,0.00,VWS V14.01,2013-12-05 16:57:00,
2013-12-05 10:58:00,77.6,65.4,30.00,SSE,158,2.0,2.7,66,0.00,,---,0.00,VWS V14.01,2013-12-05 16:58:00,
2013-12-05 10:59:00,77.6,65.4,30.00,SSW,202,5.4,5.4,66,0.00,,---,0.00,VWS V14.01,2013-12-05 16:59:00,
2013-12-05 11:00:00,77.6,65.4,30.00,SSW,202,7.4,7.4,66,0.00,,---,0.00,VWS V14.01,2013-12-05 17:00:00,
2013-12-05 11:01:00,77.6,65.4,30.00,SSW,202,1.1,7.4,66,0.00,,---,0.00,VWS V14.01,2013-12-05 17:01:00,
2013-12-05 11:02:00,77.6,65.4,30.00,SSW,202,0.0,2.9,66,0.00,,---,0.00,VWS V14.01,2013-12-05 17:02:00,
2013-12-05 11:03:00,77.8,65.6,30.00,SSE,158,1.3,4.0,66,0.00,,---,0.00,VWS V14.01,2013-12-05 17:03:00,
2013-12-05 11:04:00,77.8,65.6,30.00,SSE,158,2.5,2.7,66,0.00,,---,0.00,VWS V14.01,2013-12-05 17:04:00,
2013-12-05 11:05:00,78.2,65.9,30.00,SSE,158,1.3,2.5,66,0.00,,---,0.00,VWS V14.01,2013-12-05 17:05:00,
2013-12-05 11:06:00,78.4,66.5,30.00,SSE,158,3.6,5.8,67,0.00,,---,0.00,VWS V14.01,2013-12-05 17:06:00,
2013-12-05 11:07:00,78.4,66.5,30.00,ESE,112,0.9,3.6,67,0.00,,---,0.00,VWS V14.01,2013-12-05 17:07:00,
2013-12-05 11:08:00,78.5,66.2,30.00,SSE,158,3.1,3.1,66,0.00,,---,0.00,VWS V14.01,2013-12-05 17:08:00,
2013-12-05 11:09:00,78.7,66.4,30.00,South,180,0.9,3.1,66,0.00,,---,0.00,VWS V14.01,2013-12-05 17:09:00,
2013-12-05 11:10:00,78.7,66.4,30.00,SSW,202,2.7,6.3,66,0.00,,---,0.00,VWS V14.01,2013-12-05 17:10:00,
2013-12-05 11:11:00,78.7,66.0,30.00,SSE,158,5.8,6.3,65,0.00,,---,0.00,VWS V14.01,2013-12-05 17:11:00,
2013-12-05 11:12:00,78.7,66.0,30.00,SSE,158,5.6,5.8,65,0.00,,---,0.00,VWS V14.01,2013-12-05 17:12:00,
2013-12-05 11:13:00,78.5,65.8,30.00,SSE,158,6.0,6.0,65,0.00,,---,0.00,VWS V14.01,2013-12-05 17:13:00,
2013-12-05 11:14:00,78.7,66.0,30.00,SSW,202,2.9,6.0,65,0.00,,---,0.00,VWS V14.01,2013-12-05 17:14:00,
2013-12-05 11:15:00,78.9,65.7,30.00,SSE,158,3.6,3.6,64,0.00,,---,0.00,VWS V14.01,2013-12-05 17:15:00,
2013-12-05 11:16:00,78.9,65.7,30.00,SSE,158,2.5,3.6,64,0.00,,---,0.00,VWS V14.01,2013-12-05 17:16:00,
2013-12-05 11:17:00,79.6,66.8,30.00,SSW,202,2.7,4.0,65,0.00,,---,0.00,VWS V14.01,2013-12-05 17:17:00,
2013-12-05 11:18:00,79.8,66.1,30.00,West,270,3.6,6.5,63,0.00,,---,0.00,VWS V14.01,2013-12-05 17:18:00,
2013-12-05 11:19:00,79.8,66.1,30.00,SSW,202,5.4,5.4,63,0.00,,---,0.00,VWS V14.01,2013-12-05 17:19:00,
2013-12-05 11:20:00,80.0,66.3,30.00,ESE,112,2.7,2.7,63,0.00,,---,0.00,VWS V14.01,2013-12-05 17:20:00,
2013-12-05 11:21:00,80.2,66.4,30.00,WSW,248,2.0,6.3,63,0.00,,---,0.00,VWS V14.01,2013-12-05 17:21:00,
2013-12-05 11:22:00,80.3,65.7,30.00,ESE,112,5.6,5.6,61,0.00,,---,0.00,VWS V14.01,2013-12-05 17:22:00,
2013-12-05 11:23:00,80.5,65.8,30.00,SSE,158,10.7,10.7,61,0.00,,---,0.00,VWS V14.01,2013-12-05 17:23:00,
2013-12-05 11:24:00,80.5,65.8,30.00,SSE,158,7.2,10.7,61,0.00,,---,0.00,VWS V14.01,2013-12-05 17:24:00,
2013-12-05 11:25:00,80.7,66.0,30.00,WSW,248,3.8,3.8,61,0.00,,---,0.00,VWS V14.01,2013-12-05 17:25:00,
2013-12-05 11:26:00,80.7,65.5,30.00,SSE,158,5.4,5.6,60,0.00,,---,0.00,VWS V14.01,2013-12-05 17:26:00,
2013-12-05 11:27:00,80.7,65.5,30.00,SSE,158,8.1,8.1,60,0.00,,---,0.00,VWS V14.01,2013-12-05 17:27:00,
2013-12-05 11:28:00,81.1,65.9,30.00,SSW,202,1.3,8.1,60,0.00,,---,0.00,VWS V14.01,2013-12-05 17:28:00,
2013-12-05 11:29:00,81.1,66.3,30.00,SSW,202,1.6,1.6,61,0.00,,---,0.00,VWS V14.01,2013-12-05 17:29:00,
2013-12-05 11:30:00,81.1,66.3,30.00,SSE,158,6.5,6.5,61,0.00,,---,0.00,VWS V14.01,2013-12-05 17:30:00,
2013-12-05 11:31:00,80.9,65.7,30.00,SSW,202,2.2,6.5,60,0.00,,---,0.00,VWS V14.01,2013-12-05 17:31:00,
2013-12-05 11:32:00,80.9,65.7,30.00,South,180,2.5,7.6,60,0.00,,---,0.00,VWS V14.01,2013-12-05 17:32:00,
2013-12-05 11:33:00,80.9,65.7,30.00,SSW,202,0.9,2.5,60,0.00,,---,0.00,VWS V14.01,2013-12-05 17:33:00,
2013-12-05 11:34:00,80.5,65.4,30.00,ESE,112,3.8,4.7,60,0.00,,---,0.00,VWS V14.01,2013-12-05 17:34:00,
2013-12-05 11:35:00,80.3,64.7,30.00,SSE,158,2.7,2.7,59,0.00,,---,0.00,VWS V14.01,2013-12-05 17:35:00,
2013-12-05 11:36:00,80.3,65.2,30.00,South,180,1.3,3.8,60,0.00,,---,0.00,VWS V14.01,2013-12-05 17:36:00,
2013-12-05 11:37:00,80.3,64.7,30.00,SSE,158,4.3,4.3,59,0.00,,---,0.00,VWS V14.01,2013-12-05 17:37:00,
2013-12-05 11:38:00,80.3,64.7,30.00,SW,225,2.7,4.9,59,0.00,,---,0.00,VWS V14.01,2013-12-05 17:38:00,
2013-12-05 11:39:00,80.3,64.7,30.00,SSE,158,2.9,3.6,59,0.00,,---,0.00,VWS V14.01,2013-12-05 17:39:00,
2013-12-05 11:40:00,80.3,65.2,29.97,SSE,158,4.9,5.6,60,0.00,,---,0.00,VWS V14.01,2013-12-05 17:40:00,
2013-12-05 11:41:00,80.3,65.2,29.97,SE,135,3.6,6.3,60,0.00,,---,0.00,VWS V14.01,2013-12-05 17:41:00,
2013-12-05 11:42:00,80.3,64.7,29.97,SSE,158,2.5,4.9,59,0.00,,---,0.00,VWS V14.01,2013-12-05 17:42:00,
2013-12-05 11:43:00,80.5,65.4,29.97,SSW,202,1.3,6.3,60,0.00,,---,0.00,VWS V14.01,2013-12-05 17:43:00,
2013-12-05 11:44:00,80.5,65.4,29.97,SSE,158,2.9,6.3,60,0.00,,---,0.00,VWS V14.01,2013-12-05 17:44:00,
2013-12-05 11:45:00,80.7,65.5,29.97,SSE,158,3.4,3.4,60,0.00,,---,0.00,VWS V14.01,2013-12-05 17:45:00,
2013-12-05 11:46:00,80.7,65.1,29.97,SW,225,2.9,4.9,59,0.00,,---,0.00,VWS V14.01,2013-12-05 17:46:00,
2013-12-05 11:47:00,80.7,65.1,29.97,SW,225,3.1,3.1,59,0.00,,---,0.00,VWS V14.01,2013-12-05 17:47:00,
2013-12-05 11:48:00,80.5,64.9,29.97,SE,135,2.9,3.1,59,0.00,,---,0.00,VWS V14.01,2013-12-05 17:48:00,
2013-12-05 11:49:00,80.5,64.9,29.97,SW,225,5.4,5.6,59,0.00,,---,0.00,VWS V14.01,2013-12-05 17:49:00,
2013-12-05 11:50:00,80.3,64.7,29.97,SSW,202,3.8,5.4,59,0.00,,---,0.00,VWS V14.01,2013-12-05 17:50:00,
2013-12-05 11:51:00,80.3,64.2,29.97,SSE,158,6.3,6.3,58,0.00,,---,0.00,VWS V14.01,2013-12-05 17:51:00,
2013-12-05 11:52:00,80.2,64.1,29.97,WSW,248,4.0,6.3,58,0.00,,---,0.00,VWS V14.01,2013-12-05 17:52:00,
2013-12-05 11:53:00,79.8,64.2,29.97,SSW,202,2.0,4.0,59,0.00,,---,0.00,VWS V14.01,2013-12-05 17:53:00,
2013-12-05 11:54:00,79.8,64.2,29.97,SE,135,3.4,4.5,59,0.00,,---,0.00,VWS V14.01,2013-12-05 17:54:00,
2013-12-05 11:55:00,79.6,64.5,29.97,SSW,202,2.9,2.9,60,0.00,,---,0.00,VWS V14.01,2013-12-05 17:55:00,
2013-12-05 11:56:00,79.6,64.5,29.97,SSE,158,4.3,4.3,60,0.00,,---,0.00,VWS V14.01,2013-12-05 17:56:00,
2013-12-05 11:57:00,79.4,64.4,29.97,SSW,202,2.0,5.8,60,0.00,,---,0.00,VWS V14.01,2013-12-05 17:57:00,
2013-12-05 11:58:00,79.3,64.2,29.97,ESE,112,2.9,3.8,60,0.00,,---,0.00,VWS V14.01,2013-12-05 17:58:00,
2013-12-05 11:59:00,79.3,64.2,29.97,SSW,202,5.4,5.4,60,0.00,,---,0.00,VWS V14.01,2013-12-05 17:59:00,
2013-12-05 12:00:00,78.9,64.3,29.97,SSE,158,2.2,2.2,61,0.00,,---,0.00,VWS V14.01,2013-12-05 18:00:00,
2013-12-05 12:01:00,78.9,64.3,29.97,SSE,158,1.6,2.5,61,0.00,,---,0.00,VWS V14.01,2013-12-05 18:01:00,
2013-12-05 12:02:00,78.9,64.3,29.97,SSE,158,0.9,1.6,61,0.00,,---,0.00,VWS V14.01,2013-12-05 18:02:00,
2013-12-05 12:03:00,78.9,64.8,29.97,SSW,202,2.5,2.5,62,0.00,,---,0.00,VWS V14.01,2013-12-05 18:03:00,
2013-12-05 12:04:00,79.1,65.0,29.97,SSW,202,2.7,2.7,62,0.00,,---,0.00,VWS V14.01,2013-12-05 18:04:00,
2013-12-05 12:05:00,79.4,65.3,29.97,SSW,202,1.1,2.7,62,0.00,,---,0.00,VWS V14.01,2013-12-05 18:05:00,
2013-12-05 12:06:00,79.6,65.5,29.97,WSW,248,2.0,2.0,62,0.00,,---,0.00,VWS V14.01,2013-12-05 18:06:00,
2013-12-05 12:07:00,80.0,65.8,29.97,SE,135,0.9,2.0,62,0.00,,---,0.00,VWS V14.01,2013-12-05 18:07:00,
2013-12-05 12:08:00,80.2,65.5,29.97,South,180,1.1,2.7,61,0.00,,---,0.00,VWS V14.01,2013-12-05 18:08:00,
2013-12-05 12:09:00,80.3,65.7,29.97,WSW,248,4.9,4.9,61,0.00,,---,0.00,VWS V14.01,2013-12-05 18:09:00,
2013-12-05 12:10:00,80.3,65.7,29.97,SSE,158,5.6,5.6,61,0.00,,---,0.00,VWS V14.01,2013-12-05 18:10:00,
2013-12-05 12:11:00,80.5,65.8,29.97,ESE,112,2.0,5.6,61,0.00,,---,0.00,VWS V14.01,2013-12-05 18:11:00,
2013-12-05 12:12:00,80.5,65.4,29.97,SSE,158,5.4,5.4,60,0.00,,---,0.00,VWS V14.01,2013-12-05 18:12:00,
2013-12-05 12:13:00,80.7,65.5,29.97,South,180,4.0,5.4,60,0.00,,---,0.00,VWS V14.01,2013-12-05 18:13:00,
2013-12-05 12:14:00,80.5,64.9,29.97,SE,135,4.9,4.9,59,0.00,,---,0.00,VWS V14.01,2013-12-05 18:14:00,
2013-12-05 12:15:00,80.7,65.1,29.97,SSE,158,2.0,2.0,59,0.00,,---,0.00,VWS V14.01,2013-12-05 18:15:00,
2013-12-05 12:16:00,80.7,65.1,29.97,ENE,68,5.4,5.4,59,0.00,,---,0.00,VWS V14.01,2013-12-05 18:16:00,
2013-12-05 12:17:00,80.7,65.1,29.97,SE,135,3.4,5.4,59,0.00,,---,0.00,VWS V14.01,2013-12-05 18:17:00,
2013-12-05 12:18:00,81.2,65.6,29.97,SSE,158,1.3,3.4,59,0.00,,---,0.00,VWS V14.01,2013-12-05 18:18:00,
2013-12-05 12:19:00,81.6,65.4,29.97,SSE,158,3.6,5.4,58,0.00,,---,0.00,VWS V14.01,2013-12-05 18:19:00,
2013-12-05 12:20:00,81.8,65.6,29.97,SSE,158,1.3,2.2,58,0.00,,---,0.00,VWS V14.01,2013-12-05 18:20:00,
2013-12-05 12:21:00,82.1,66.4,29.97,SSE,158,3.8,3.8,59,0.00,,---,0.00,VWS V14.01,2013-12-05 18:21:00,
2013-12-05 12:22:00,82.5,66.2,29.97,SSE,158,3.8,3.8,58,0.00,,---,0.00,VWS V14.01,2013-12-05 18:22:00,
2013-12-05 12:23:00,82.7,65.9,29.97,SSW,202,2.0,3.8,57,0.00,,---,0.00,VWS V14.01,2013-12-05 18:23:00,
2013-12-05 12:24:00,82.5,64.7,29.97,SSW,202,2.7,6.5,55,0.00,,---,0.00,VWS V14.01,2013-12-05 18:24:00,
2013-12-05 12:25:00,82.5,65.2,29.94,WSW,248,2.7,3.1,56,0.00,,---,0.00,VWS V14.01,2013-12-05 18:25:00,
2013-12-05 12:26:00,82.5,64.7,29.94,SSW,202,2.0,4.3,55,0.00,,---,0.00,VWS V14.01,2013-12-05 18:26:00,
2013-12-05 12:27:00,82.3,65.1,29.94,SSW,202,4.3,4.3,56,0.00,,---,0.00,VWS V14.01,2013-12-05 18:27:00,
2013-12-05 12:28:00,82.1,63.9,29.94,SSW,202,2.0,4.7,54,0.00,,---,0.00,VWS V14.01,2013-12-05 18:28:00,
2013-12-05 12:29:00,82.1,64.4,29.94,WSW,248,4.0,4.0,55,0.00,,---,0.00,VWS V14.01,2013-12-05 18:29:00,
2013-12-05 12:30:00,82.0,64.2,29.94,SSE,158,2.0,4.0,55,0.00,,---,0.00,VWS V14.01,2013-12-05 18:30:00,
2013-12-05 12:31:00,81.6,63.9,29.94,WSW,248,2.5,2.5,55,0.00,,---,0.00,VWS V14.01,2013-12-05 18:31:00,
2013-12-05 12:32:00,81.6,64.4,29.94,WSW,248,2.9,4.0,56,0.00,,---,0.00,VWS V14.01,2013-12-05 18:32:00,
2013-12-05 12:33:00,81.4,64.2,29.94,SSW,202,1.3,4.7,56,0.00,,---,0.00,VWS V14.01,2013-12-05 18:33:00,
2013-12-05 12:34:00,81.4,64.2,29.94,SSW,202,1.3,1.3,56,0.00,,---,0.00,VWS V14.01,2013-12-05 18:34:00,
2013-12-05 12:35:00,81.4,64.7,29.94,WSW,248,2.9,2.9,57,0.00,,---,0.00,VWS V14.01,2013-12-05 18:35:00,
2013-12-05 12:36:00,81.4,64.7,29.94,SSW,202,2.5,2.9,57,0.00,,---,0.00,VWS V14.01,2013-12-05 18:36:00,
2013-12-05 12:37:00,81.4,64.7,29.94,SSE,158,6.3,6.5,57,0.00,,---,0.00,VWS V14.01,2013-12-05 18:37:00,
2013-12-05 12:38:00,81.4,64.7,29.94,SSW,202,2.9,6.3,57,0.00,,---,0.00,VWS V14.01,2013-12-05 18:38:00,
2013-12-05 12:39:00,81.4,64.7,29.94,SSW,202,2.9,2.9,57,0.00,,---,0.00,VWS V14.01,2013-12-05 18:39:00,
2013-12-05 12:40:00,81.2,64.6,29.94,SSE,158,4.7,4.7,57,0.00,,---,0.00,VWS V14.01,2013-12-05 18:40:00,
2013-12-05 12:41:00,81.2,64.6,29.94,SSE,158,4.7,4.7,57,0.00,,---,0.00,VWS V14.01,2013-12-05 18:41:00,
2013-12-05 12:42:00,81.2,64.6,29.94,SSE,158,2.7,3.1,57,0.00,,---,0.00,VWS V14.01,2013-12-05 18:42:00,
2013-12-05 12:43:00,81.1,64.4,29.94,SSW,202,2.0,5.4,57,0.00,,---,0.00,VWS V14.01,2013-12-05 18:43:00,
2013-12-05 12:44:00,81.1,63.9,29.94,South,180,3.1,3.1,56,0.00,,---,0.00,VWS V14.01,2013-12-05 18:44:00,
2013-12-05 12:45:00,81.1,64.4,29.94,SE,135,5.6,5.6,57,0.00,,---,0.00,VWS V14.01,2013-12-05 18:45:00,
2013-12-05 12:46:00,81.1,64.4,29.94,SSE,158,3.6,5.6,57,0.00,,---,0.00,VWS V14.01,2013-12-05 18:46:00,
2013-12-05 12:47:00,81.2,64.1,29.94,SSW,202,2.7,5.6,56,0.00,,---,0.00,VWS V14.01,2013-12-05 18:47:00,
2013-12-05 12:48:00,81.2,64.6,29.94,ENE,68,4.0,4.0,57,0.00,,---,0.00,VWS V14.01,2013-12-05 18:48:00,
2013-12-05 12:49:00,81.2,64.6,29.94,SSW,202,2.9,4.0,57,0.00,,---,0.00,VWS V14.01,2013-12-05 18:49:00,
2013-12-05 12:50:00,81.4,64.7,29.94,SSW,202,2.5,3.4,57,0.00,,---,0.00,VWS V14.01,2013-12-05 18:50:00,
2013-12-05 12:51:00,81.2,64.6,29.94,WSW,248,2.0,2.5,57,0.00,,---,0.00,VWS V14.01,2013-12-05 18:51:00,
2013-12-05 12:52:00,81.4,64.7,29.94,WSW,248,2.5,2.5,57,0.00,,---,0.00,VWS V14.01,2013-12-05 18:52:00,
2013-12-05 12:53:00,81.6,64.9,29.94,WSW,248,2.0,4.0,57,0.00,,---,0.00,VWS V14.01,2013-12-05 18:53:00,
2013-12-05 12:54:00,81.6,64.9,29.94,SW,225,3.1,5.4,57,0.00,,---,0.00,VWS V14.01,2013-12-05 18:54:00,
2013-12-05 12:55:00,81.6,64.9,29.94,WSW,248,2.0,3.1,57,0.00,,---,0.00,VWS V14.01,2013-12-05 18:55:00,
2013-12-05 12:56:00,81.6,64.9,29.94,SSE,158,2.7,2.7,57,0.00,,---,0.00,VWS V14.01,2013-12-05 18:56:00,
2013-12-05 12:57:00,81.6,64.9,29.94,SSE,158,2.9,4.3,57,0.00,,---,0.00,VWS V14.01,2013-12-05 18:57:00,
2013-12-05 12:58:00,81.6,64.4,29.94,SSW,202,2.5,5.8,56,0.00,,---,0.00,VWS V14.01,2013-12-05 18:58:00,
2013-12-05 12:59:00,81.4,64.2,29.94,WSW,248,1.1,2.5,56,0.00,,---,0.00,VWS V14.01,2013-12-05 18:59:00,
2013-12-05 13:00:00,81.2,64.1,29.94,SSE,158,1.1,4.9,56,0.00,,---,0.00,VWS V14.01,2013-12-05 19:00:00,
2013-12-05 13:01:00,81.2,64.1,29.94,SSW,202,1.3,2.5,56,0.00,,---,0.00,VWS V14.01,2013-12-05 19:01:00,
2013-12-05 13:02:00,81.2,64.1,29.94,WSW,248,3.4,6.0,56,0.00,,---,0.00,VWS V14.01,2013-12-05 19:02:00,
2013-12-05 13:03:00,81.2,64.1,29.94,SSW,202,4.0,4.0,56,0.00,,---,0.00,VWS V14.01,2013-12-05 19:03:00,
2013-12-05 13:04:00,81.2,63.5,29.94,WSW,248,4.0,4.0,55,0.00,,---,0.00,VWS V14.01,2013-12-05 19:04:00,
2013-12-05 13:05:00,81.1,63.4,29.94,SSW,202,0.9,4.3,55,0.00,,---,0.00,VWS V14.01,2013-12-05 19:05:00,
2013-12-05 13:06:00,81.2,64.1,29.94,SSW,202,0.0,0.9,56,0.00,,---,0.00,VWS V14.01,2013-12-05 19:06:00,
2013-12-05 13:07:00,81.2,64.6,29.94,SSW,202,1.6,2.0,57,0.00,,---,0.00,VWS V14.01,2013-12-05 19:07:00,
2013-12-05 13:08:00,81.6,64.4,29.94,ENE,68,3.4,3.4,56,0.00,,---,0.00,VWS V14.01,2013-12-05 19:08:00,
2013-12-05 13:09:00,81.6,64.4,29.94,South,180,8.1,8.1,56,0.00,,---,0.00,VWS V14.01,2013-12-05 19:09:00,
2013-12-05 13:10:00,81.6,64.4,29.94,SSE,158,4.9,8.1,56,0.00,,---,0.00,VWS V14.01,2013-12-05 19:10:00,
2013-12-05 13:11:00,81.6,64.4,29.94,SSE,158,5.4,5.4,56,0.00,,---,0.00,VWS V14.01,2013-12-05 19:11:00,
2013-12-05 13:12:00,81.8,64.1,29.94,SE,135,2.9,6.5,55,0.00,,---,0.00,VWS V14.01,2013-12-05 19:12:00,
2013-12-05 13:13:00,81.8,64.1,29.94,SE,135,2.9,2.9,55,0.00,,---,0.00,VWS V14.01,2013-12-05 19:13:00,
2013-12-05 13:14:00,81.8,64.6,29.94,South,180,2.5,2.9,56,0.00,,---,0.00,VWS V14.01,2013-12-05 19:14:00,
2013-12-05 13:15:00,81.8,64.6,29.94,SSE,158,3.4,6.0,56,0.00,,---,0.00,VWS V14.01,2013-12-05 19:15:00,
2013-12-05 13:16:00,81.8,64.6,29.94,East,90,6.3,6.3,56,0.00,,---,0.00,VWS V14.01,2013-12-05 19:16:00,
2013-12-05 13:17:00,81.6,63.9,29.94,SE,135,6.5,8.1,55,0.00,,---,0.00,VWS V14.01,2013-12-05 19:17:00,
2013-12-05 13:18:00,81.6,63.4,29.94,South,180,2.9,8.5,54,0.00,,---,0.00,VWS V14.01,2013-12-05 19:18:00,
2013-12-05 13:19:00,81.6,63.9,29.94,South,180,3.4,3.4,55,0.00,,---,0.00,VWS V14.01,2013-12-05 19:19:00,
2013-12-05 13:20:00,81.6,63.9,29.94,SSW,202,2.5,3.4,55,0.00,,---,0.00,VWS V14.01,2013-12-05 19:20:00,
2013-12-05 13:21:00,81.6,63.9,29.94,ESE,112,1.6,2.9,55,0.00,,---,0.00,VWS V14.01,2013-12-05 19:21:00,
2013-12-05 13:22:00,81.8,64.6,29.94,WSW,248,4.9,4.9,56,0.00,,---,0.00,VWS V14.01,2013-12-05 19:22:00,
2013-12-05 13:23:00,81.8,64.1,29.94,SSE,158,4.0,4.9,55,0.00,,---,0.00,VWS V14.01,2013-12-05 19:23:00,
2013-12-05 13:24:00,82.0,64.7,29.94,SE,135,7.2,7.2,56,0.00,,---,0.00,VWS V14.01,2013-12-05 19:24:00,
2013-12-05 13:25:00,82.0,64.2,29.94,WSW,248,2.5,7.2,55,0.00,,---,0.00,VWS V14.01,2013-12-05 19:25:00,
2013-12-05 13:26:00,82.0,64.2,29.94,WSW,248,3.1,3.1,55,0.00,,---,0.00,VWS V14.01,2013-12-05 19:26:00,
2013-12-05 13:27:00,82.0,64.2,29.94,SSW,202,3.4,3.6,55,0.00,,---,0.00,VWS V14.01,2013-12-05 19:27:00,
2013-12-05 13:28:00,82.0,64.2,29.94,West,270,2.0,3.4,55,0.00,,---,0.00,VWS V14.01,2013-12-05 19:28:00,
2013-12-05 13:29:00,81.8,64.1,29.94,SSW,202,1.6,4.3,55,0.00,,---,0.00,VWS V14.01,2013-12-05 19:29:00,
2013-12-05 13:30:00,81.8,64.1,29.94,ESE,112,2.9,2.9,55,0.00,,---,0.00,VWS V14.01,2013-12-05 19:30:00,
2013-12-05 13:31:00,81.8,64.1,29.94,ESE,112,2.5,2.9,55,0.00,,---,0.00,VWS V14.01,2013-12-05 19:31:00,
2013-12-05 13:32:00,82.1,63.9,29.94,SSE,158,2.5,3.4,54,0.00,,---,0.00,VWS V14.01,2013-12-05 19:32:00,
2013-12-05 13:33:00,82.3,64.6,29.94,SSE,158,2.9,3.4,55,0.00,,---,0.00,VWS V14.01,2013-12-05 19:33:00,
2013-12-05 13:34:00,82.3,64.6,29.94,SW,225,1.3,2.9,55,0.00,,---,0.00,VWS V14.01,2013-12-05 19:34:00,
2013-12-05 13:35:00,83.4,65.0,29.94,SW,225,1.3,1.3,54,0.00,,---,0.00,VWS V14.01,2013-12-05 19:35:00,
2013-12-05 13:36:00,83.4,65.0,29.94,ESE,112,2.7,2.7,54,0.00,,---,0.00,VWS V14.01,2013-12-05 19:36:00,
2013-12-05 13:37:00,83.4,64.5,29.94,SSE,158,8.1,8.1,53,0.00,,---,0.00,VWS V14.01,2013-12-05 19:37:00,
2013-12-05 13:38:00,83.2,63.8,29.94,SSE,158,3.8,8.1,52,0.00,,---,0.00,VWS V14.01,2013-12-05 19:38:00,
2013-12-05 13:40:00,83.4,63.4,29.94,SSE,158,2.0,8.7,51,0.00,,---,0.00,VWS V14.01,2013-12-05 19:40:00,
2013-12-05 13:41:00,83.4,63.4,29.94,SSE,158,1.1,2.0,51,0.00,,---,0.00,VWS V14.01,2013-12-05 19:41:00,
2013-12-05 13:42:00,82.9,62.9,29.94,SSE,158,2.7,8.1,51,0.00,,---,0.00,VWS V14.01,2013-12-05 19:42:00,
2013-12-05 13:43:00,83.0,63.6,29.94,South,180,0.9,2.7,52,0.00,,---,0.00,VWS V14.01,2013-12-05 19:43:00,
2013-12-05 13:44:00,82.9,62.9,29.94,SSW,202,2.2,3.4,51,0.00,,---,0.00,VWS V14.01,2013-12-05 19:44:00,
2013-12-05 13:45:00,82.9,63.5,29.94,SSW,202,0.0,3.1,52,0.00,,---,0.00,VWS V14.01,2013-12-05 19:45:00,
2013-12-05 13:46:00,82.9,63.5,29.94,SSW,202,2.2,2.2,52,0.00,,---,0.00,VWS V14.01,2013-12-05 19:46:00,
2013-12-05 13:47:00,82.9,63.5,29.94,SE,135,2.7,3.4,52,0.00,,---,0.00,VWS V14.01,2013-12-05 19:47:00,
2013-12-05 13:48:00,83.0,63.6,29.94,SSE,158,6.0,6.0,52,0.00,,---,0.00,VWS V14.01,2013-12-05 19:48:00,
2013-12-05 13:49:00,83.0,63.1,29.94,SSE,158,7.2,7.2,51,0.00,,---,0.00,VWS V14.01,2013-12-05 19:49:00,
2013-12-05 13:50:00,83.2,63.2,29.94,ESE,112,6.3,7.2,51,0.00,,---,0.00,VWS V14.01,2013-12-05 19:50:00,
2013-12-05 13:51:00,83.2,63.2,29.94,SSE,158,5.6,7.2,51,0.00,,---,0.00,VWS V14.01,2013-12-05 19:51:00,
2013-12-05 13:52:00,83.2,62.7,29.94,SW,225,4.3,4.3,50,0.00,,---,0.00,VWS V14.01,2013-12-05 19:52:00,
2013-12-05 13:53:00,82.9,62.9,29.94,SSE,158,2.7,4.3,51,0.00,,---,0.00,VWS V14.01,2013-12-05 19:53:00,
2013-12-05 13:54:00,82.9,62.9,29.94,SW,225,2.5,3.6,51,0.00,,---,0.00,VWS V14.01,2013-12-05 19:54:00,
2013-12-05 13:55:00,82.7,62.2,29.94,WSW,248,6.0,6.3,50,0.00,,---,0.00,VWS V14.01,2013-12-05 19:55:00,
2013-12-05 13:56:00,82.7,62.2,29.94,SSW,202,2.5,6.0,50,0.00,,---,0.00,VWS V14.01,2013-12-05 19:56:00,
2013-12-05 13:57:00,82.9,62.9,29.91,SSW,202,3.6,3.6,51,0.00,,---,0.00,VWS V14.01,2013-12-05 19:57:00,
2013-12-05 13:58:00,83.0,62.5,29.91,ESE,112,5.6,5.6,50,0.00,,---,0.00,VWS V14.01,2013-12-05 19:58:00,
2013-12-05 13:59:00,83.2,62.7,29.91,SSW,202,2.7,5.6,50,0.00,,---,0.00,VWS V14.01,2013-12-05 19:59:00,
2013-12-05 14:00:00,83.4,62.8,29.91,SSE,158,3.6,3.8,50,0.00,,---,0.00,VWS V14.01,2013-12-05 20:00:00,
2013-12-05 14:01:00,83.6,63.0,29.91,WSW,248,2.7,3.6,50,0.00,,---,0.00,VWS V14.01,2013-12-05 20:01:00,
2013-12-05 14:02:00,83.8,63.2,29.91,ESE,112,0.9,3.6,50,0.00,,---,0.00,VWS V14.01,2013-12-05 20:02:00,
2013-12-05 14:03:00,83.9,63.3,29.91,WSW,248,1.6,4.3,50,0.00,,---,0.00,VWS V14.01,2013-12-05 20:03:00,
2013-12-05 14:04:00,83.9,63.3,29.91,SSE,158,3.4,3.4,50,0.00,,---,0.00,VWS V14.01,2013-12-05 20:04:00,
2013-12-05 14:05:00,84.1,62.9,29.91,SSW,202,2.5,3.4,49,0.00,,---,0.00,VWS V14.01,2013-12-05 20:05:00,
2013-12-05 14:06:00,83.9,62.2,29.91,SSW,202,2.0,4.7,48,0.00,,---,0.00,VWS V14.01,2013-12-05 20:06:00,
2013-12-05 14:07:00,83.9,62.2,29.91,SSW,202,2.5,3.4,48,0.00,,---,0.00,VWS V14.01,2013-12-05 20:07:00,
2013-12-05 14:08:00,83.8,62.0,29.91,SSW,202,3.8,3.8,48,0.00,,---,0.00,VWS V14.01,2013-12-05 20:08:00,
2013-12-05 14:09:00,83.6,61.8,29.91,WSW,248,2.9,3.8,48,0.00,,---,0.00,VWS V14.01,2013-12-05 20:09:00,
2013-12-05 14:10:00,83.2,61.5,29.94,SSW,202,5.6,5.6,48,0.00,,---,0.00,VWS V14.01,2013-12-05 20:10:00,
2013-12-05 14:11:00,83.2,61.5,29.94,SSW,202,5.6,5.6,48,0.00,,---,0.00,VWS V14.01,2013-12-05 20:11:00,
2013-12-05 14:12:00,82.9,61.8,29.94,West,270,5.4,5.4,49,0.00,,---,0.00,VWS V14.01,2013-12-05 20:12:00,
2013-12-05 14:13:00,82.7,61.6,29.94,SSW,202,2.2,5.6,49,0.00,,---,0.00,VWS V14.01,2013-12-05 20:13:00,
2013-12-05 14:14:00,82.5,62.0,29.94,West,270,2.9,5.4,50,0.00,,---,0.00,VWS V14.01,2013-12-05 20:14:00,
2013-12-05 14:15:00,82.3,61.3,29.94,SSW,202,5.8,6.0,49,0.00,,---,0.00,VWS V14.01,2013-12-05 20:15:00,
2013-12-05 14:16:00,82.3,61.8,29.94,SSE,158,2.9,5.8,50,0.00,,---,0.00,VWS V14.01,2013-12-05 20:16:00,
2013-12-05 14:17:00,82.0,61.5,29.94,SE,135,2.5,6.3,50,0.00,,---,0.00,VWS V14.01,2013-12-05 20:17:00,
2013-12-05 14:18:00,82.0,61.5,29.94,SSW,202,2.2,4.3,50,0.00,,---,0.00,VWS V14.01,2013-12-05 20:18:00,
2013-12-05 14:19:00,81.8,61.3,29.94,SSE,158,1.3,2.2,50,0.00,,---,0.00,VWS V14.01,2013-12-05 20:19:00,
2013-12-05 14:20:00,81.8,61.3,29.94,SSW,202,1.3,3.1,50,0.00,,---,0.00,VWS V14.01,2013-12-05 20:20:00,
2013-12-05 14:21:00,81.8,61.3,29.94,WSW,248,6.7,6.7,50,0.00,,---,0.00,VWS V14.01,2013-12-05 20:21:00,
2013-12-05 14:22:00,81.8,61.3,29.94,SSE,158,6.0,6.0,50,0.00,,---,0.00,VWS V14.01,2013-12-05 20:22:00,
2013-12-05 14:23:00,81.4,61.6,29.94,SSE,158,2.9,6.0,51,0.00,,---,0.00,VWS V14.01,2013-12-05 20:23:00,
2013-12-05 14:24:00,81.2,61.4,29.94,SSW,202,2.2,2.9,51,0.00,,---,0.00,VWS V14.01,2013-12-05 20:24:00,
2013-12-05 14:25:00,81.2,62.0,29.94,SSE,158,2.0,3.8,52,0.00,,---,0.00,VWS V14.01,2013-12-05 20:25:00,
2013-12-05 14:26:00,81.2,62.0,29.94,SSE,158,2.2,2.5,52,0.00,,---,0.00,VWS V14.01,2013-12-05 20:26:00,
2013-12-05 14:27:00,81.2,62.0,29.94,SSE,158,2.9,4.3,52,0.00,,---,0.00,VWS V14.01,2013-12-05 20:27:00,
2013-12-05 14:28:00,81.8,62.5,29.94,WSW,248,4.7,4.7,52,0.00,,---,0.00,VWS V14.01,2013-12-05 20:28:00,
2013-12-05 14:29:00,82.0,62.1,29.94,WSW,248,6.5,6.5,51,0.00,,---,0.00,VWS V14.01,2013-12-05 20:29:00,
2013-12-05 14:30:00,82.0,62.1,29.94,SSW,202,1.6,6.5,51,0.00,,---,0.00,VWS V14.01,2013-12-05 20:30:00,
2013-12-05 14:31:00,82.1,62.2,29.94,SSE,158,7.4,7.4,51,0.00,,---,0.00,VWS V14.01,2013-12-05 20:31:00,
2013-12-05 14:32:00,82.3,61.8,29.94,SSE,158,7.6,8.5,50,0.00,,---,0.00,VWS V14.01,2013-12-05 20:32:00,
2013-12-05 14:33:00,82.3,61.8,29.94,WSW,248,2.0,7.6,50,0.00,,---,0.00,VWS V14.01,2013-12-05 20:33:00,
2013-12-05 14:34:00,82.5,62.0,29.94,SSW,202,3.4,6.0,50,0.00,,---,0.00,VWS V14.01,2013-12-05 20:34:00,
2013-12-05 14:35:00,82.5,62.6,29.94,SSW,202,2.9,3.6,51,0.00,,---,0.00,VWS V14.01,2013-12-05 20:35:00,
2013-12-05 14:36:00,82.7,62.2,29.94,WSW,248,5.6,5.6,50,0.00,,---,0.00,VWS V14.01,2013-12-05 20:36:00,
2013-12-05 14:37:00,82.7,62.2,29.94,SSE,158,6.0,6.0,50,0.00,,---,0.00,VWS V14.01,2013-12-05 20:37:00,
2013-12-05 14:38:00,82.5,62.6,29.94,South,180,5.6,6.0,51,0.00,,---,0.00,VWS V14.01,2013-12-05 20:38:00,
2013-12-05 14:39:00,82.3,61.8,29.94,SSW,202,4.0,5.6,50,0.00,,---,0.00,VWS V14.01,2013-12-05 20:39:00,
2013-12-05 14:40:00,82.3,62.4,29.91,WSW,248,1.6,4.0,51,0.00,,---,0.00,VWS V14.01,2013-12-05 20:40:00,
2013-12-05 14:41:00,82.1,62.2,29.91,SSW,202,2.5,2.5,51,0.00,,---,0.00,VWS V14.01,2013-12-05 20:41:00,
2013-12-05 14:42:00,82.1,62.2,29.91,SSW,202,2.0,2.5,51,0.00,,---,0.00,VWS V14.01,2013-12-05 20:42:00,
2013-12-05 14:43:00,82.0,62.1,29.91,SSE,158,1.3,2.0,51,0.00,,---,0.00,VWS V14.01,2013-12-05 20:43:00,
2013-12-05 14:44:00,82.0,62.1,29.91,WSW,248,2.5,4.3,51,0.00,,---,0.00,VWS V14.01,2013-12-05 20:44:00,
2013-12-05 14:45:00,81.8,61.9,29.91,SSW,202,2.7,3.8,51,0.00,,---,0.00,VWS V14.01,2013-12-05 20:45:00,
2013-12-05 14:46:00,81.6,61.7,29.91,NW,315,4.3,4.3,51,0.00,,---,0.00,VWS V14.01,2013-12-05 20:46:00,
2013-12-05 14:47:00,81.4,62.1,29.91,ESE,112,3.1,4.3,52,0.00,,---,0.00,VWS V14.01,2013-12-05 20:47:00,
2013-12-05 14:48:00,81.4,62.1,29.91,SSW,202,0.0,3.4,52,0.00,,---,0.00,VWS V14.01,2013-12-05 20:48:00,
2013-12-05 14:49:00,81.6,62.3,29.91,WSW,248,3.1,4.0,52,0.00,,---,0.00,VWS V14.01,2013-12-05 20:49:00,
2013-12-05 14:50:00,81.6,62.3,29.91,WSW,248,2.9,3.6,52,0.00,,---,0.00,VWS V14.01,2013-12-05 20:50:00,
2013-12-05 14:51:00,81.6,62.3,29.91,SSW,202,4.3,4.3,52,0.00,,---,0.00,VWS V14.01,2013-12-05 20:51:00,
2013-12-05 14:52:00,81.6,62.3,29.91,SSE,158,3.6,4.3,52,0.00,,---,0.00,VWS V14.01,2013-12-05 20:52:00,
2013-12-05 14:53:00,81.8,62.5,29.91,ESE,112,1.6,4.3,52,0.00,,---,0.00,VWS V14.01,2013-12-05 20:53:00,
2013-12-05 14:54:00,81.8,62.5,29.91,SSE,158,0.9,1.6,52,0.00,,---,0.00,VWS V14.01,2013-12-05 20:54:00,
2013-12-05 14:55:00,81.8,62.5,29.91,SSW,202,1.3,3.1,52,0.00,,---,0.00,VWS V14.01,2013-12-05 20:55:00,
2013-12-05 14:56:00,81.8,62.5,29.91,SSW,202,2.7,2.7,52,0.00,,---,0.00,VWS V14.01,2013-12-05 20:56:00,
2013-12-05 14:57:00,81.8,62.5,29.91,WSW,248,1.1,2.7,52,0.00,,---,0.00,VWS V14.01,2013-12-05 20:57:00,
2013-12-05 14:58:00,81.8,62.5,29.91,SSE,158,4.0,4.3,52,0.00,,---,0.00,VWS V14.01,2013-12-05 20:58:00,
2013-12-05 14:59:00,81.6,62.3,29.91,SSE,158,4.9,6.5,52,0.00,,---,0.00,VWS V14.01,2013-12-05 20:59:00,
2013-12-05 15:00:00,81.6,62.3,29.91,SE,135,2.9,4.9,52,0.00,,---,0.00,VWS V14.01,2013-12-05 21:00:00,
2013-12-05 15:01:00,81.6,62.3,29.91,SSW,202,3.8,3.8,52,0.00,,---,0.00,VWS V14.01,2013-12-05 21:01:00,
2013-12-05 15:02:00,81.6,62.3,29.91,SSE,158,4.0,6.3,52,0.00,,---,0.00,VWS V14.01,2013-12-05 21:02:00,
2013-12-05 15:03:00,81.2,62.0,29.91,SSW,202,0.0,4.0,52,0.00,,---,0.00,VWS V14.01,2013-12-05 21:03:00,
2013-12-05 15:04:00,81.2,62.5,29.91,SSW,202,0.0,1.1,53,0.00,,---,0.00,VWS V14.01,2013-12-05 21:04:00,
2013-12-05 15:05:00,81.2,62.5,29.91,SSE,158,1.1,1.1,53,0.00,,---,0.00,VWS V14.01,2013-12-05 21:05:00,
2013-12-05 15:06:00,81.2,62.5,29.91,SW,225,8.5,8.5,53,0.00,,---,0.00,VWS V14.01,2013-12-05 21:06:00,
2013-12-05 15:07:00,81.2,62.5,29.91,SSE,158,2.7,8.5,53,0.00,,---,0.00,VWS V14.01,2013-12-05 21:07:00,
2013-12-05 15:08:00,81.2,62.5,29.91,SSE,158,2.9,4.0,53,0.00,,---,0.00,VWS V14.01,2013-12-05 21:08:00,
2013-12-05 15:09:00,81.2,62.5,29.91,SSE,158,2.9,4.9,53,0.00,,---,0.00,VWS V14.01,2013-12-05 21:09:00,
2013-12-05 15:10:00,81.1,62.3,29.94,SSW,202,0.0,5.6,53,0.00,,---,0.00,VWS V14.01,2013-12-05 21:10:00,
2013-12-05 15:11:00,81.1,62.3,29.94,WSW,248,2.7,4.0,53,0.00,,---,0.00,VWS V14.01,2013-12-05 21:11:00,
2013-12-05 15:12:00,81.1,62.3,29.94,SSE,158,2.5,4.0,53,0.00,,---,0.00,VWS V14.01,2013-12-05 21:12:00,
2013-12-05 15:14:00,81.1,62.3,29.94,SW,225,1.1,2.5,53,0.00,,---,0.00,VWS V14.01,2013-12-05 21:14:00,
2013-12-05 15:15:00,80.9,62.2,29.94,SSW,202,3.6,4.3,53,0.00,,---,0.00,VWS V14.01,2013-12-05 21:15:00,
2013-12-05 15:16:00,80.9,61.6,29.94,SSE,158,5.6,5.6,52,0.00,,---,0.00,VWS V14.01,2013-12-05 21:16:00,
2013-12-05 15:18:00,80.9,61.6,29.94,SSE,158,3.4,5.6,52,0.00,,---,0.00,VWS V14.01,2013-12-05 21:18:00,
2013-12-05 15:19:00,80.7,62.0,29.94,SE,135,4.9,5.6,53,0.00,,---,0.00,VWS V14.01,2013-12-05 21:19:00,
2013-12-05 15:20:00,80.7,62.0,29.94,SSW,202,3.1,4.9,53,0.00,,---,0.00,VWS V14.01,2013-12-05 21:20:00,
2013-12-05 15:21:00,80.7,62.0,29.94,SSW,202,2.2,2.9,53,0.00,,---,0.00,VWS V14.01,2013-12-05 21:21:00,
2013-12-05 15:22:00,80.7,62.0,29.94,SW,225,1.6,2.9,53,0.00,,---,0.00,VWS V14.01,2013-12-05 21:22:00,
2013-12-05 15:23:00,80.7,62.0,29.94,SSW,202,1.3,1.6,53,0.00,,---,0.00,VWS V14.01,2013-12-05 21:23:00,
2013-12-05 15:24:00,80.7,62.0,29.94,West,270,3.6,3.6,53,0.00,,---,0.00,VWS V14.01,2013-12-05 21:24:00,
2013-12-05 15:25:00,80.7,62.5,29.91,SSW,202,0.0,3.6,54,0.00,,---,0.00,VWS V14.01,2013-12-05 21:25:00,
2013-12-05 15:26:00,80.7,62.5,29.91,ESE,112,2.9,3.1,54,0.00,,---,0.00,VWS V14.01,2013-12-05 21:26:00,
2013-12-05 15:27:00,80.7,62.5,29.91,SSE,158,5.4,5.4,54,0.00,,---,0.00,VWS V14.01,2013-12-05 21:27:00,
2013-12-05 15:28:00,80.5,62.4,29.91,SSE,158,0.9,3.1,54,0.00,,---,0.00,VWS V14.01,2013-12-05 21:28:00,
2013-12-05 15:29:00,80.5,62.4,29.91,SSE,158,1.1,2.5,54,0.00,,---,0.00,VWS V14.01,2013-12-05 21:29:00,
2013-12-05 15:30:00,80.3,62.2,29.91,SSW,202,2.5,2.7,54,0.00,,---,0.00,VWS V14.01,2013-12-05 21:30:00,
2013-12-05 15:31:00,80.3,62.2,29.91,SW,225,2.5,2.7,54,0.00,,---,0.00,VWS V14.01,2013-12-05 21:31:00,
2013-12-05 15:32:00,80.2,62.0,29.91,SSW,202,2.2,2.5,54,0.00,,---,0.00,VWS V14.01,2013-12-05 21:32:00,
2013-12-05 15:33:00,80.2,61.5,29.91,SSW,202,3.4,3.4,53,0.00,,---,0.00,VWS V14.01,2013-12-05 21:33:00,
2013-12-05 15:34:00,80.0,61.3,29.91,SSE,158,2.7,4.9,53,0.00,,---,0.00,VWS V14.01,2013-12-05 21:34:00,
2013-12-05 15:35:00,80.0,61.3,29.91,WSW,248,1.6,6.7,53,0.00,,---,0.00,VWS V14.01,2013-12-05 21:35:00,
2013-12-05 15:36:00,80.0,61.9,29.91,SSW,202,5.6,5.6,54,0.00,,---,0.00,VWS V14.01,2013-12-05 21:36:00,
2013-12-05 15:37:00,80.0,61.9,29.91,SSW,202,2.7,5.6,54,0.00,,---,0.00,VWS V14.01,2013-12-05 21:37:00,
2013-12-05 15:38:00,79.8,61.7,29.91,SSW,202,1.6,3.1,54,0.00,,---,0.00,VWS V14.01,2013-12-05 21:38:00,
2013-12-05 15:39:00,79.8,61.7,29.91,SSE,158,4.0,4.0,54,0.00,,---,0.00,VWS V14.01,2013-12-05 21:39:00,
2013-12-05 15:40:00,79.8,61.7,29.94,SSW,202,1.1,4.0,54,0.00,,---,0.00,VWS V14.01,2013-12-05 21:40:00,
2013-12-05 15:41:00,79.6,62.0,29.94,SSE,158,2.0,2.9,55,0.00,,---,0.00,VWS V14.01,2013-12-05 21:41:00,
2013-12-05 15:42:00,79.6,62.0,29.94,SSW,202,3.4,3.8,55,0.00,,---,0.00,VWS V14.01,2013-12-05 21:42:00,
2013-12-05 15:44:00,79.6,62.0,29.94,WSW,248,1.3,3.4,55,0.00,,---,0.00,VWS V14.01,2013-12-05 21:44:00,
2013-12-05 15:45:00,79.4,61.9,29.94,SSE,158,2.0,2.5,55,0.00,,---,0.00,VWS V14.01,2013-12-05 21:45:00,
2013-12-05 15:46:00,79.4,61.9,29.94,SSW,202,0.9,2.7,55,0.00,,---,0.00,VWS V14.01,2013-12-05 21:46:00,
2013-12-05 15:47:00,79.4,62.4,29.94,SW,225,2.2,2.2,56,0.00,,---,0.00,VWS V14.01,2013-12-05 21:47:00,
2013-12-05 15:48:00,79.4,62.4,29.94,SSW,202,1.1,2.2,56,0.00,,---,0.00,VWS V14.01,2013-12-05 21:48:00,
2013-12-05 15:49:00,79.4,62.4,29.94,SSE,158,2.5,2.5,56,0.00,,---,0.00,VWS V14.01,2013-12-05 21:49:00,
2013-12-05 15:50:00,79.3,62.2,29.94,WSW,248,2.9,2.9,56,0.00,,---,0.00,VWS V14.01,2013-12-05 21:50:00,
2013-12-05 15:51:00,79.3,62.2,29.94,WSW,248,3.4,3.4,56,0.00,,---,0.00,VWS V14.01,2013-12-05 21:51:00,
2013-12-05 15:52:00,79.3,62.2,29.94,SW,225,2.0,3.4,56,0.00,,---,0.00,VWS V14.01,2013-12-05 21:52:00,
2013-12-05 15:53:00,79.3,62.2,29.94,South,180,1.1,2.0,56,0.00,,---,0.00,VWS V14.01,2013-12-05 21:53:00,
2013-12-05 15:54:00,79.3,62.7,29.94,SSW,202,1.1,2.0,57,0.00,,---,0.00,VWS V14.01,2013-12-05 21:54:00,
2013-12-05 15:55:00,79.1,62.6,29.91,SSW,202,1.1,2.2,57,0.00,,---,0.00,VWS V14.01,2013-12-05 21:55:00,
2013-12-05 15:56:00,79.1,62.6,29.91,WSW,248,2.0,2.5,57,0.00,,---,0.00,VWS V14.01,2013-12-05 21:56:00,
2013-12-05 15:57:00,79.1,62.6,29.91,West,270,2.9,2.9,57,0.00,,---,0.00,VWS V14.01,2013-12-05 21:57:00,
2013-12-05 15:58:00,78.9,62.4,29.91,South,180,4.7,4.7,57,0.00,,---,0.00,VWS V14.01,2013-12-05 21:58:00,
2013-12-05 15:59:00,78.9,62.9,29.91,West,270,2.0,4.7,58,0.00,,---,0.00,VWS V14.01,2013-12-05 21:59:00,
2013-12-05 16:00:00,78.9,62.9,29.91,WSW,248,2.5,2.5,58,0.00,,---,0.00,VWS V14.01,2013-12-05 22:00:00,
2013-12-05 16:01:00,78.7,62.7,29.91,SSW,202,2.0,3.1,58,0.00,,---,0.00,VWS V14.01,2013-12-05 22:01:00,
2013-12-05 16:02:00,78.7,62.7,29.91,SSW,202,1.3,2.0,58,0.00,,---,0.00,VWS V14.01,2013-12-05 22:02:00,
2013-12-05 16:03:00,78.5,62.5,29.91,WSW,248,2.0,2.0,58,0.00,,---,0.00,VWS V14.01,2013-12-05 22:03:00,
2013-12-05 16:04:00,78.5,62.5,29.91,SW,225,1.6,2.0,58,0.00,,---,0.00,VWS V14.01,2013-12-05 22:04:00,
2013-12-05 16:05:00,78.2,62.7,29.91,SW,225,1.1,1.6,59,0.00,,---,0.00,VWS V14.01,2013-12-05 22:05:00,
2013-12-05 16:06:00,78.2,62.7,29.91,SW,225,0.0,1.1,59,0.00,,---,0.00,VWS V14.01,2013-12-05 22:06:00,
2013-12-05 16:07:00,78.2,62.7,29.91,SW,225,0.0,0.0,59,0.00,,---,0.00,VWS V14.01,2013-12-05 22:07:00,
2013-12-05 16:08:00,78.0,62.5,29.91,SW,225,0.0,1.1,59,0.00,,---,0.00,VWS V14.01,2013-12-05 22:08:00,
2013-12-05 16:10:00,77.8,62.8,29.91,WSW,248,0.9,0.9,60,0.00,,---,0.00,VWS V14.01,2013-12-05 22:10:00,
2013-12-05 16:11:00,77.6,62.7,29.91,SW,225,0.0,1.1,60,0.00,,---,0.00,VWS V14.01,2013-12-05 22:11:00,
2013-12-05 16:12:00,77.6,62.7,29.91,SW,225,0.0,0.0,60,0.00,,---,0.00,VWS V14.01,2013-12-05 22:12:00,
2013-12-05 16:13:00,77.5,63.0,29.91,SW,225,0.0,0.0,61,0.00,,---,0.00,VWS V14.01,2013-12-05 22:13:00,
2013-12-05 16:14:00,77.5,63.0,29.91,WSW,248,0.0,0.0,61,0.00,,---,0.00,VWS V14.01,2013-12-05 22:14:00,
2013-12-05 16:15:00,77.3,62.8,29.91,WSW,248,1.3,1.6,61,0.00,,---,0.00,VWS V14.01,2013-12-05 22:15:00,
2013-12-05 16:16:00,77.3,62.8,29.91,WSW,248,1.1,1.3,61,0.00,,---,0.00,VWS V14.01,2013-12-05 22:16:00,
2013-12-05 16:17:00,77.3,62.8,29.91,WSW,248,1.1,1.3,61,0.00,,---,0.00,VWS V14.01,2013-12-05 22:17:00,
2013-12-05 16:18:00,77.1,63.1,29.91,WSW,248,0.0,1.6,62,0.00,,---,0.00,VWS V14.01,2013-12-05 22:18:00,
2013-12-05 16:19:00,77.1,63.1,29.91,WSW,248,0.0,0.0,62,0.00,,---,0.00,VWS V14.01,2013-12-05 22:19:00,
2013-12-05 16:20:00,77.1,63.1,29.91,SW,225,0.0,0.0,62,0.00,,---,0.00,VWS V14.01,2013-12-05 22:20:00,
2013-12-05 16:21:00,77.1,63.1,29.91,WSW,248,0.0,0.0,62,0.00,,---,0.00,VWS V14.01,2013-12-05 22:21:00,
2013-12-05 16:22:00,77.1,63.1,29.91,WSW,248,0.0,0.0,62,0.00,,---,0.00,VWS V14.01,2013-12-05 22:22:00,
2013-12-05 16:23:00,76.9,62.9,29.91,WSW,248,0.0,0.0,62,0.00,,---,0.00,VWS V14.01,2013-12-05 22:23:00,
2013-12-05 16:24:00,76.7,63.2,29.91,SSW,202,0.0,0.0,63,0.00,,---,0.00,VWS V14.01,2013-12-05 22:24:00,
2013-12-05 16:25:00,76.6,63.0,29.94,SSW,202,0.0,0.0,63,0.00,,---,0.00,VWS V14.01,2013-12-05 22:25:00,
2013-12-05 16:26:00,76.6,63.0,29.94,SSW,202,0.0,0.0,63,0.00,,---,0.00,VWS V14.01,2013-12-05 22:26:00,
2013-12-05 16:27:00,76.6,63.0,29.94,SSW,202,0.0,0.0,63,0.00,,---,0.00,VWS V14.01,2013-12-05 22:27:00,
2013-12-05 16:28:00,76.4,62.9,29.94,WSW,248,0.0,0.0,63,0.00,,---,0.00,VWS V14.01,2013-12-05 22:28:00,
2013-12-05 16:29:00,76.4,63.3,29.94,WSW,248,0.0,0.0,64,0.00,,---,0.00,VWS V14.01,2013-12-05 22:29:00,
2013-12-05 16:30:00,76.4,63.3,29.94,WSW,248,0.0,0.0,64,0.00,,---,0.00,VWS V14.01,2013-12-05 22:30:00,
2013-12-05 16:31:00,76.4,63.3,29.94,WSW,248,0.0,0.0,64,0.00,,---,0.00,VWS V14.01,2013-12-05 22:31:00,
2013-12-05 16:32:00,76.0,63.0,29.94,WSW,248,0.0,0.0,64,0.00,,---,0.00,VWS V14.01,2013-12-05 22:32:00,
2013-12-05 16:33:00,75.8,63.2,29.94,WSW,248,0.0,0.0,65,0.00,,---,0.00,VWS V14.01,2013-12-05 22:33:00,
2013-12-05 16:34:00,75.8,63.2,29.94,WSW,248,0.0,0.0,65,0.00,,---,0.00,VWS V14.01,2013-12-05 22:34:00,
2013-12-05 16:35:00,75.8,63.2,29.94,WSW,248,0.0,0.0,65,0.00,,---,0.00,VWS V14.01,2013-12-05 22:35:00,
2013-12-05 16:36:00,75.7,63.1,29.94,WSW,248,0.0,0.0,65,0.00,,---,0.00,VWS V14.01,2013-12-05 22:36:00,
2013-12-05 16:37:00,75.7,63.1,29.94,WSW,248,0.0,0.0,65,0.00,,---,0.00,VWS V14.01,2013-12-05 22:37:00,
2013-12-05 16:38:00,75.5,63.3,29.94,WSW,248,0.0,0.0,66,0.00,,---,0.00,VWS V14.01,2013-12-05 22:38:00,
2013-12-05 16:39:00,75.5,63.3,29.94,WSW,248,0.0,0.0,66,0.00,,---,0.00,VWS V14.01,2013-12-05 22:39:00,
2013-12-05 16:40:00,75.3,63.2,29.94,WSW,248,0.0,0.0,66,0.00,,---,0.00,VWS V14.01,2013-12-05 22:40:00,
2013-12-05 16:41:00,75.1,63.0,29.94,WSW,248,0.0,0.0,66,0.00,,---,0.00,VWS V14.01,2013-12-05 22:41:00,
2013-12-05 16:42:00,75.1,63.0,29.94,WSW,248,0.0,0.0,66,0.00,,---,0.00,VWS V14.01,2013-12-05 22:42:00,
2013-12-05 16:43:00,75.1,63.0,29.94,WSW,248,0.0,0.0,66,0.00,,---,0.00,VWS V14.01,2013-12-05 22:43:00,
2013-12-05 16:44:00,74.9,63.2,29.94,WSW,248,0.0,0.0,67,0.00,,---,0.00,VWS V14.01,2013-12-05 22:44:00,
2013-12-05 16:45:00,74.9,63.2,29.94,WSW,248,0.0,0.0,67,0.00,,---,0.00,VWS V14.01,2013-12-05 22:45:00,
2013-12-05 16:46:00,74.8,63.1,29.94,WSW,248,0.0,0.0,67,0.00,,---,0.00,VWS V14.01,2013-12-05 22:46:00,
2013-12-05 16:47:00,74.8,63.1,29.94,WSW,248,0.0,0.0,67,0.00,,---,0.00,VWS V14.01,2013-12-05 22:47:00,
2013-12-05 16:48:00,74.6,62.9,29.94,WSW,248,0.0,0.0,67,0.00,,---,0.00,VWS V14.01,2013-12-05 22:48:00,
2013-12-05 16:49:00,74.4,62.7,29.94,WSW,248,0.0,0.0,67,0.00,,---,0.00,VWS V14.01,2013-12-05 22:49:00,
2013-12-05 16:50:00,74.4,63.2,29.94,WSW,248,0.0,0.0,68,0.00,,---,0.00,VWS V14.01,2013-12-05 22:50:00,
2013-12-05 16:51:00,74.2,63.0,29.94,WSW,248,0.0,0.0,68,0.00,,---,0.00,VWS V14.01,2013-12-05 22:51:00,
2013-12-05 16:52:00,74.2,63.0,29.94,WSW,248,0.0,0.0,68,0.00,,---,0.00,VWS V14.01,2013-12-05 22:52:00,
2013-12-05 16:54:00,74.2,63.0,29.94,WSW,248,0.0,0.0,68,0.00,,---,0.00,VWS V14.01,2013-12-05 22:54:00,
2013-12-05 16:55:00,73.9,63.1,29.94,WSW,248,0.0,0.0,69,0.00,,---,0.00,VWS V14.01,2013-12-05 22:55:00,
2013-12-05 16:56:00,73.9,63.1,29.94,WSW,248,0.0,0.0,69,0.00,,---,0.00,VWS V14.01,2013-12-05 22:56:00,
2013-12-05 16:57:00,73.9,63.1,29.94,WSW,248,0.0,0.0,69,0.00,,---,0.00,VWS V14.01,2013-12-05 22:57:00,
2013-12-05 16:58:00,73.7,62.9,29.94,WSW,248,0.0,0.0,69,0.00,,---,0.00,VWS V14.01,2013-12-05 22:58:00,
2013-12-05 16:59:00,73.7,62.9,29.94,WSW,248,0.0,0.0,69,0.00,,---,0.00,VWS V14.01,2013-12-05 22:59:00,
2013-12-05 17:00:00,73.5,62.7,29.94,WSW,248,0.0,0.0,69,0.00,,---,0.00,VWS V14.01,2013-12-05 23:00:00,
2013-12-05 17:01:00,73.5,63.1,29.94,WSW,248,0.0,0.0,70,0.00,,---,0.00,VWS V14.01,2013-12-05 23:01:00,
2013-12-05 17:02:00,73.5,63.1,29.94,WSW,248,0.0,0.0,70,0.00,,---,0.00,VWS V14.01,2013-12-05 23:02:00,
2013-12-05 17:03:00,73.3,63.0,29.94,WSW,248,0.0,0.0,70,0.00,,---,0.00,VWS V14.01,2013-12-05 23:03:00,
2013-12-05 17:04:00,73.3,63.0,29.94,WSW,248,0.0,0.0,70,0.00,,---,0.00,VWS V14.01,2013-12-05 23:04:00,
2013-12-05 17:05:00,73.1,62.8,29.94,WSW,248,0.0,0.0,70,0.00,,---,0.00,VWS V14.01,2013-12-05 23:05:00,
2013-12-05 17:06:00,73.1,62.8,29.94,WSW,248,0.0,0.0,70,0.00,,---,0.00,VWS V14.01,2013-12-05 23:06:00,
2013-12-05 17:07:00,73.1,62.8,29.94,WSW,248,0.0,0.0,70,0.00,,---,0.00,VWS V14.01,2013-12-05 23:07:00,
2013-12-05 17:08:00,73.0,62.6,29.94,WSW,248,0.0,0.0,70,0.00,,---,0.00,VWS V14.01,2013-12-05 23:08:00,
2013-12-05 17:09:00,73.0,62.6,29.94,WSW,248,0.0,0.0,70,0.00,,---,0.00,VWS V14.01,2013-12-05 23:09:00,
2013-12-05 17:10:00,73.0,62.6,29.94,WSW,248,0.0,0.0,70,0.00,,---,0.00,VWS V14.01,2013-12-05 23:10:00,
2013-12-05 17:11:00,73.0,63.0,29.94,WSW,248,0.0,0.0,71,0.00,,---,0.00,VWS V14.01,2013-12-05 23:11:00,
2013-12-05 17:12:00,73.0,63.0,29.94,WSW,248,0.0,0.0,71,0.00,,---,0.00,VWS V14.01,2013-12-05 23:12:00,
2013-12-05 17:13:00,72.8,62.8,29.94,WSW,248,0.0,0.0,71,0.00,,---,0.00,VWS V14.01,2013-12-05 23:13:00,
2013-12-05 17:14:00,72.8,62.8,29.94,WSW,248,0.0,0.0,71,0.00,,---,0.00,VWS V14.01,2013-12-05 23:14:00,
2013-12-05 17:15:00,72.8,62.8,29.94,WSW,248,0.0,0.0,71,0.00,,---,0.00,VWS V14.01,2013-12-05 23:15:00,
2013-12-05 17:16:00,72.8,62.8,29.94,WSW,248,0.0,0.0,71,0.00,,---,0.00,VWS V14.01,2013-12-05 23:16:00,
2013-12-05 17:17:00,72.8,63.2,29.94,WSW,248,0.0,0.0,72,0.00,,---,0.00,VWS V14.01,2013-12-05 23:17:00,
2013-12-05 17:18:00,72.8,63.2,29.94,WSW,248,0.0,0.0,72,0.00,,---,0.00,VWS V14.01,2013-12-05 23:18:00,
2013-12-05 17:19:00,72.6,63.1,29.94,WSW,248,0.0,0.0,72,0.00,,---,0.00,VWS V14.01,2013-12-05 23:19:00,
2013-12-05 17:20:00,72.6,63.1,29.94,WSW,248,0.0,0.0,72,0.00,,---,0.00,VWS V14.01,2013-12-05 23:20:00,
2013-12-05 17:21:00,72.6,63.1,29.94,WSW,248,0.0,0.0,72,0.00,,---,0.00,VWS V14.01,2013-12-05 23:21:00,
2013-12-05 17:22:00,72.6,63.5,29.94,WSW,248,0.0,0.0,73,0.00,,---,0.00,VWS V14.01,2013-12-05 23:22:00,
2013-12-05 17:23:00,72.6,63.5,29.94,WSW,248,0.0,0.0,73,0.00,,---,0.00,VWS V14.01,2013-12-05 23:23:00,
2013-12-05 17:24:00,72.6,63.5,29.94,WSW,248,0.0,0.0,73,0.00,,---,0.00,VWS V14.01,2013-12-05 23:24:00,
2013-12-05 17:25:00,72.4,63.3,29.94,WSW,248,0.0,0.0,73,0.00,,---,0.00,VWS V14.01,2013-12-05 23:25:00,
2013-12-05 17:26:00,72.4,63.3,29.94,WSW,248,0.0,0.0,73,0.00,,---,0.00,VWS V14.01,2013-12-05 23:26:00,
2013-12-05 17:27:00,72.4,63.3,29.94,WSW,248,0.0,0.0,73,0.00,,---,0.00,VWS V14.01,2013-12-05 23:27:00,
2013-12-05 17:28:00,72.4,63.7,29.94,WSW,248,0.0,0.0,74,0.00,,---,0.00,VWS V14.01,2013-12-05 23:28:00,
2013-12-05 17:29:00,72.2,63.1,29.94,WSW,248,0.0,0.0,73,0.00,,---,0.00,VWS V14.01,2013-12-05 23:29:00,
2013-12-05 17:30:00,72.2,63.1,29.94,WSW,248,0.0,0.0,73,0.00,,---,0.00,VWS V14.01,2013-12-05 23:30:00,
2013-12-05 17:31:00,72.2,63.5,29.94,WSW,248,0.0,0.0,74,0.00,,---,0.00,VWS V14.01,2013-12-05 23:31:00,
2013-12-05 17:32:00,72.1,63.3,29.94,WSW,248,0.0,0.0,74,0.00,,---,0.00,VWS V14.01,2013-12-05 23:32:00,
2013-12-05 17:33:00,71.9,63.2,29.94,WSW,248,0.0,0.0,74,0.00,,---,0.00,VWS V14.01,2013-12-05 23:33:00,
2013-12-05 17:34:00,71.9,63.2,29.94,WSW,248,0.0,0.0,74,0.00,,---,0.00,VWS V14.01,2013-12-05 23:34:00,
2013-12-05 17:35:00,71.7,63.0,29.94,WSW,248,0.0,0.0,74,0.00,,---,0.00,VWS V14.01,2013-12-05 23:35:00,
2013-12-05 17:36:00,71.7,63.0,29.94,WSW,248,0.0,0.0,74,0.00,,---,0.00,VWS V14.01,2013-12-05 23:36:00,
2013-12-05 17:37:00,71.7,63.0,29.94,WSW,248,0.0,0.0,74,0.00,,---,0.00,VWS V14.01,2013-12-05 23:37:00,
2013-12-05 17:38:00,71.7,63.0,29.94,WSW,248,0.0,0.0,74,0.00,,---,0.00,VWS V14.01,2013-12-05 23:38:00,
2013-12-05 17:39:00,71.5,63.2,29.94,WSW,248,0.0,0.0,75,0.00,,---,0.00,VWS V14.01,2013-12-05 23:39:00,
2013-12-05 17:40:00,71.3,63.0,29.94,WSW,248,0.0,0.0,75,0.00,,---,0.00,VWS V14.01,2013-12-05 23:40:00,
2013-12-05 17:41:00,71.3,63.0,29.94,WSW,248,0.0,0.0,75,0.00,,---,0.00,VWS V14.01,2013-12-05 23:41:00,
2013-12-05 17:42:00,71.3,63.0,29.94,WSW,248,0.0,0.0,75,0.00,,---,0.00,VWS V14.01,2013-12-05 23:42:00,
2013-12-05 17:43:00,71.3,63.0,29.94,WSW,248,0.0,0.0,75,0.00,,---,0.00,VWS V14.01,2013-12-05 23:43:00,
2013-12-05 17:44:00,71.3,63.4,29.94,WSW,248,0.0,0.0,76,0.00,,---,0.00,VWS V14.01,2013-12-05 23:44:00,
2013-12-05 17:45:00,71.2,63.2,29.94,WSW,248,0.0,0.0,76,0.00,,---,0.00,VWS V14.01,2013-12-05 23:45:00,
2013-12-05 17:46:00,71.2,63.2,29.94,WSW,248,0.0,0.0,76,0.00,,---,0.00,VWS V14.01,2013-12-05 23:46:00,
2013-12-05 17:47:00,71.2,63.2,29.94,WSW,248,0.0,0.0,76,0.00,,---,0.00,VWS V14.01,2013-12-05 23:47:00,
2013-12-05 17:48:00,71.0,63.0,29.94,SSE,158,0.0,0.0,76,0.00,,---,0.00,VWS V14.01,2013-12-05 23:48:00,
2013-12-05 17:49:00,71.0,63.0,29.94,SSE,158,0.0,0.0,76,0.00,,---,0.00,VWS V14.01,2013-12-05 23:49:00,
2013-12-05 17:50:00,71.0,63.0,29.94,SSE,158,0.0,0.0,76,0.00,,---,0.00,VWS V14.01,2013-12-05 23:50:00,
2013-12-05 17:51:00,70.8,62.9,29.94,SSE,158,0.0,0.0,76,0.00,,---,0.00,VWS V14.01,2013-12-05 23:51:00,
2013-12-05 17:52:00,70.8,62.9,29.94,SSE,158,0.0,0.0,76,0.00,,---,0.00,VWS V14.01,2013-12-05 23:52:00,
2013-12-05 17:53:00,70.8,63.2,29.94,SSE,158,0.0,0.0,77,0.00,,---,0.00,VWS V14.01,2013-12-05 23:53:00,
2013-12-05 17:54:00,70.8,62.9,29.94,SSE,158,0.0,0.0,76,0.00,,---,0.00,VWS V14.01,2013-12-05 23:54:00,
2013-12-05 17:55:00,70.8,62.9,29.94,SSE,158,0.0,0.0,76,0.00,,---,0.00,VWS V14.01,2013-12-05 23:55:00,
2013-12-05 17:56:00,70.6,63.1,29.94,SSE,158,0.0,0.0,77,0.00,,---,0.00,VWS V14.01,2013-12-05 23:56:00,
2013-12-05 17:57:00,70.6,63.1,29.94,SSE,158,0.0,0.0,77,0.00,,---,0.00,VWS V14.01,2013-12-05 23:57:00,
2013-12-05 17:58:00,70.4,62.9,29.94,SSE,158,0.0,0.0,77,0.00,,---,0.00,VWS V14.01,2013-12-05 23:58:00,
2013-12-05 17:59:00,70.3,62.7,29.94,SSE,158,0.0,0.0,77,0.00,,---,0.00,VWS V14.01,2013-12-05 23:59:00,
2013-12-05 18:00:00,70.3,62.7,29.94,SSE,158,0.0,0.0,77,0.00,,---,0.00,VWS V14.01,2013-12-06 00:00:00,
2013-12-05 18:01:00,70.3,62.3,29.94,SSE,158,0.0,0.0,76,0.00,,---,0.00,VWS V14.01,2013-12-06 00:01:00,
2013-12-05 18:02:00,70.1,62.5,29.94,SSE,158,0.0,0.0,77,0.00,,---,0.00,VWS V14.01,2013-12-06 00:02:00,
2013-12-05 18:03:00,70.1,62.5,29.94,SSE,158,0.0,0.0,77,0.00,,---,0.00,VWS V14.01,2013-12-06 00:03:00,
2013-12-05 18:04:00,69.9,62.4,29.94,SSE,158,0.0,0.0,77,0.00,,---,0.00,VWS V14.01,2013-12-06 00:04:00,
2013-12-05 18:05:00,69.9,62.4,29.94,SSE,158,0.0,0.0,77,0.00,,---,0.00,VWS V14.01,2013-12-06 00:05:00,
2013-12-05 18:06:00,69.9,62.4,29.94,SSE,158,0.0,0.0,77,0.00,,---,0.00,VWS V14.01,2013-12-06 00:06:00,
2013-12-05 18:07:00,69.7,62.2,29.94,SSE,158,0.0,0.0,77,0.00,,---,0.00,VWS V14.01,2013-12-06 00:07:00,
2013-12-05 18:08:00,69.7,62.2,29.94,SSE,158,0.0,0.0,77,0.00,,---,0.00,VWS V14.01,2013-12-06 00:08:00,
2013-12-05 18:09:00,69.7,62.2,29.94,SSE,158,0.0,0.0,77,0.00,,---,0.00,VWS V14.01,2013-12-06 00:09:00,
2013-12-05 18:10:00,69.7,62.2,29.94,SSE,158,0.0,0.0,77,0.00,,---,0.00,VWS V14.01,2013-12-06 00:10:00,
2013-12-05 18:11:00,69.5,62.4,29.94,SSE,158,0.0,0.0,78,0.00,,---,0.00,VWS V14.01,2013-12-06 00:11:00,
2013-12-05 18:12:00,69.5,62.4,29.94,SSE,158,0.0,0.0,78,0.00,,---,0.00,VWS V14.01,2013-12-06 00:12:00,
2013-12-05 18:13:00,69.5,62.4,29.94,SSE,158,0.0,0.0,78,0.00,,---,0.00,VWS V14.01,2013-12-06 00:13:00,
2013-12-05 18:14:00,69.4,62.2,29.94,SSE,158,0.0,0.0,78,0.00,,---,0.00,VWS V14.01,2013-12-06 00:14:00,
2013-12-05 18:15:00,69.4,62.2,29.94,SSE,158,0.0,0.0,78,0.00,,---,0.00,VWS V14.01,2013-12-06 00:15:00,
2013-12-05 18:16:00,69.4,62.2,29.94,SSE,158,0.0,0.0,78,0.00,,---,0.00,VWS V14.01,2013-12-06 00:16:00,
2013-12-05 18:17:00,69.4,62.2,29.94,SSE,158,0.0,0.0,78,0.00,,---,0.00,VWS V14.01,2013-12-06 00:17:00,
2013-12-05 18:18:00,69.2,62.4,29.94,SSE,158,0.0,0.0,79,0.00,,---,0.00,VWS V14.01,2013-12-06 00:18:00,
2013-12-05 18:19:00,69.2,62.4,29.94,SSE,158,0.0,0.0,79,0.00,,---,0.00,VWS V14.01,2013-12-06 00:19:00,
2013-12-05 18:20:00,69.2,62.4,29.94,SSE,158,0.0,0.0,79,0.00,,---,0.00,VWS V14.01,2013-12-06 00:20:00,
2013-12-05 18:21:00,69.2,62.4,29.94,SSE,158,0.0,0.0,79,0.00,,---,0.00,VWS V14.01,2013-12-06 00:21:00,
2013-12-05 18:22:00,69.2,62.4,29.94,SSE,158,0.0,0.0,79,0.00,,---,0.00,VWS V14.01,2013-12-06 00:22:00,
2013-12-05 18:23:00,69.2,62.4,29.94,West,270,0.0,0.0,79,0.00,,---,0.00,VWS V14.01,2013-12-06 00:23:00,
2013-12-05 18:24:00,69.2,62.8,29.94,West,270,0.0,0.0,80,0.00,,---,0.00,VWS V14.01,2013-12-06 00:24:00,
2013-12-05 18:25:00,69.2,62.8,29.94,West,270,0.0,0.0,80,0.00,,---,0.00,VWS V14.01,2013-12-06 00:25:00,
2013-12-05 18:26:00,69.2,62.8,29.94,West,270,0.0,0.0,80,0.00,,---,0.00,VWS V14.01,2013-12-06 00:26:00,
2013-12-05 18:27:00,69.4,63.3,29.94,West,270,0.0,0.0,81,0.00,,---,0.00,VWS V14.01,2013-12-06 00:27:00,
2013-12-05 18:28:00,69.4,63.3,29.94,West,270,0.0,0.0,81,0.00,,---,0.00,VWS V14.01,2013-12-06 00:28:00,
2013-12-05 18:29:00,69.4,63.3,29.94,NW,315,1.6,1.6,81,0.00,,---,0.00,VWS V14.01,2013-12-06 00:29:00,
2013-12-05 18:30:00,69.4,63.6,29.94,NNW,338,2.2,2.2,82,0.00,,---,0.00,VWS V14.01,2013-12-06 00:30:00,
2013-12-05 18:31:00,69.4,64.0,29.94,NNW,338,2.7,2.7,83,0.00,,---,0.00,VWS V14.01,2013-12-06 00:31:00,
2013-12-05 18:32:00,69.4,64.7,29.94,NNW,338,2.7,2.7,85,0.00,,---,0.00,VWS V14.01,2013-12-06 00:32:00,
2013-12-05 18:33:00,69.4,65.0,29.94,NNW,338,2.5,2.9,86,0.00,,---,0.00,VWS V14.01,2013-12-06 00:33:00,
2013-12-05 18:34:00,69.4,65.0,29.94,NNW,338,2.5,2.9,86,0.00,,---,0.00,VWS V14.01,2013-12-06 00:34:00,
2013-12-05 18:35:00,69.2,64.8,29.94,North,0,2.9,4.0,86,0.00,,---,0.00,VWS V14.01,2013-12-06 00:35:00,
2013-12-05 18:36:00,69.2,63.1,29.94,NNE,22,3.8,6.0,81,0.00,,---,0.00,VWS V14.01,2013-12-06 00:36:00,
2013-12-05 18:37:00,68.8,61.3,29.94,North,0,2.7,5.4,77,0.00,,---,0.00,VWS V14.01,2013-12-06 00:37:00,
2013-12-05 18:38:00,68.8,61.0,29.94,North,0,2.5,3.4,76,0.00,,---,0.00,VWS V14.01,2013-12-06 00:38:00,
2013-12-05 18:39:00,68.6,60.4,29.94,NNE,22,1.6,2.9,75,0.00,,---,0.00,VWS V14.01,2013-12-06 00:39:00,
2013-12-05 18:40:00,68.6,60.4,29.94,NW,315,2.0,2.0,75,0.00,,---,0.00,VWS V14.01,2013-12-06 00:40:00,
2013-12-05 18:41:00,68.5,59.9,29.94,NNW,338,3.1,3.1,74,0.00,,---,0.00,VWS V14.01,2013-12-06 00:41:00,
2013-12-05 18:42:00,68.5,59.5,29.94,NNW,338,5.6,5.6,73,0.00,,---,0.00,VWS V14.01,2013-12-06 00:42:00,
2013-12-05 18:43:00,68.5,59.5,29.94,NNW,338,5.6,5.6,73,0.00,,---,0.00,VWS V14.01,2013-12-06 00:43:00,
2013-12-05 18:44:00,68.5,59.5,29.94,NNW,338,3.8,6.0,73,0.00,,---,0.00,VWS V14.01,2013-12-06 00:44:00,
2013-12-05 18:45:00,68.5,59.5,29.94,NNW,338,3.8,3.8,73,0.00,,---,0.00,VWS V14.01,2013-12-06 00:45:00,
2013-12-05 18:46:00,67.7,58.0,29.94,NW,315,4.3,4.3,71,0.00,,---,0.00,VWS V14.01,2013-12-06 00:46:00,
2013-12-05 18:47:00,67.6,57.0,29.94,NNW,338,3.1,8.5,69,0.00,,---,0.00,VWS V14.01,2013-12-06 00:47:00,
2013-12-05 18:48:00,67.4,56.5,29.94,NW,315,4.5,4.7,68,0.00,,---,0.00,VWS V14.01,2013-12-06 00:48:00,
2013-12-05 18:49:00,67.4,56.5,29.94,NNW,338,3.8,4.5,68,0.00,,---,0.00,VWS V14.01,2013-12-06 00:49:00,
2013-12-05 18:50:00,66.5,54.8,29.94,NNW,338,3.1,3.8,66,0.00,,---,0.00,VWS V14.01,2013-12-06 00:50:00,
2013-12-05 18:51:00,66.3,55.0,29.94,WSW,248,2.0,3.1,67,0.00,,---,0.00,VWS V14.01,2013-12-06 00:51:00,
2013-12-05 18:52:00,66.3,55.0,29.94,NE,45,2.0,2.0,67,0.00,,---,0.00,VWS V14.01,2013-12-06 00:52:00,
2013-12-05 18:53:00,65.9,54.7,29.94,WNW,292,2.5,2.5,67,0.00,,---,0.00,VWS V14.01,2013-12-06 00:53:00,
2013-12-05 18:54:00,65.9,54.7,29.94,NW,315,3.1,4.7,67,0.00,,---,0.00,VWS V14.01,2013-12-06 00:54:00,
2013-12-05 18:55:00,65.4,53.3,29.94,NW,315,3.1,3.1,65,0.00,,---,0.00,VWS V14.01,2013-12-06 00:55:00,
2013-12-05 18:56:00,65.4,53.3,29.97,NNW,338,3.1,3.8,65,0.00,,---,0.00,VWS V14.01,2013-12-06 00:56:00,
2013-12-05 18:57:00,64.7,53.1,29.97,NNW,338,3.6,4.0,66,0.00,,---,0.00,VWS V14.01,2013-12-06 00:57:00,
2013-12-05 18:58:00,64.5,52.5,29.97,NNW,338,5.8,5.8,65,0.00,,---,0.00,VWS V14.01,2013-12-06 00:58:00,
2013-12-05 18:59:00,64.1,52.2,29.97,WNW,292,5.6,5.8,65,0.00,,---,0.00,VWS V14.01,2013-12-06 00:59:00,
2013-12-05 19:00:00,64.0,52.0,29.97,NW,315,3.6,5.6,65,0.00,,---,0.00,VWS V14.01,2013-12-06 01:00:00,
2013-12-05 19:01:00,64.0,52.0,29.97,NW,315,4.3,4.3,65,0.00,,---,0.00,VWS V14.01,2013-12-06 01:01:00,
2013-12-05 19:02:00,63.6,52.5,29.97,North,0,5.6,6.0,67,0.00,,---,0.00,VWS V14.01,2013-12-06 01:02:00,
2013-12-05 19:03:00,63.2,52.1,29.97,WNW,292,4.0,6.5,67,0.00,,---,0.00,VWS V14.01,2013-12-06 01:03:00,
2013-12-05 19:04:00,63.1,51.9,29.97,North,0,2.9,4.0,67,0.00,,---,0.00,VWS V14.01,2013-12-06 01:04:00,
2013-12-05 19:05:00,62.9,51.8,29.97,WNW,292,5.4,5.4,67,0.00,,---,0.00,VWS V14.01,2013-12-06 01:05:00,
2013-12-05 19:06:00,62.7,51.6,29.97,NW,315,6.3,6.3,67,0.00,,---,0.00,VWS V14.01,2013-12-06 01:06:00,
2013-12-05 19:07:00,62.5,51.4,29.97,WNW,292,6.5,7.8,67,0.00,,---,0.00,VWS V14.01,2013-12-06 01:07:00,
2013-12-05 19:08:00,62.3,51.3,29.97,NW,315,3.1,7.8,67,0.00,,---,0.00,VWS V14.01,2013-12-06 01:08:00,
2013-12-05 19:09:00,62.0,50.9,29.97,NNE,22,4.0,4.0,67,0.00,,---,0.00,VWS V14.01,2013-12-06 01:09:00,
2013-12-05 19:10:00,61.8,51.1,29.97,NW,315,5.8,6.5,68,0.00,,---,0.00,VWS V14.01,2013-12-06 01:10:00,
2013-12-05 19:11:00,61.4,50.8,29.97,NNW,338,5.8,6.3,68,0.00,,---,0.00,VWS V14.01,2013-12-06 01:11:00,
2013-12-05 19:12:00,61.4,50.8,29.97,West,270,4.9,5.8,68,0.00,,---,0.00,VWS V14.01,2013-12-06 01:12:00,
2013-12-05 19:13:00,61.4,50.8,29.97,WNW,292,3.1,5.8,68,0.00,,---,0.00,VWS V14.01,2013-12-06 01:13:00,
2013-12-05 19:14:00,61.4,50.8,29.97,NNE,22,3.1,3.1,68,0.00,,---,0.00,VWS V14.01,2013-12-06 01:14:00,
2013-12-05 19:15:00,61.1,50.8,29.97,North,0,2.9,3.6,69,0.00,,---,0.00,VWS V14.01,2013-12-06 01:15:00,
2013-12-05 19:16:00,61.1,50.8,29.97,North,0,3.4,3.4,69,0.00,,---,0.00,VWS V14.01,2013-12-06 01:16:00,
2013-12-05 19:17:00,61.1,51.2,29.97,North,0,2.5,2.5,70,0.00,,---,0.00,VWS V14.01,2013-12-06 01:17:00,
2013-12-05 19:18:00,60.7,50.9,29.97,North,0,3.4,3.4,70,0.00,,---,0.00,VWS V14.01,2013-12-06 01:18:00,
2013-12-05 19:19:00,60.7,50.9,29.97,NNE,22,2.0,3.4,70,0.00,,---,0.00,VWS V14.01,2013-12-06 01:19:00,
2013-12-05 19:20:00,60.5,50.7,29.97,NNE,22,3.8,3.8,70,0.00,,---,0.00,VWS V14.01,2013-12-06 01:20:00,
2013-12-05 19:21:00,60.5,50.7,29.97,WNW,292,3.6,4.7,70,0.00,,---,0.00,VWS V14.01,2013-12-06 01:21:00,
2013-12-05 19:22:00,60.5,50.7,29.97,NW,315,2.5,5.8,70,0.00,,---,0.00,VWS V14.01,2013-12-06 01:22:00,
2013-12-05 19:23:00,60.5,50.7,29.97,NW,315,2.5,2.5,70,0.00,,---,0.00,VWS V14.01,2013-12-06 01:23:00,
2013-12-05 19:24:00,60.2,50.8,29.97,NNE,22,2.5,2.9,71,0.00,,---,0.00,VWS V14.01,2013-12-06 01:24:00,
2013-12-05 19:25:00,60.0,50.2,29.97,NNW,338,3.1,4.0,70,0.00,,---,0.00,VWS V14.01,2013-12-06 01:25:00,
2013-12-05 19:26:00,60.0,50.2,29.97,North,0,3.8,4.3,70,0.00,,---,0.00,VWS V14.01,2013-12-06 01:26:00,
2013-12-05 19:27:00,59.8,50.4,29.97,NNW,338,3.4,3.4,71,0.00,,---,0.00,VWS V14.01,2013-12-06 01:27:00,
2013-12-05 19:28:00,59.8,50.4,29.97,NW,315,5.6,5.6,71,0.00,,---,0.00,VWS V14.01,2013-12-06 01:28:00,
2013-12-05 19:30:00,59.6,50.2,29.97,North,0,3.6,5.6,71,0.00,,---,0.00,VWS V14.01,2013-12-06 01:30:00,
2013-12-05 19:31:00,59.5,50.4,29.97,North,0,3.4,4.3,72,0.00,,---,0.00,VWS V14.01,2013-12-06 01:31:00,
2013-12-05 19:32:00,59.3,50.3,29.97,NNW,338,4.3,4.3,72,0.00,,---,0.00,VWS V14.01,2013-12-06 01:32:00,
2013-12-05 19:33:00,59.3,50.3,29.97,North,0,3.1,4.3,72,0.00,,---,0.00,VWS V14.01,2013-12-06 01:33:00,
2013-12-05 19:34:00,59.1,50.1,29.97,NNW,338,2.7,3.1,72,0.00,,---,0.00,VWS V14.01,2013-12-06 01:34:00,
2013-12-05 19:35:00,59.1,50.1,29.97,North,0,2.9,3.8,72,0.00,,---,0.00,VWS V14.01,2013-12-06 01:35:00,
2013-12-05 19:36:00,58.9,49.9,29.97,North,0,3.6,4.3,72,0.00,,---,0.00,VWS V14.01,2013-12-06 01:36:00,
2013-12-05 19:37:00,58.9,50.3,29.97,North,0,2.7,2.7,73,0.00,,---,0.00,VWS V14.01,2013-12-06 01:37:00,
2013-12-05 19:38:00,58.9,50.3,29.97,North,0,2.5,3.8,73,0.00,,---,0.00,VWS V14.01,2013-12-06 01:38:00,
2013-12-05 19:39:00,58.9,50.3,29.97,NNW,338,2.7,3.1,73,0.00,,---,0.00,VWS V14.01,2013-12-06 01:39:00,
2013-12-05 19:40:00,58.9,50.3,29.97,NNW,338,4.3,4.3,73,0.00,,---,0.00,VWS V14.01,2013-12-06 01:40:00,
2013-12-05 19:41:00,58.7,50.1,29.97,NNW,338,2.5,4.3,73,0.00,,---,0.00,VWS V14.01,2013-12-06 01:41:00,
2013-12-05 19:42:00,58.7,50.1,29.97,NNW,338,1.1,1.1,73,0.00,,---,0.00,VWS V14.01,2013-12-06 01:42:00,
2013-12-05 19:43:00,58.7,50.1,29.97,NNW,338,1.1,1.1,73,0.00,,---,0.00,VWS V14.01,2013-12-06 01:43:00,
2013-12-05 19:44:00,58.6,49.9,29.97,North,0,1.6,2.0,73,0.00,,---,0.00,VWS V14.01,2013-12-06 01:44:00,
2013-12-05 19:45:00,58.6,49.9,29.97,North,0,2.0,2.0,73,0.00,,---,0.00,VWS V14.01,2013-12-06 01:45:00,
2013-12-05 19:46:00,58.6,50.3,29.97,NNW,338,2.9,3.6,74,0.00,,---,0.00,VWS V14.01,2013-12-06 01:46:00,
2013-12-05 19:47:00,58.6,50.0,29.97,WNW,292,5.4,5.4,73,0.00,,---,0.00,VWS V14.01,2013-12-06 01:47:00,
2013-12-05 19:48:00,58.6,50.3,29.97,NW,315,3.4,5.4,74,0.00,,---,0.00,VWS V14.01,2013-12-06 01:48:00,
2013-12-05 19:49:00,58.4,50.1,29.97,NW,315,2.2,3.4,74,0.00,,---,0.00,VWS V14.01,2013-12-06 01:49:00,
2013-12-05 19:50:00,58.4,50.1,29.97,NNW,338,3.1,4.3,74,0.00,,---,0.00,VWS V14.01,2013-12-06 01:50:00,
2013-12-05 19:51:00,58.4,50.1,29.97,NNW,338,1.6,3.1,74,0.00,,---,0.00,VWS V14.01,2013-12-06 01:51:00,
2013-12-05 19:52:00,58.4,50.1,29.97,West,270,3.4,3.4,74,0.00,,---,0.00,VWS V14.01,2013-12-06 01:52:00,
2013-12-05 19:53:00,58.4,50.1,29.97,NNW,338,2.9,2.9,74,0.00,,---,0.00,VWS V14.01,2013-12-06 01:53:00,
2013-12-05 19:54:00,58.4,50.1,29.97,WNW,292,2.7,4.3,74,0.00,,---,0.00,VWS V14.01,2013-12-06 01:54:00,
2013-12-05 19:55:00,58.2,50.0,29.97,NNW,338,3.1,3.1,74,0.00,,---,0.00,VWS V14.01,2013-12-06 01:55:00,
2013-12-05 19:56:00,58.2,50.0,29.97,NW,315,2.9,3.6,74,0.00,,---,0.00,VWS V14.01,2013-12-06 01:56:00,
2013-12-05 19:57:00,58.2,50.0,29.97,WNW,292,2.9,2.9,74,0.00,,---,0.00,VWS V14.01,2013-12-06 01:57:00,
2013-12-05 19:58:00,58.2,50.0,29.97,WNW,292,2.9,2.9,74,0.00,,---,0.00,VWS V14.01,2013-12-06 01:58:00,
2013-12-05 19:59:00,58.2,50.3,29.97,NNW,338,1.6,2.9,75,0.00,,---,0.00,VWS V14.01,2013-12-06 01:59:00,
2013-12-05 20:00:00,58.2,50.3,29.97,NNW,338,1.6,2.2,75,0.00,,---,0.00,VWS V14.01,2013-12-06 02:00:00,
2013-12-05 20:01:00,58.2,50.3,29.97,NW,315,2.5,2.9,75,0.00,,---,0.00,VWS V14.01,2013-12-06 02:01:00,
2013-12-05 20:02:00,58.2,50.3,29.97,NNW,338,2.2,2.7,75,0.00,,---,0.00,VWS V14.01,2013-12-06 02:02:00,
2013-12-05 20:03:00,58.2,50.3,29.97,NNW,338,0.0,2.7,75,0.00,,---,0.00,VWS V14.01,2013-12-06 02:03:00,
2013-12-05 20:04:00,58.2,50.3,29.97,NNW,338,1.3,2.2,75,0.00,,---,0.00,VWS V14.01,2013-12-06 02:04:00,
2013-12-05 20:05:00,58.0,50.5,29.97,North,0,2.2,3.6,76,0.00,,---,0.00,VWS V14.01,2013-12-06 02:05:00,
2013-12-05 20:06:00,58.0,50.5,29.97,NNW,338,2.5,2.7,76,0.00,,---,0.00,VWS V14.01,2013-12-06 02:06:00,
2013-12-05 20:07:00,57.8,50.0,29.97,NW,315,2.9,2.9,75,0.00,,---,0.00,VWS V14.01,2013-12-06 02:07:00,
2013-12-05 20:08:00,57.8,50.0,29.97,NNE,22,2.2,2.9,75,0.00,,---,0.00,VWS V14.01,2013-12-06 02:08:00,
2013-12-05 20:09:00,57.8,50.0,29.97,NNE,22,0.0,2.2,75,0.00,,---,0.00,VWS V14.01,2013-12-06 02:09:00,
2013-12-05 20:10:00,57.8,50.0,29.97,NNE,22,0.0,0.0,75,0.00,,---,0.00,VWS V14.01,2013-12-06 02:10:00,
2013-12-05 20:11:00,57.7,50.2,29.97,North,0,1.6,2.5,76,0.00,,---,0.00,VWS V14.01,2013-12-06 02:11:00,
2013-12-05 20:12:00,57.7,50.2,29.97,WNW,292,3.1,3.1,76,0.00,,---,0.00,VWS V14.01,2013-12-06 02:12:00,
2013-12-05 20:13:00,57.7,50.2,29.97,NW,315,2.2,3.1,76,0.00,,---,0.00,VWS V14.01,2013-12-06 02:13:00,
2013-12-05 20:14:00,57.5,49.6,29.97,North,0,2.2,4.0,75,0.00,,---,0.00,VWS V14.01,2013-12-06 02:14:00,
2013-12-05 20:15:00,57.5,50.0,29.97,WNW,292,4.3,4.3,76,0.00,,---,0.00,VWS V14.01,2013-12-06 02:15:00,
2013-12-05 20:16:00,57.5,49.6,29.97,NNW,338,2.5,4.3,75,0.00,,---,0.00,VWS V14.01,2013-12-06 02:16:00,
2013-12-05 20:17:00,57.5,49.6,29.97,WNW,292,2.7,3.1,75,0.00,,---,0.00,VWS V14.01,2013-12-06 02:17:00,
2013-12-05 20:18:00,57.3,49.8,29.97,NNW,338,2.5,2.7,76,0.00,,---,0.00,VWS V14.01,2013-12-06 02:18:00,
2013-12-05 20:19:00,57.3,49.8,29.97,NNW,338,2.7,3.6,76,0.00,,---,0.00,VWS V14.01,2013-12-06 02:19:00,
2013-12-05 20:20:00,57.3,49.8,29.97,North,0,2.9,2.9,76,0.00,,---,0.00,VWS V14.01,2013-12-06 02:20:00,
2013-12-05 20:21:00,57.1,49.6,29.97,NNW,338,3.6,5.4,76,0.00,,---,0.00,VWS V14.01,2013-12-06 02:21:00,
2013-12-05 20:22:00,57.1,49.3,29.97,NW,315,2.5,3.6,75,0.00,,---,0.00,VWS V14.01,2013-12-06 02:22:00,
2013-12-05 20:23:00,57.1,49.3,29.97,WNW,292,3.6,3.6,75,0.00,,---,0.00,VWS V14.01,2013-12-06 02:23:00,
2013-12-05 20:24:00,56.9,49.1,29.97,NNE,22,2.9,2.9,75,0.00,,---,0.00,VWS V14.01,2013-12-06 02:24:00,
2013-12-05 20:25:00,56.9,49.5,30.00,NNW,338,3.1,3.1,76,0.00,,---,0.00,VWS V14.01,2013-12-06 02:25:00,
2013-12-05 20:26:00,56.9,49.5,30.00,NNW,338,0.9,3.4,76,0.00,,---,0.00,VWS V14.01,2013-12-06 02:26:00,
2013-12-05 20:27:00,56.9,49.5,30.00,NNW,338,0.9,1.6,76,0.00,,---,0.00,VWS V14.01,2013-12-06 02:27:00,
2013-12-05 20:28:00,56.9,49.5,30.00,WNW,292,0.9,0.9,76,0.00,,---,0.00,VWS V14.01,2013-12-06 02:28:00,
2013-12-05 20:29:00,56.8,49.3,30.00,North,0,2.5,2.9,76,0.00,,---,0.00,VWS V14.01,2013-12-06 02:29:00,
2013-12-05 20:30:00,56.8,49.3,30.00,NNE,22,0.9,2.9,76,0.00,,---,0.00,VWS V14.01,2013-12-06 02:30:00,
2013-12-05 20:31:00,56.8,49.3,30.00,NNW,338,2.2,2.5,76,0.00,,---,0.00,VWS V14.01,2013-12-06 02:31:00,
2013-12-05 20:32:00,56.8,49.3,30.00,NNW,338,2.2,2.2,76,0.00,,---,0.00,VWS V14.01,2013-12-06 02:32:00,
2013-12-05 20:33:00,56.8,49.3,30.00,NNW,338,2.2,2.2,76,0.00,,---,0.00,VWS V14.01,2013-12-06 02:33:00,
2013-12-05 20:34:00,56.4,48.9,30.00,NNW,338,4.3,4.3,76,0.00,,---,0.00,VWS V14.01,2013-12-06 02:34:00,
2013-12-05 20:35:00,56.4,48.9,30.00,NNW,338,3.1,4.3,76,0.00,,---,0.00,VWS V14.01,2013-12-06 02:35:00,
2013-12-05 20:36:00,56.4,49.3,30.00,WNW,292,2.2,3.1,77,0.00,,---,0.00,VWS V14.01,2013-12-06 02:36:00,
2013-12-05 20:37:00,56.4,49.3,30.00,NNW,338,2.0,2.5,77,0.00,,---,0.00,VWS V14.01,2013-12-06 02:37:00,
2013-12-05 20:38:00,56.4,49.3,30.00,NNW,338,2.0,2.5,77,0.00,,---,0.00,VWS V14.01,2013-12-06 02:38:00,
2013-12-05 20:39:00,56.2,49.5,30.00,NW,315,3.1,4.9,78,0.00,,---,0.00,VWS V14.01,2013-12-06 02:39:00,
2013-12-05 20:40:00,56.2,49.5,30.00,NNW,338,1.6,3.1,78,0.00,,---,0.00,VWS V14.01,2013-12-06 02:40:00,
2013-12-05 20:41:00,56.2,49.5,30.00,WNW,292,3.6,3.6,78,0.00,,---,0.00,VWS V14.01,2013-12-06 02:41:00,
2013-12-05 20:42:00,56.0,49.3,30.00,NNW,338,3.4,3.6,78,0.00,,---,0.00,VWS V14.01,2013-12-06 02:42:00,
2013-12-05 20:43:00,56.0,49.3,30.00,WNW,292,2.9,3.4,78,0.00,,---,0.00,VWS V14.01,2013-12-06 02:43:00,
2013-12-05 20:44:00,56.0,49.3,30.00,NNW,338,2.5,3.6,78,0.00,,---,0.00,VWS V14.01,2013-12-06 02:44:00,
2013-12-05 20:45:00,55.9,49.1,30.00,NNW,338,2.0,2.9,78,0.00,,---,0.00,VWS V14.01,2013-12-06 02:45:00,
2013-12-05 20:46:00,55.9,49.1,30.00,NNW,338,2.0,2.5,78,0.00,,---,0.00,VWS V14.01,2013-12-06 02:46:00,
2013-12-05 20:47:00,55.9,49.1,30.00,NNW,338,3.6,3.6,78,0.00,,---,0.00,VWS V14.01,2013-12-06 02:47:00,
2013-12-05 20:48:00,55.9,49.1,30.00,NNW,338,2.5,3.6,78,0.00,,---,0.00,VWS V14.01,2013-12-06 02:48:00,
2013-12-05 20:49:00,55.9,49.1,30.00,NW,315,1.3,2.7,78,0.00,,---,0.00,VWS V14.01,2013-12-06 02:49:00,
2013-12-05 20:50:00,55.9,49.5,30.00,WNW,292,2.7,2.7,79,0.00,,---,0.00,VWS V14.01,2013-12-06 02:50:00,
2013-12-05 20:51:00,55.9,49.5,30.00,WNW,292,0.0,2.7,79,0.00,,---,0.00,VWS V14.01,2013-12-06 02:51:00,
2013-12-05 20:52:00,55.9,49.5,30.00,NNW,338,2.5,3.6,79,0.00,,---,0.00,VWS V14.01,2013-12-06 02:52:00,
2013-12-05 20:53:00,55.9,49.5,30.00,NNW,338,2.7,2.7,79,0.00,,---,0.00,VWS V14.01,2013-12-06 02:53:00,
2013-12-05 20:54:00,55.7,49.3,30.00,NNW,338,2.2,2.2,79,0.00,,---,0.00,VWS V14.01,2013-12-06 02:54:00,
2013-12-05 20:56:00,55.7,49.3,30.00,NNW,338,1.6,2.7,79,0.00,,---,0.00,VWS V14.01,2013-12-06 02:56:00,
2013-12-05 20:57:00,55.7,49.3,30.00,NNW,338,4.7,4.9,79,0.00,,---,0.00,VWS V14.01,2013-12-06 02:57:00,
2013-12-05 20:58:00,55.7,49.3,30.00,NNW,338,3.6,4.7,79,0.00,,---,0.00,VWS V14.01,2013-12-06 02:58:00,
2013-12-05 20:59:00,55.7,49.3,30.00,WNW,292,2.9,2.9,79,0.00,,---,0.00,VWS V14.01,2013-12-06 02:59:00,
2013-12-05 21:00:00,55.7,49.3,30.00,NNW,338,2.7,2.9,79,0.00,,---,0.00,VWS V14.01,2013-12-06 03:00:00,
2013-12-05 21:01:00,55.5,49.4,30.00,NNW,338,3.8,3.8,80,0.00,,---,0.00,VWS V14.01,2013-12-06 03:01:00,
2013-12-05 21:02:00,55.5,49.4,30.00,NNW,338,2.7,3.8,80,0.00,,---,0.00,VWS V14.01,2013-12-06 03:02:00,
2013-12-05 21:03:00,55.5,49.4,30.00,NNW,338,2.7,3.8,80,0.00,,---,0.00,VWS V14.01,2013-12-06 03:03:00,
2013-12-05 21:04:00,55.3,49.6,30.00,NW,315,5.4,5.4,81,0.00,,---,0.00,VWS V14.01,2013-12-06 03:04:00,
2013-12-05 21:05:00,55.3,49.3,30.00,NNW,338,3.4,5.4,80,0.00,,---,0.00,VWS V14.01,2013-12-06 03:05:00,
2013-12-05 21:06:00,55.3,49.6,30.00,NW,315,2.9,3.6,81,0.00,,---,0.00,VWS V14.01,2013-12-06 03:06:00,
2013-12-05 21:07:00,55.1,49.8,30.00,WNW,292,3.6,3.6,82,0.00,,---,0.00,VWS V14.01,2013-12-06 03:07:00,
2013-12-05 21:08:00,55.1,49.8,30.00,WNW,292,2.5,3.6,82,0.00,,---,0.00,VWS V14.01,2013-12-06 03:08:00,
2013-12-05 21:09:00,55.1,49.8,30.00,WNW,292,3.8,6.5,82,0.00,,---,0.00,VWS V14.01,2013-12-06 03:09:00,
2013-12-05 21:10:00,55.1,49.8,30.00,NNE,22,4.3,7.4,82,0.00,,---,0.00,VWS V14.01,2013-12-06 03:10:00,
2013-12-05 21:11:00,55.0,49.2,30.00,NNW,338,2.5,4.3,81,0.00,,---,0.00,VWS V14.01,2013-12-06 03:11:00,
2013-12-05 21:12:00,55.0,49.2,30.00,NNW,338,2.5,3.1,81,0.00,,---,0.00,VWS V14.01,2013-12-06 03:12:00,
2013-12-05 21:13:00,55.0,49.6,30.00,NNW,338,4.3,5.6,82,0.00,,---,0.00,VWS V14.01,2013-12-06 03:13:00,
2013-12-05 21:14:00,55.0,49.2,30.00,North,0,2.0,3.4,81,0.00,,---,0.00,VWS V14.01,2013-12-06 03:14:00,
2013-12-05 21:15:00,54.8,49.1,30.00,NNE,22,3.4,3.4,81,0.00,,---,0.00,VWS V14.01,2013-12-06 03:15:00,
2013-12-05 21:16:00,54.8,49.4,30.00,North,0,2.5,3.4,82,0.00,,---,0.00,VWS V14.01,2013-12-06 03:16:00,
2013-12-05 21:17:00,54.8,49.4,30.00,North,0,3.4,3.4,82,0.00,,---,0.00,VWS V14.01,2013-12-06 03:17:00,
2013-12-05 21:18:00,54.8,49.4,30.00,NNW,338,2.7,3.4,82,0.00,,---,0.00,VWS V14.01,2013-12-06 03:18:00,
2013-12-05 21:19:00,54.8,49.4,30.00,NNW,338,1.6,4.3,82,0.00,,---,0.00,VWS V14.01,2013-12-06 03:19:00,
2013-12-05 21:20:00,54.6,48.9,30.00,North,0,3.4,3.8,81,0.00,,---,0.00,VWS V14.01,2013-12-06 03:20:00,
2013-12-05 21:21:00,54.6,49.2,30.00,NW,315,2.9,4.0,82,0.00,,---,0.00,VWS V14.01,2013-12-06 03:21:00,
2013-12-05 21:22:00,54.6,48.9,30.00,NW,315,2.9,4.3,81,0.00,,---,0.00,VWS V14.01,2013-12-06 03:22:00,
2013-12-05 21:23:00,54.6,48.9,30.00,North,0,3.6,3.6,81,0.00,,---,0.00,VWS V14.01,2013-12-06 03:23:00,
2013-12-05 21:24:00,54.4,49.0,30.00,NNE,22,3.8,3.8,82,0.00,,---,0.00,VWS V14.01,2013-12-06 03:24:00,
2013-12-05 21:25:00,54.4,49.0,30.00,NNE,22,1.6,3.8,82,0.00,,---,0.00,VWS V14.01,2013-12-06 03:25:00,
2013-12-05 21:26:00,54.4,49.0,30.00,NNW,338,2.9,3.1,82,0.00,,---,0.00,VWS V14.01,2013-12-06 03:26:00,
2013-12-05 21:27:00,54.4,49.0,30.00,NNE,22,2.9,2.9,82,0.00,,---,0.00,VWS V14.01,2013-12-06 03:27:00,
2013-12-05 21:28:00,54.4,49.0,30.00,NNW,338,3.8,3.8,82,0.00,,---,0.00,VWS V14.01,2013-12-06 03:28:00,
2013-12-05 21:29:00,54.2,48.9,30.00,North,0,2.5,6.0,82,0.00,,---,0.00,VWS V14.01,2013-12-06 03:29:00,
2013-12-05 21:30:00,54.2,48.9,30.00,WNW,292,2.5,3.8,82,0.00,,---,0.00,VWS V14.01,2013-12-06 03:30:00,
2013-12-05 21:31:00,54.2,48.9,30.00,NNW,338,2.0,3.8,82,0.00,,---,0.00,VWS V14.01,2013-12-06 03:31:00,
2013-12-05 21:32:00,54.1,48.7,30.00,NW,315,2.0,3.4,82,0.00,,---,0.00,VWS V14.01,2013-12-06 03:32:00,
2013-12-05 21:33:00,54.1,48.7,30.00,NNE,22,2.2,2.2,82,0.00,,---,0.00,VWS V14.01,2013-12-06 03:33:00,
2013-12-05 21:34:00,54.1,49.0,30.00,North,0,2.2,4.3,83,0.00,,---,0.00,VWS V14.01,2013-12-06 03:34:00,
2013-12-05 21:35:00,54.1,48.7,30.00,North,0,2.2,2.2,82,0.00,,---,0.00,VWS V14.01,2013-12-06 03:35:00,
2013-12-05 21:36:00,54.1,48.7,30.00,North,0,2.0,2.5,82,0.00,,---,0.00,VWS V14.01,2013-12-06 03:36:00,
2013-12-05 21:37:00,54.1,48.7,30.00,NW,315,2.9,2.9,82,0.00,,---,0.00,VWS V14.01,2013-12-06 03:37:00,
2013-12-05 21:38:00,54.1,48.7,30.00,North,0,1.6,2.9,82,0.00,,---,0.00,VWS V14.01,2013-12-06 03:38:00,
2013-12-05 21:39:00,54.1,49.0,30.00,NW,315,1.1,2.5,83,0.00,,---,0.00,VWS V14.01,2013-12-06 03:39:00,
2013-12-05 21:40:00,54.1,49.0,30.00,North,0,1.6,2.7,83,0.00,,---,0.00,VWS V14.01,2013-12-06 03:40:00,
2013-12-05 21:41:00,54.1,49.0,30.00,NNW,338,0.0,2.0,83,0.00,,---,0.00,VWS V14.01,2013-12-06 03:41:00,
2013-12-05 21:42:00,54.1,49.0,30.00,NNW,338,2.2,2.9,83,0.00,,---,0.00,VWS V14.01,2013-12-06 03:42:00,
2013-12-05 21:43:00,54.1,49.0,30.00,NNW,338,2.0,2.2,83,0.00,,---,0.00,VWS V14.01,2013-12-06 03:43:00,
2013-12-05 21:44:00,53.9,48.8,30.00,NW,315,4.3,4.3,83,0.00,,---,0.00,VWS V14.01,2013-12-06 03:44:00,
2013-12-05 21:45:00,53.9,48.8,30.00,NW,315,2.5,4.3,83,0.00,,---,0.00,VWS V14.01,2013-12-06 03:45:00,
2013-12-05 21:46:00,53.9,48.8,30.00,WNW,292,2.7,2.7,83,0.00,,---,0.00,VWS V14.01,2013-12-06 03:46:00,
2013-12-05 21:47:00,53.9,48.8,30.00,NNW,338,2.5,3.6,83,0.00,,---,0.00,VWS V14.01,2013-12-06 03:47:00,
2013-12-05 21:48:00,53.9,48.8,30.00,NNW,338,1.6,2.5,83,0.00,,---,0.00,VWS V14.01,2013-12-06 03:48:00,
2013-12-05 21:49:00,53.9,48.8,30.00,NW,315,3.1,3.1,83,0.00,,---,0.00,VWS V14.01,2013-12-06 03:49:00,
2013-12-05 21:50:00,53.9,48.8,30.00,NW,315,2.2,3.1,83,0.00,,---,0.00,VWS V14.01,2013-12-06 03:50:00,
2013-12-05 21:51:00,53.9,49.2,30.00,NW,315,3.1,4.0,84,0.00,,---,0.00,VWS V14.01,2013-12-06 03:51:00,
2013-12-05 21:52:00,54.1,49.3,30.00,NNW,338,2.2,3.1,84,0.00,,---,0.00,VWS V14.01,2013-12-06 03:52:00,
2013-12-05 21:53:00,54.1,49.3,30.00,NNW,338,2.0,2.5,84,0.00,,---,0.00,VWS V14.01,2013-12-06 03:53:00,
2013-12-05 21:54:00,54.1,49.3,30.00,NW,315,3.8,3.8,84,0.00,,---,0.00,VWS V14.01,2013-12-06 03:54:00,
2013-12-05 21:55:00,54.1,49.3,30.00,NW,315,2.5,3.8,84,0.00,,---,0.00,VWS V14.01,2013-12-06 03:55:00,
2013-12-05 21:56:00,54.1,49.3,30.00,WNW,292,3.4,3.4,84,0.00,,---,0.00,VWS V14.01,2013-12-06 03:56:00,
2013-12-05 21:57:00,53.9,49.2,30.00,NNE,22,1.6,3.4,84,0.00,,---,0.00,VWS V14.01,2013-12-06 03:57:00,
2013-12-05 21:58:00,53.9,49.2,30.00,NNW,338,2.9,2.9,84,0.00,,---,0.00,VWS V14.01,2013-12-06 03:58:00,
2013-12-05 21:59:00,53.9,49.2,30.00,North,0,2.7,3.4,84,0.00,,---,0.00,VWS V14.01,2013-12-06 03:59:00,
2013-12-05 22:00:00,53.9,49.2,30.00,North,0,1.3,2.7,84,0.00,,---,0.00,VWS V14.01,2013-12-06 04:00:00,
2013-12-05 22:01:00,53.9,49.2,30.00,North,0,1.6,1.6,84,0.00,,---,0.00,VWS V14.01,2013-12-06 04:01:00,
2013-12-05 22:02:00,53.9,49.2,30.00,NW,315,3.4,3.4,84,0.00,,---,0.00,VWS V14.01,2013-12-06 04:02:00,
2013-12-05 22:03:00,53.9,49.2,30.00,NNW,338,1.1,3.4,84,0.00,,---,0.00,VWS V14.01,2013-12-06 04:03:00,
2013-12-05 22:04:00,53.9,49.2,30.00,NNW,338,0.9,2.2,84,0.00,,---,0.00,VWS V14.01,2013-12-06 04:04:00,
2013-12-05 22:05:00,53.9,49.2,30.00,North,0,0.0,0.9,84,0.00,,---,0.00,VWS V14.01,2013-12-06 04:05:00,
2013-12-05 22:06:00,53.9,49.2,30.00,NNW,338,0.0,3.1,84,0.00,,---,0.00,VWS V14.01,2013-12-06 04:06:00,
2013-12-05 22:07:00,53.9,49.2,30.00,NNW,338,2.9,2.9,84,0.00,,---,0.00,VWS V14.01,2013-12-06 04:07:00,
2013-12-05 22:08:00,53.9,49.2,30.00,NNW,338,2.9,4.0,84,0.00,,---,0.00,VWS V14.01,2013-12-06 04:08:00,
2013-12-05 22:09:00,53.9,49.2,30.00,NNW,338,1.6,1.6,84,0.00,,---,0.00,VWS V14.01,2013-12-06 04:09:00,
2013-12-05 22:10:00,53.9,49.2,30.00,North,0,0.0,1.6,84,0.00,,---,0.00,VWS V14.01,2013-12-06 04:10:00,
2013-12-05 22:11:00,53.9,49.2,30.00,NNW,338,0.0,0.0,84,0.00,,---,0.00,VWS V14.01,2013-12-06 04:11:00,
2013-12-05 22:12:00,53.9,49.2,30.00,NNE,22,1.1,1.6,84,0.00,,---,0.00,VWS V14.01,2013-12-06 04:12:00,
2013-12-05 22:13:00,53.9,49.2,30.00,NNE,22,1.1,1.1,84,0.00,,---,0.00,VWS V14.01,2013-12-06 04:13:00,
2013-12-05 22:14:00,53.9,49.2,30.00,NNE,22,0.9,1.3,84,0.00,,---,0.00,VWS V14.01,2013-12-06 04:14:00,
2013-12-05 22:15:00,53.9,49.2,30.00,NNE,22,0.9,0.9,84,0.00,,---,0.00,VWS V14.01,2013-12-06 04:15:00,
2013-12-05 22:16:00,53.9,49.2,30.00,NNW,338,2.2,2.2,84,0.00,,---,0.00,VWS V14.01,2013-12-06 04:16:00,
2013-12-05 22:17:00,53.9,49.2,30.00,NNW,338,1.6,2.2,84,0.00,,---,0.00,VWS V14.01,2013-12-06 04:17:00,
2013-12-05 22:18:00,53.9,49.5,30.00,NNW,338,2.2,2.2,85,0.00,,---,0.00,VWS V14.01,2013-12-06 04:18:00,
2013-12-05 22:19:00,53.9,49.5,30.00,NNW,338,2.7,2.7,85,0.00,,---,0.00,VWS V14.01,2013-12-06 04:19:00,
2013-12-05 22:20:00,53.9,49.5,30.00,NNW,338,3.4,3.4,85,0.00,,---,0.00,VWS V14.01,2013-12-06 04:20:00,
2013-12-05 22:21:00,53.7,49.3,30.00,North,0,1.6,3.4,85,0.00,,---,0.00,VWS V14.01,2013-12-06 04:21:00,
2013-12-05 22:22:00,53.7,49.3,30.00,NW,315,2.0,2.2,85,0.00,,---,0.00,VWS V14.01,2013-12-06 04:22:00,
2013-12-05 22:23:00,53.7,49.3,30.00,North,0,1.3,2.7,85,0.00,,---,0.00,VWS V14.01,2013-12-06 04:23:00,
2013-12-05 22:24:00,53.7,49.3,30.00,NNW,338,2.5,2.7,85,0.00,,---,0.00,VWS V14.01,2013-12-06 04:24:00,
2013-12-05 22:25:00,53.5,49.1,30.00,NNW,338,2.7,2.7,85,0.00,,---,0.00,VWS V14.01,2013-12-06 04:25:00,
2013-12-05 22:26:00,53.5,49.1,30.00,NNW,338,2.0,3.8,85,0.00,,---,0.00,VWS V14.01,2013-12-06 04:26:00,
2013-12-05 22:27:00,53.5,49.4,30.00,North,0,2.0,2.5,86,0.00,,---,0.00,VWS V14.01,2013-12-06 04:27:00,
2013-12-05 22:28:00,53.5,49.4,30.00,North,0,2.0,2.5,86,0.00,,---,0.00,VWS V14.01,2013-12-06 04:28:00,
2013-12-05 22:29:00,53.5,49.1,30.00,NNW,338,1.6,1.6,85,0.00,,---,0.00,VWS V14.01,2013-12-06 04:29:00,
2013-12-05 22:30:00,53.5,49.1,30.00,NNW,338,1.6,1.6,85,0.00,,---,0.00,VWS V14.01,2013-12-06 04:30:00,
2013-12-05 22:31:00,53.5,49.1,30.00,NNE,22,1.1,1.6,85,0.00,,---,0.00,VWS V14.01,2013-12-06 04:31:00,
2013-12-05 22:32:00,53.5,49.1,30.00,NNE,22,0.0,1.1,85,0.00,,---,0.00,VWS V14.01,2013-12-06 04:32:00,
2013-12-05 22:33:00,53.5,49.1,30.00,NNW,338,2.0,2.0,85,0.00,,---,0.00,VWS V14.01,2013-12-06 04:33:00,
2013-12-05 22:34:00,53.5,49.4,30.00,NW,315,3.4,3.4,86,0.00,,---,0.00,VWS V14.01,2013-12-06 04:34:00,
2013-12-05 22:35:00,53.5,49.8,30.00,NW,315,3.1,3.8,87,0.00,,---,0.00,VWS V14.01,2013-12-06 04:35:00,
2013-12-05 22:36:00,53.5,49.8,30.00,NNW,338,1.6,3.1,87,0.00,,---,0.00,VWS V14.01,2013-12-06 04:36:00,
2013-12-05 22:37:00,53.3,49.6,30.00,NNW,338,0.0,1.6,87,0.00,,---,0.00,VWS V14.01,2013-12-06 04:37:00,
2013-12-05 22:38:00,53.3,49.6,30.00,North,0,2.0,2.0,87,0.00,,---,0.00,VWS V14.01,2013-12-06 04:38:00,
2013-12-05 22:39:00,53.3,49.6,30.00,NNW,338,0.0,2.0,87,0.00,,---,0.00,VWS V14.01,2013-12-06 04:39:00,
2013-12-05 22:40:00,53.3,49.6,30.00,NNE,22,0.0,0.0,87,0.00,,---,0.00,VWS V14.01,2013-12-06 04:40:00,
2013-12-05 22:41:00,53.3,49.6,30.00,NNW,338,1.1,1.6,87,0.00,,---,0.00,VWS V14.01,2013-12-06 04:41:00,
2013-12-05 22:42:00,53.3,49.6,30.00,North,0,2.2,2.7,87,0.00,,---,0.00,VWS V14.01,2013-12-06 04:42:00,
2013-12-05 22:43:00,53.3,49.6,30.00,North,0,2.0,2.7,87,0.00,,---,0.00,VWS V14.01,2013-12-06 04:43:00,
2013-12-05 22:44:00,53.3,49.6,30.00,NNE,22,2.0,2.0,87,0.00,,---,0.00,VWS V14.01,2013-12-06 04:44:00,
2013-12-05 22:45:00,53.3,49.6,30.00,WNW,292,2.2,2.7,87,0.00,,---,0.00,VWS V14.01,2013-12-06 04:45:00,
2013-12-05 22:46:00,53.2,49.7,30.00,NNW,338,1.3,2.7,88,0.00,,---,0.00,VWS V14.01,2013-12-06 04:46:00,
2013-12-05 22:47:00,53.2,49.7,30.00,NNW,338,1.3,2.0,88,0.00,,---,0.00,VWS V14.01,2013-12-06 04:47:00,
2013-12-05 22:48:00,53.2,49.7,30.00,NNW,338,2.0,2.0,88,0.00,,---,0.00,VWS V14.01,2013-12-06 04:48:00,
2013-12-05 22:49:00,53.2,49.7,30.00,NW,315,2.9,3.4,88,0.00,,---,0.00,VWS V14.01,2013-12-06 04:49:00,
2013-12-05 22:50:00,53.2,49.7,30.00,WNW,292,2.0,3.1,88,0.00,,---,0.00,VWS V14.01,2013-12-06 04:50:00,
2013-12-05 22:51:00,53.2,50.0,30.00,NW,315,2.5,2.5,89,0.00,,---,0.00,VWS V14.01,2013-12-06 04:51:00,
2013-12-05 22:52:00,53.2,50.0,30.00,WNW,292,2.0,2.5,89,0.00,,---,0.00,VWS V14.01,2013-12-06 04:52:00,
2013-12-05 22:53:00,53.2,50.0,30.00,NW,315,4.3,4.3,89,0.00,,---,0.00,VWS V14.01,2013-12-06 04:53:00,
2013-12-05 22:54:00,53.2,50.0,30.00,NW,315,3.4,3.4,89,0.00,,---,0.00,VWS V14.01,2013-12-06 04:54:00,
2013-12-05 22:55:00,53.2,50.0,30.00,NNW,338,2.5,3.8,89,0.00,,---,0.00,VWS V14.01,2013-12-06 04:55:00,
2013-12-05 22:56:00,53.2,50.0,30.00,NW,315,2.5,2.5,89,0.00,,---,0.00,VWS V14.01,2013-12-06 04:56:00,
2013-12-05 22:57:00,53.2,50.0,30.00,NW,315,2.5,2.5,89,0.00,,---,0.00,VWS V14.01,2013-12-06 04:57:00,
2013-12-05 22:58:00,53.2,50.0,30.00,NNW,338,1.6,2.5,89,0.00,,---,0.00,VWS V14.01,2013-12-06 04:58:00,
2013-12-05 22:59:00,53.2,50.0,30.00,NNW,338,1.6,2.9,89,0.00,,---,0.00,VWS V14.01,2013-12-06 04:59:00,
2013-12-05 23:00:00,53.2,49.7,30.00,NNW,338,1.6,1.6,88,0.00,,---,0.00,VWS V14.01,2013-12-06 05:00:00,
2013-12-05 23:01:00,53.2,49.7,30.00,NW,315,1.6,1.6,88,0.00,,---,0.00,VWS V14.01,2013-12-06 05:01:00,
2013-12-05 23:02:00,53.2,50.0,30.00,WNW,292,2.5,3.4,89,0.00,,---,0.00,VWS V14.01,2013-12-06 05:02:00,
2013-12-05 23:03:00,53.2,50.0,30.00,NNW,338,2.0,2.5,89,0.00,,---,0.00,VWS V14.01,2013-12-06 05:03:00,
2013-12-05 23:04:00,53.2,50.0,30.00,NNW,338,1.3,2.0,89,0.00,,---,0.00,VWS V14.01,2013-12-06 05:04:00,
2013-12-05 23:05:00,53.2,49.7,30.00,NNW,338,2.0,2.0,88,0.00,,---,0.00,VWS V14.01,2013-12-06 05:05:00,
2013-12-05 23:06:00,53.2,50.0,30.00,North,0,2.0,2.0,89,0.00,,---,0.00,VWS V14.01,2013-12-06 05:06:00,
2013-12-05 23:07:00,53.2,50.0,30.00,NNW,338,2.2,2.2,89,0.00,,---,0.00,VWS V14.01,2013-12-06 05:07:00,
2013-12-05 23:08:00,53.2,50.0,30.00,NNW,338,1.6,2.9,89,0.00,,---,0.00,VWS V14.01,2013-12-06 05:08:00,
2013-12-05 23:09:00,53.2,50.3,30.00,NNW,338,0.9,2.0,90,0.00,,---,0.00,VWS V14.01,2013-12-06 05:09:00,
2013-12-05 23:10:00,53.2,50.3,30.00,North,0,2.0,2.2,90,0.00,,---,0.00,VWS V14.01,2013-12-06 05:10:00,
2013-12-05 23:11:00,53.2,50.3,30.00,North,0,0.0,2.2,90,0.00,,---,0.00,VWS V14.01,2013-12-06 05:11:00,
2013-12-05 23:12:00,53.2,50.3,30.00,North,0,0.0,0.0,90,0.00,,---,0.00,VWS V14.01,2013-12-06 05:12:00,
2013-12-05 23:13:00,53.2,50.0,30.00,NNW,338,2.7,2.7,89,0.00,,---,0.00,VWS V14.01,2013-12-06 05:13:00,
2013-12-05 23:14:00,53.2,50.3,30.00,NW,315,2.9,2.9,90,0.00,,---,0.00,VWS V14.01,2013-12-06 05:14:00,
2013-12-05 23:15:00,53.2,50.3,30.00,NW,315,2.2,3.1,90,0.00,,---,0.00,VWS V14.01,2013-12-06 05:15:00,
2013-12-05 23:16:00,53.2,50.0,30.00,NNW,338,1.1,2.2,89,0.00,,---,0.00,VWS V14.01,2013-12-06 05:16:00,
2013-12-05 23:17:00,53.2,50.0,30.00,NNW,338,1.3,1.3,89,0.00,,---,0.00,VWS V14.01,2013-12-06 05:17:00,
2013-12-05 23:18:00,53.2,50.0,30.00,WNW,292,1.6,2.5,89,0.00,,---,0.00,VWS V14.01,2013-12-06 05:18:00,
2013-12-05 23:19:00,53.2,50.0,30.00,NW,315,2.7,2.7,89,0.00,,---,0.00,VWS V14.01,2013-12-06 05:19:00,
2013-12-05 23:20:00,53.0,49.8,30.00,NNW,338,2.9,3.4,89,0.00,,---,0.00,VWS V14.01,2013-12-06 05:20:00,
2013-12-05 23:21:00,53.0,49.8,30.00,NNW,338,2.2,2.9,89,0.00,,---,0.00,VWS V14.01,2013-12-06 05:21:00,
2013-12-05 23:22:00,53.0,49.8,30.00,NW,315,2.2,2.7,89,0.00,,---,0.00,VWS V14.01,2013-12-06 05:22:00,
2013-12-05 23:23:00,53.0,49.8,30.00,NW,315,0.0,2.2,89,0.00,,---,0.00,VWS V14.01,2013-12-06 05:23:00,
2013-12-05 23:24:00,53.0,49.8,30.00,NW,315,2.0,3.1,89,0.00,,---,0.00,VWS V14.01,2013-12-06 05:24:00,
2013-12-05 23:25:00,53.0,49.8,30.00,NNW,338,2.0,2.0,89,0.00,,---,0.00,VWS V14.01,2013-12-06 05:25:00,
2013-12-05 23:26:00,53.0,49.8,30.00,NW,315,1.6,2.0,89,0.00,,---,0.00,VWS V14.01,2013-12-06 05:26:00,
2013-12-05 23:27:00,53.0,49.8,30.00,NW,315,1.3,1.6,89,0.00,,---,0.00,VWS V14.01,2013-12-06 05:27:00,
2013-12-05 23:28:00,53.0,49.8,30.00,NNW,338,3.4,3.4,89,0.00,,---,0.00,VWS V14.01,2013-12-06 05:28:00,
2013-12-05 23:29:00,53.0,50.1,30.00,NNW,338,2.5,3.8,90,0.00,,---,0.00,VWS V14.01,2013-12-06 05:29:00,
2013-12-05 23:30:00,53.0,50.1,30.00,WNW,292,1.3,3.1,90,0.00,,---,0.00,VWS V14.01,2013-12-06 05:30:00,
2013-12-05 23:31:00,53.0,50.1,30.00,WNW,292,1.6,3.6,90,0.00,,---,0.00,VWS V14.01,2013-12-06 05:31:00,
2013-12-05 23:32:00,53.0,50.1,30.00,NNW,338,1.1,1.6,90,0.00,,---,0.00,VWS V14.01,2013-12-06 05:32:00,
2013-12-05 23:33:00,53.0,50.1,30.00,NNW,338,1.1,1.3,90,0.00,,---,0.00,VWS V14.01,2013-12-06 05:33:00,
2013-12-05 23:34:00,53.0,50.1,30.00,WNW,292,1.3,1.6,90,0.00,,---,0.00,VWS V14.01,2013-12-06 05:34:00,
2013-12-05 23:35:00,53.0,49.8,30.00,WNW,292,1.3,1.3,89,0.00,,---,0.00,VWS V14.01,2013-12-06 05:35:00,
2013-12-05 23:36:00,53.0,49.8,30.00,NNW,338,0.0,1.3,89,0.00,,---,0.00,VWS V14.01,2013-12-06 05:36:00,
2013-12-05 23:37:00,53.0,49.8,30.00,NNW,338,0.0,0.0,89,0.00,,---,0.00,VWS V14.01,2013-12-06 05:37:00,
2013-12-05 23:38:00,53.0,49.8,30.00,NNW,338,0.0,2.0,89,0.00,,---,0.00,VWS V14.01,2013-12-06 05:38:00,
2013-12-05 23:39:00,53.0,49.8,30.00,NNW,338,0.0,0.0,89,0.00,,---,0.00,VWS V14.01,2013-12-06 05:39:00,
2013-12-05 23:40:00,53.0,49.8,30.00,WNW,292,2.7,3.1,89,0.00,,---,0.00,VWS V14.01,2013-12-06 05:40:00,
2013-12-05 23:41:00,53.0,50.1,30.00,WNW,292,2.9,3.6,90,0.00,,---,0.00,VWS V14.01,2013-12-06 05:41:00,
2013-12-05 23:42:00,53.0,50.1,30.00,WNW,292,2.0,3.1,90,0.00,,---,0.00,VWS V14.01,2013-12-06 05:42:00,
2013-12-05 23:43:00,53.0,50.1,30.00,WNW,292,1.1,2.5,90,0.00,,---,0.00,VWS V14.01,2013-12-06 05:43:00,
2013-12-05 23:44:00,53.0,50.1,30.00,NW,315,2.2,2.9,90,0.00,,---,0.00,VWS V14.01,2013-12-06 05:44:00,
2013-12-05 23:45:00,53.0,50.1,30.00,NNW,338,2.0,3.8,90,0.00,,---,0.00,VWS V14.01,2013-12-06 05:45:00,
2013-12-05 23:46:00,53.0,50.1,30.00,NW,315,2.0,2.0,90,0.00,,---,0.00,VWS V14.01,2013-12-06 05:46:00,
2013-12-05 23:47:00,53.0,50.1,30.00,NNW,338,1.6,2.5,90,0.00,,---,0.00,VWS V14.01,2013-12-06 05:47:00,
2013-12-05 23:48:00,53.0,50.1,30.00,NNW,338,2.2,3.1,90,0.00,,---,0.00,VWS V14.01,2013-12-06 05:48:00,
2013-12-05 23:49:00,53.0,50.1,30.00,NNW,338,2.0,2.2,90,0.00,,---,0.00,VWS V14.01,2013-12-06 05:49:00,
2013-12-05 23:50:00,53.0,50.1,30.00,NNW,338,1.6,2.0,90,0.00,,---,0.00,VWS V14.01,2013-12-06 05:50:00,
2013-12-05 23:51:00,53.0,50.1,30.00,NNW,338,1.1,1.6,90,0.00,,---,0.00,VWS V14.01,2013-12-06 05:51:00,
2013-12-05 23:52:00,53.0,50.1,30.00,NW,315,2.0,2.0,90,0.00,,---,0.00,VWS V14.01,2013-12-06 05:52:00,
2013-12-05 23:53:00,53.0,50.1,30.00,WNW,292,2.0,2.7,90,0.00,,---,0.00,VWS V14.01,2013-12-06 05:53:00,
2013-12-05 23:54:00,53.0,50.1,30.00,WNW,292,2.7,2.7,90,0.00,,---,0.00,VWS V14.01,2013-12-06 05:54:00,
2013-12-05 23:55:00,53.0,50.1,30.00,NNW,338,2.7,3.4,90,0.00,,---,0.00,VWS V14.01,2013-12-06 05:55:00,
2013-12-05 23:56:00,53.0,50.1,30.00,NW,315,3.6,3.6,90,0.00,,---,0.00,VWS V14.01,2013-12-06 05:56:00,
2013-12-05 23:57:00,53.0,50.1,30.00,NW,315,2.2,3.6,90,0.00,,---,0.00,VWS V14.01,2013-12-06 05:57:00,
2013-12-05 23:58:00,53.0,50.1,30.00,NNW,338,2.7,2.9,90,0.00,,---,0.00,VWS V14.01,2013-12-06 05:58:00,
2013-12-05 23:59:00,52.8,50.0,30.00,NNW,338,3.4,4.3,90,0.00,,---,0.00,VWS V14.01,2013-12-06 05:59:00,